PWSweather.com
Personal Weather Stations
Station Observations

Enon Chester, VA 23836

Lat: 37.3609267, Lon: -77.31545840000001

Elevation: 89

Station Type: Acurite

http://www.wunderground.com/personal-weather-station/dashboard?ID=KVACHEST67

High Low Average
Temperature 54.0°F12.2°C 22.1°F-5.5°C 38.8°F3.8°C
Dew Point 47.6°F8.7°C 6.1°F-14.4°C 26.2°F-3.2°C
Winds 27.9 mph 44.9 kmh Calm Calm 7.0 mph SW11.3 kmh SW
Wind Gusts 27.9 mph44.9 kmh -- 11.0 mph17.7 kmh
Humidity 95% 27% 64%
Pressure 30.48 in1032.2 mb 29.86 in1011.2 mb -
Precipitation 0.23 in5.8 mm - -
Hour Temp Dew Point Humidity Winds Wind Gusts Pressure Precip Precip Rate Daily Precip Total
12:00 AM 54.0°F12.2°C 44.1°F6.7°C 69% 1.7 mph SW2.7 kmh SW 3.7 mph6.0 kmh 29.86 in1011.2 mb 0.00 in0.0 mm 0.00 in0.0 mm 0.00 in0.0 mm
12:01 AM 54.0°F12.2°C 44.1°F6.7°C 69% 1.1 mph E1.8 kmh E 3.7 mph6.0 kmh 29.86 in1011.2 mb 0.00 in0.0 mm 0.00 in0.0 mm 0.00 in0.0 mm
12:02 AM 54.0°F12.2°C 44.1°F6.7°C 69% 2.7 mph WSW4.3 kmh WSW 3.7 mph6.0 kmh 29.86 in1011.2 mb 0.00 in0.0 mm 0.00 in0.0 mm 0.00 in0.0 mm
12:03 AM 54.0°F12.2°C 44.1°F6.7°C 69% Calm Calm 3.7 mph6.0 kmh 29.86 in1011.2 mb 0.00 in0.0 mm 0.00 in0.0 mm 0.00 in0.0 mm
12:04 AM 54.0°F12.2°C 44.1°F6.7°C 69% 1.7 mph W2.7 kmh W 3.7 mph6.0 kmh 29.86 in1011.2 mb 0.00 in0.0 mm 0.00 in0.0 mm 0.00 in0.0 mm
12:05 AM 54.0°F12.2°C 44.1°F6.7°C 69% 1.1 mph W1.8 kmh W 3.2 mph5.1 kmh 29.86 in1011.2 mb 0.00 in0.0 mm 0.00 in0.0 mm 0.00 in0.0 mm
12:06 AM 54.0°F12.2°C 44.1°F6.7°C 69% 3.7 mph W6.0 kmh W 4.2 mph6.8 kmh 29.86 in1011.2 mb 0.00 in0.0 mm 0.00 in0.0 mm 0.00 in0.0 mm
12:07 AM 54.0°F12.2°C 44.1°F6.7°C 69% 1.7 mph W2.7 kmh W 5.8 mph9.3 kmh 29.86 in1011.2 mb 0.00 in0.0 mm 0.00 in0.0 mm 0.00 in0.0 mm
12:08 AM 54.0°F12.2°C 44.1°F6.7°C 69% 4.2 mph WNW6.8 kmh WNW 5.8 mph9.3 kmh 29.86 in1011.2 mb 0.00 in0.0 mm 0.00 in0.0 mm 0.00 in0.0 mm
12:09 AM 54.0°F12.2°C 44.1°F6.7°C 69% 2.2 mph W3.5 kmh W 5.8 mph9.3 kmh 29.86 in1011.2 mb 0.00 in0.0 mm 0.00 in0.0 mm 0.00 in0.0 mm
12:10 AM 54.0°F12.2°C 44.1°F6.7°C 69% 3.7 mph W6.0 kmh W 5.8 mph9.3 kmh 29.86 in1011.2 mb 0.00 in0.0 mm 0.00 in0.0 mm 0.00 in0.0 mm
12:11 AM 54.0°F12.2°C 44.1°F6.7°C 69% 2.2 mph W3.5 kmh W 5.8 mph9.3 kmh 29.86 in1011.2 mb 0.00 in0.0 mm 0.00 in0.0 mm 0.00 in0.0 mm
12:12 AM 54.0°F12.2°C 44.4°F6.9°C 70% 2.2 mph W3.5 kmh W 5.8 mph9.3 kmh 29.86 in1011.2 mb 0.00 in0.0 mm 0.00 in0.0 mm 0.00 in0.0 mm
12:13 AM 54.0°F12.2°C 44.4°F6.9°C 70% 3.2 mph NNW5.1 kmh NNW 5.8 mph9.3 kmh 29.86 in1011.2 mb 0.00 in0.0 mm 0.00 in0.0 mm 0.00 in0.0 mm
12:14 AM 54.0°F12.2°C 44.4°F6.9°C 70% 4.2 mph W6.8 kmh W 5.8 mph9.3 kmh 29.86 in1011.2 mb 0.00 in0.0 mm 0.00 in0.0 mm 0.00 in0.0 mm
12:15 AM 54.0°F12.2°C 44.4°F6.9°C 70% 3.2 mph W5.1 kmh W 5.8 mph9.3 kmh 29.86 in1011.2 mb 0.00 in0.0 mm 0.00 in0.0 mm 0.00 in0.0 mm
12:16 AM 54.0°F12.2°C 44.4°F6.9°C 70% 2.7 mph W4.3 kmh W 5.8 mph9.3 kmh 29.86 in1011.2 mb 0.00 in0.0 mm 0.00 in0.0 mm 0.00 in0.0 mm
12:17 AM 53.8°F12.1°C 44.6°F7.0°C 71% 3.2 mph W5.1 kmh W 4.7 mph7.6 kmh 29.87 in1011.5 mb 0.00 in0.0 mm 0.00 in0.0 mm 0.00 in0.0 mm
12:18 AM 53.8°F12.1°C 45.0°F7.2°C 72% 3.7 mph WNW6.0 kmh WNW 4.7 mph7.6 kmh 29.87 in1011.5 mb 0.00 in0.0 mm 0.00 in0.0 mm 0.00 in0.0 mm
12:19 AM 53.8°F12.1°C 45.0°F7.2°C 72% 3.2 mph W5.1 kmh W 4.7 mph7.6 kmh 29.87 in1011.5 mb 0.00 in0.0 mm 0.00 in0.0 mm 0.00 in0.0 mm
12:20 AM 53.8°F12.1°C 45.0°F7.2°C 72% 2.7 mph W4.3 kmh W 4.7 mph7.6 kmh 29.87 in1011.5 mb 0.00 in0.0 mm 0.00 in0.0 mm 0.00 in0.0 mm
12:21 AM 53.6°F12.0°C 45.2°F7.3°C 73% 2.2 mph W3.5 kmh W 4.7 mph7.6 kmh 29.87 in1011.5 mb 0.00 in0.0 mm 0.00 in0.0 mm 0.00 in0.0 mm
12:22 AM 53.6°F12.0°C 45.5°F7.5°C 74% 2.2 mph W3.5 kmh W 4.7 mph7.6 kmh 29.87 in1011.5 mb 0.00 in0.0 mm 0.00 in0.0 mm 0.00 in0.0 mm
12:23 AM 53.4°F11.9°C 45.3°F7.4°C 74% 4.2 mph W6.8 kmh W 4.7 mph7.6 kmh 29.87 in1011.5 mb 0.00 in0.0 mm 0.00 in0.0 mm 0.00 in0.0 mm
12:24 AM 53.2°F11.8°C 45.5°F7.5°C 75% 3.7 mph WSW6.0 kmh WSW 4.7 mph7.6 kmh 29.87 in1011.5 mb 0.00 in0.0 mm 0.00 in0.0 mm 0.00 in0.0 mm
12:25 AM 53.1°F11.7°C 45.7°F7.6°C 76% 4.7 mph SW7.6 kmh SW 4.7 mph7.6 kmh 29.87 in1011.5 mb 0.00 in0.0 mm 0.00 in0.0 mm 0.00 in0.0 mm
12:26 AM 52.7°F11.5°C 46.0°F7.8°C 78% 4.2 mph W6.8 kmh W 5.3 mph8.5 kmh 29.87 in1011.5 mb 0.00 in0.0 mm 0.00 in0.0 mm 0.00 in0.0 mm
12:27 AM 52.5°F11.4°C 46.2°F7.9°C 79% 7.8 mph W12.6 kmh W 7.8 mph12.6 kmh 29.87 in1011.5 mb 0.01 in0.3 mm 0.60 in15.2 mm 0.01 in0.3 mm
12:28 AM 52.3°F11.3°C 46.3°F7.9°C 80% 6.8 mph WNW10.9 kmh WNW 7.8 mph12.6 kmh 29.87 in1011.5 mb 0.01 in0.3 mm 0.00 in0.0 mm 0.01 in0.3 mm
12:29 AM 52.3°F11.3°C 46.3°F7.9°C 80% 3.7 mph WNW6.0 kmh WNW 7.8 mph12.6 kmh 29.87 in1011.5 mb 0.02 in0.5 mm 0.60 in15.2 mm 0.02 in0.5 mm
12:30 AM 52.0°F11.1°C 46.7°F8.2°C 82% 4.2 mph W6.8 kmh W 7.8 mph12.6 kmh 29.89 in1012.2 mb 0.02 in0.5 mm 0.00 in0.0 mm 0.02 in0.5 mm
12:31 AM 52.0°F11.1°C 46.7°F8.2°C 82% 5.3 mph W8.5 kmh W 7.8 mph12.6 kmh 29.89 in1012.2 mb 0.02 in0.5 mm 0.00 in0.0 mm 0.02 in0.5 mm
12:32 AM 51.4°F10.8°C 46.7°F8.2°C 84% 4.7 mph W7.6 kmh W 7.8 mph12.6 kmh 29.89 in1012.2 mb 0.03 in0.8 mm 0.60 in15.2 mm 0.03 in0.8 mm
12:33 AM 51.3°F10.7°C 46.9°F8.3°C 85% 4.7 mph W7.6 kmh W 7.8 mph12.6 kmh 29.89 in1012.2 mb 0.03 in0.8 mm 0.00 in0.0 mm 0.03 in0.8 mm
12:34 AM 51.3°F10.7°C 46.9°F8.3°C 85% 3.7 mph WSW6.0 kmh WSW 7.8 mph12.6 kmh 29.89 in1012.2 mb 0.04 in1.0 mm 0.60 in15.2 mm 0.04 in1.0 mm
12:35 AM 50.9°F10.5°C 46.6°F8.1°C 85% 6.3 mph NNW10.1 kmh NNW 7.8 mph12.6 kmh 29.89 in1012.2 mb 0.04 in1.0 mm 0.00 in0.0 mm 0.04 in1.0 mm
12:36 AM 50.9°F10.5°C 46.9°F8.3°C 86% 2.7 mph WNW4.3 kmh WNW 7.8 mph12.6 kmh 29.89 in1012.2 mb 0.05 in1.3 mm 0.60 in15.2 mm 0.05 in1.3 mm
12:37 AM 50.9°F10.5°C 46.9°F8.3°C 86% 7.3 mph NW11.7 kmh NW 7.3 mph11.7 kmh 29.89 in1012.2 mb 0.05 in1.3 mm 0.00 in0.0 mm 0.05 in1.3 mm
12:38 AM 50.7°F10.4°C 47.0°F8.3°C 87% 4.7 mph W7.6 kmh W 7.3 mph11.7 kmh 29.89 in1012.2 mb 0.06 in1.5 mm 0.60 in15.2 mm 0.06 in1.5 mm
12:39 AM 50.7°F10.4°C 47.0°F8.3°C 87% 4.7 mph W7.6 kmh W 7.3 mph11.7 kmh 29.89 in1012.2 mb 0.06 in1.5 mm 0.00 in0.0 mm 0.06 in1.5 mm
12:40 AM 50.5°F10.3°C 46.8°F8.2°C 87% 3.7 mph W6.0 kmh W 7.3 mph11.7 kmh 29.89 in1012.2 mb 0.06 in1.5 mm 0.00 in0.0 mm 0.06 in1.5 mm
12:41 AM 50.4°F10.2°C 47.0°F8.3°C 88% 4.7 mph W7.6 kmh W 7.3 mph11.7 kmh 29.89 in1012.2 mb 0.06 in1.5 mm 0.00 in0.0 mm 0.06 in1.5 mm
12:42 AM 50.4°F10.2°C 47.0°F8.3°C 88% 5.3 mph W8.5 kmh W 7.3 mph11.7 kmh 29.89 in1012.2 mb 0.06 in1.5 mm 0.00 in0.0 mm 0.06 in1.5 mm
12:43 AM 50.4°F10.2°C 47.0°F8.3°C 88% 4.7 mph WNW7.6 kmh WNW 7.3 mph11.7 kmh 29.89 in1012.2 mb 0.06 in1.5 mm 0.00 in0.0 mm 0.06 in1.5 mm
12:44 AM 50.2°F10.1°C 47.1°F8.4°C 89% 3.2 mph WNW5.1 kmh WNW 7.3 mph11.7 kmh 29.89 in1012.2 mb 0.06 in1.5 mm 0.00 in0.0 mm 0.06 in1.5 mm
12:45 AM 50.2°F10.1°C 47.1°F8.4°C 89% 3.7 mph W6.0 kmh W 7.3 mph11.7 kmh 29.89 in1012.2 mb 0.06 in1.5 mm 0.00 in0.0 mm 0.06 in1.5 mm
12:46 AM 50.2°F10.1°C 47.1°F8.4°C 89% 2.2 mph W3.5 kmh W 7.3 mph11.7 kmh 29.89 in1012.2 mb 0.06 in1.5 mm 0.00 in0.0 mm 0.06 in1.5 mm
12:47 AM 50.0°F10.0°C 46.9°F8.3°C 89% 2.7 mph WNW4.3 kmh WNW 7.3 mph11.7 kmh 29.89 in1012.2 mb 0.06 in1.5 mm 0.00 in0.0 mm 0.06 in1.5 mm
12:48 AM 50.0°F10.0°C 46.9°F8.3°C 89% 2.7 mph NNW4.3 kmh NNW 5.3 mph8.5 kmh 29.89 in1012.2 mb 0.06 in1.5 mm 0.00 in0.0 mm 0.06 in1.5 mm
12:49 AM 50.0°F10.0°C 47.2°F8.4°C 90% 3.7 mph W6.0 kmh W 5.3 mph8.5 kmh 29.89 in1012.2 mb 0.06 in1.5 mm 0.00 in0.0 mm 0.06 in1.5 mm
12:50 AM 50.0°F10.0°C 47.2°F8.4°C 90% 2.2 mph W3.5 kmh W 5.3 mph8.5 kmh 29.89 in1012.2 mb 0.06 in1.5 mm 0.00 in0.0 mm 0.06 in1.5 mm
12:51 AM 49.8°F9.9°C 47.0°F8.3°C 90% 3.7 mph W6.0 kmh W 5.3 mph8.5 kmh 29.89 in1012.2 mb 0.07 in1.8 mm 0.60 in15.2 mm 0.07 in1.8 mm
12:52 AM 49.8°F9.9°C 47.0°F8.3°C 90% 4.2 mph W6.8 kmh W 5.3 mph8.5 kmh 29.89 in1012.2 mb 0.07 in1.8 mm 0.00 in0.0 mm 0.07 in1.8 mm
12:53 AM 49.8°F9.9°C 47.0°F8.3°C 90% 4.7 mph WNW7.6 kmh WNW 4.7 mph7.6 kmh 29.89 in1012.2 mb 0.07 in1.8 mm 0.00 in0.0 mm 0.07 in1.8 mm
12:54 AM 49.6°F9.8°C 46.8°F8.2°C 90% 2.7 mph WSW4.3 kmh WSW 4.7 mph7.6 kmh 29.90 in1012.5 mb 0.07 in1.8 mm 0.00 in0.0 mm 0.07 in1.8 mm
12:55 AM 49.6°F9.8°C 46.8°F8.2°C 90% 2.2 mph WNW3.5 kmh WNW 4.7 mph7.6 kmh 29.90 in1012.5 mb 0.07 in1.8 mm 0.00 in0.0 mm 0.07 in1.8 mm
12:56 AM 49.6°F9.8°C 47.1°F8.4°C 91% 4.7 mph W7.6 kmh W 4.7 mph7.6 kmh 29.90 in1012.5 mb 0.07 in1.8 mm 0.00 in0.0 mm 0.07 in1.8 mm
12:57 AM 49.6°F9.8°C 47.1°F8.4°C 91% 3.2 mph W5.1 kmh W 4.7 mph7.6 kmh 29.90 in1012.5 mb 0.07 in1.8 mm 0.00 in0.0 mm 0.07 in1.8 mm
12:58 AM 49.6°F9.8°C 47.1°F8.4°C 91% 3.2 mph W5.1 kmh W 4.7 mph7.6 kmh 29.90 in1012.5 mb 0.07 in1.8 mm 0.00 in0.0 mm 0.07 in1.8 mm
12:59 AM 49.6°F9.8°C 47.1°F8.4°C 91% 5.3 mph W8.5 kmh W 5.3 mph8.5 kmh 29.90 in1012.5 mb 0.07 in1.8 mm 0.00 in0.0 mm 0.07 in1.8 mm
01:00 AM 49.6°F9.8°C 47.1°F8.4°C 91% 2.2 mph WNW3.5 kmh WNW 5.3 mph8.5 kmh 29.90 in1012.5 mb 0.07 in1.8 mm 0.00 in0.0 mm 0.07 in1.8 mm
01:01 AM 49.5°F9.7°C 47.0°F8.3°C 91% 3.7 mph W6.0 kmh W 5.3 mph8.5 kmh 29.90 in1012.5 mb 0.07 in1.8 mm 0.00 in0.0 mm 0.07 in1.8 mm
01:02 AM 49.5°F9.7°C 47.0°F8.3°C 91% 4.2 mph W6.8 kmh W 5.3 mph8.5 kmh 29.90 in1012.5 mb 0.07 in1.8 mm 0.00 in0.0 mm 0.07 in1.8 mm
01:03 AM 49.5°F9.7°C 47.3°F8.5°C 92% 2.7 mph W4.3 kmh W 5.3 mph8.5 kmh 29.90 in1012.5 mb 0.07 in1.8 mm 0.00 in0.0 mm 0.07 in1.8 mm
01:04 AM 49.5°F9.7°C 47.3°F8.5°C 92% 3.7 mph W6.0 kmh W 5.3 mph8.5 kmh 29.90 in1012.5 mb 0.07 in1.8 mm 0.00 in0.0 mm 0.07 in1.8 mm
01:05 AM 49.3°F9.6°C 47.1°F8.4°C 92% 3.2 mph W5.1 kmh W 5.3 mph8.5 kmh 29.90 in1012.5 mb 0.07 in1.8 mm 0.00 in0.0 mm 0.07 in1.8 mm
01:06 AM 49.3°F9.6°C 47.1°F8.4°C 92% 3.7 mph W6.0 kmh W 5.3 mph8.5 kmh 29.90 in1012.5 mb 0.07 in1.8 mm 0.00 in0.0 mm 0.07 in1.8 mm
01:07 AM 49.3°F9.6°C 47.1°F8.4°C 92% 1.7 mph NNW2.7 kmh NNW 5.3 mph8.5 kmh 29.90 in1012.5 mb 0.08 in2.0 mm 0.60 in15.2 mm 0.08 in2.0 mm
01:08 AM 49.3°F9.6°C 47.1°F8.4°C 92% 2.2 mph W3.5 kmh W 5.3 mph8.5 kmh 29.90 in1012.5 mb 0.08 in2.0 mm 0.00 in0.0 mm 0.08 in2.0 mm
01:09 AM 49.3°F9.6°C 47.1°F8.4°C 92% 2.2 mph W3.5 kmh W 4.7 mph7.6 kmh 29.90 in1012.5 mb 0.08 in2.0 mm 0.00 in0.0 mm 0.08 in2.0 mm
01:10 AM 49.3°F9.6°C 47.4°F8.6°C 93% 3.7 mph W6.0 kmh W 5.3 mph8.5 kmh 29.90 in1012.5 mb 0.08 in2.0 mm 0.00 in0.0 mm 0.08 in2.0 mm
01:11 AM 49.3°F9.6°C 47.4°F8.6°C 93% 4.7 mph W7.6 kmh W 5.3 mph8.5 kmh 29.90 in1012.5 mb 0.08 in2.0 mm 0.00 in0.0 mm 0.08 in2.0 mm
01:12 AM 49.3°F9.6°C 47.4°F8.6°C 93% 2.7 mph W4.3 kmh W 5.3 mph8.5 kmh 29.90 in1012.5 mb 0.08 in2.0 mm 0.00 in0.0 mm 0.08 in2.0 mm
01:13 AM 49.3°F9.6°C 47.4°F8.6°C 93% 2.7 mph W4.3 kmh W 5.3 mph8.5 kmh 29.90 in1012.5 mb 0.09 in2.3 mm 0.60 in15.2 mm 0.09 in2.3 mm
01:14 AM 49.3°F9.6°C 47.4°F8.6°C 93% 4.2 mph W6.8 kmh W 5.3 mph8.5 kmh 29.90 in1012.5 mb 0.09 in2.3 mm 0.00 in0.0 mm 0.09 in2.3 mm
01:15 AM 49.3°F9.6°C 47.4°F8.6°C 93% 2.7 mph W4.3 kmh W 5.3 mph8.5 kmh 29.90 in1012.5 mb 0.09 in2.3 mm 0.00 in0.0 mm 0.09 in2.3 mm
01:16 AM 49.3°F9.6°C 47.4°F8.6°C 93% 2.2 mph S3.5 kmh S 5.3 mph8.5 kmh 29.90 in1012.5 mb 0.09 in2.3 mm 0.00 in0.0 mm 0.09 in2.3 mm
01:17 AM 49.3°F9.6°C 47.4°F8.6°C 93% 2.2 mph W3.5 kmh W 5.3 mph8.5 kmh 29.90 in1012.5 mb 0.09 in2.3 mm 0.00 in0.0 mm 0.09 in2.3 mm
01:18 AM 49.3°F9.6°C 47.4°F8.6°C 93% 3.7 mph W6.0 kmh W 5.3 mph8.5 kmh 29.90 in1012.5 mb 0.09 in2.3 mm 0.00 in0.0 mm 0.09 in2.3 mm
01:19 AM 49.3°F9.6°C 47.4°F8.6°C 93% 3.7 mph W6.0 kmh W 5.3 mph8.5 kmh 29.90 in1012.5 mb 0.10 in2.5 mm 0.60 in15.2 mm 0.10 in2.5 mm
01:20 AM 49.3°F9.6°C 47.6°F8.7°C 94% 3.2 mph WSW5.1 kmh WSW 5.3 mph8.5 kmh 29.90 in1012.5 mb 0.10 in2.5 mm 0.00 in0.0 mm 0.10 in2.5 mm
01:21 AM 49.3°F9.6°C 47.6°F8.7°C 94% 5.8 mph WNW9.3 kmh WNW 5.8 mph9.3 kmh 29.90 in1012.5 mb 0.10 in2.5 mm 0.00 in0.0 mm 0.10 in2.5 mm
01:22 AM 49.3°F9.6°C 47.6°F8.7°C 94% 3.2 mph W5.1 kmh W 5.8 mph9.3 kmh 29.90 in1012.5 mb 0.10 in2.5 mm 0.00 in0.0 mm 0.10 in2.5 mm
01:23 AM 49.3°F9.6°C 47.6°F8.7°C 94% 6.8 mph W10.9 kmh W 6.8 mph10.9 kmh 29.90 in1012.5 mb 0.10 in2.5 mm 0.00 in0.0 mm 0.10 in2.5 mm
01:24 AM 49.3°F9.6°C 47.6°F8.7°C 94% 7.3 mph W11.7 kmh W 7.3 mph11.7 kmh 29.90 in1012.5 mb 0.10 in2.5 mm 0.00 in0.0 mm 0.10 in2.5 mm
01:25 AM 49.3°F9.6°C 47.6°F8.7°C 94% 4.7 mph W7.6 kmh W 7.3 mph11.7 kmh 29.90 in1012.5 mb 0.10 in2.5 mm 0.00 in0.0 mm 0.10 in2.5 mm
01:26 AM 49.3°F9.6°C 47.6°F8.7°C 94% 5.8 mph WNW9.3 kmh WNW 7.3 mph11.7 kmh 29.90 in1012.5 mb 0.10 in2.5 mm 0.00 in0.0 mm 0.10 in2.5 mm
01:27 AM 49.3°F9.6°C 47.6°F8.7°C 94% 5.3 mph W8.5 kmh W 7.3 mph11.7 kmh 29.90 in1012.5 mb 0.10 in2.5 mm 0.00 in0.0 mm 0.10 in2.5 mm
01:28 AM 49.3°F9.6°C 47.6°F8.7°C 94% 9.9 mph SSW15.9 kmh SSW 11.4 mph18.3 kmh 29.90 in1012.5 mb 0.10 in2.5 mm 0.00 in0.0 mm 0.11 in2.8 mm
01:29 AM 49.3°F9.6°C 47.4°F8.6°C 93% 18.6 mph W29.9 kmh W 18.6 mph29.9 kmh 29.90 in1012.5 mb 0.09 in2.3 mm 0.00 in0.0 mm 0.11 in2.8 mm
01:30 AM 48.9°F9.4°C 46.4°F8.0°C 91% 13.0 mph NNW20.9 kmh NNW 18.6 mph29.9 kmh 29.91 in1012.9 mb 0.10 in2.5 mm 0.60 in15.2 mm 0.12 in3.0 mm
01:31 AM 48.7°F9.3°C 46.2°F7.9°C 91% 10.4 mph WNW16.7 kmh WNW 18.6 mph29.9 kmh 29.91 in1012.9 mb 0.10 in2.5 mm 0.00 in0.0 mm 0.12 in3.0 mm
01:32 AM 48.4°F9.1°C 45.9°F7.7°C 91% 10.9 mph WSW17.5 kmh WSW 18.6 mph29.9 kmh 29.91 in1012.9 mb 0.09 in2.3 mm 0.00 in0.0 mm 0.12 in3.0 mm
01:33 AM 48.2°F9.0°C 45.4°F7.4°C 90% 9.4 mph W15.1 kmh W 18.6 mph29.9 kmh 29.91 in1012.9 mb 0.09 in2.3 mm 0.00 in0.0 mm 0.12 in3.0 mm
01:34 AM 47.8°F8.8°C 44.7°F7.1°C 89% 11.9 mph WNW19.2 kmh WNW 18.6 mph29.9 kmh 29.91 in1012.9 mb 0.08 in2.0 mm 0.00 in0.0 mm 0.12 in3.0 mm
01:35 AM 47.7°F8.7°C 44.6°F7.0°C 89% 12.5 mph N20.1 kmh N 18.6 mph29.9 kmh 29.91 in1012.9 mb 0.08 in2.0 mm 0.00 in0.0 mm 0.12 in3.0 mm
01:36 AM 47.7°F8.7°C 44.6°F7.0°C 89% 15.0 mph NNW24.1 kmh NNW 18.6 mph29.9 kmh 29.91 in1012.9 mb 0.07 in1.8 mm 0.00 in0.0 mm 0.12 in3.0 mm
01:38 AM 47.7°F8.7°C 44.6°F7.0°C 89% 4.2 mph NW6.8 kmh NW 18.6 mph29.9 kmh 29.91 in1012.9 mb 0.06 in1.5 mm 0.00 in0.0 mm 0.12 in3.0 mm
01:39 AM 47.1°F8.4°C 44.3°F6.8°C 90% 5.8 mph NW9.3 kmh NW 15.0 mph24.1 kmh 29.91 in1012.9 mb 0.06 in1.5 mm 0.00 in0.0 mm 0.12 in3.0 mm
01:40 AM 46.9°F8.3°C 44.1°F6.7°C 90% 4.7 mph W7.6 kmh W 15.0 mph24.1 kmh 29.91 in1012.9 mb 0.06 in1.5 mm 0.00 in0.0 mm 0.12 in3.0 mm
01:41 AM 46.8°F8.2°C 44.0°F6.7°C 90% 9.4 mph W15.1 kmh W 15.0 mph24.1 kmh 29.94 in1013.9 mb 0.06 in1.5 mm 0.00 in0.0 mm 0.12 in3.0 mm
01:42 AM 46.8°F8.2°C 44.0°F6.7°C 90% 11.4 mph N18.3 kmh N 15.0 mph24.1 kmh 29.94 in1013.9 mb 0.06 in1.5 mm 0.00 in0.0 mm 0.12 in3.0 mm
01:43 AM 46.6°F8.1°C 43.8°F6.6°C 90% 8.3 mph NNE13.4 kmh NNE 15.0 mph24.1 kmh 29.94 in1013.9 mb 0.06 in1.5 mm 0.00 in0.0 mm 0.12 in3.0 mm
01:44 AM 46.6°F8.1°C 43.8°F6.6°C 90% 11.4 mph NNE18.3 kmh NNE 15.0 mph24.1 kmh 29.94 in1013.9 mb 0.06 in1.5 mm 0.00 in0.0 mm 0.12 in3.0 mm
01:48 AM 46.6°F8.1°C 43.8°F6.6°C 90% 8.9 mph N14.3 kmh N 11.9 mph19.2 kmh 29.94 in1013.9 mb 0.06 in1.5 mm 0.00 in0.0 mm 0.12 in3.0 mm
01:49 AM 46.0°F7.8°C 43.2°F6.2°C 90% 17.1 mph NNE27.5 kmh NNE 17.1 mph27.5 kmh 29.94 in1013.9 mb 0.06 in1.5 mm 0.00 in0.0 mm 0.12 in3.0 mm
01:50 AM 46.0°F7.8°C 43.2°F6.2°C 90% 11.9 mph NNW19.2 kmh NNW 17.1 mph27.5 kmh 29.94 in1013.9 mb 0.06 in1.5 mm 0.00 in0.0 mm 0.12 in3.0 mm
01:51 AM 45.9°F7.7°C 43.1°F6.2°C 90% 10.4 mph N16.7 kmh N 17.1 mph27.5 kmh 29.94 in1013.9 mb 0.05 in1.3 mm 0.00 in0.0 mm 0.12 in3.0 mm
01:52 AM 45.7°F7.6°C 42.6°F5.9°C 89% 8.9 mph WNW14.3 kmh WNW 17.1 mph27.5 kmh 29.94 in1013.9 mb 0.05 in1.3 mm 0.00 in0.0 mm 0.12 in3.0 mm
01:53 AM 45.5°F7.5°C 42.4°F5.8°C 89% 19.1 mph WNW30.7 kmh WNW 19.1 mph30.7 kmh 29.94 in1013.9 mb 0.05 in1.3 mm 0.00 in0.0 mm 0.12 in3.0 mm
01:54 AM 45.5°F7.5°C 42.4°F5.8°C 89% 13.5 mph NNE21.7 kmh NNE 19.1 mph30.7 kmh 29.95 in1014.2 mb 0.06 in1.5 mm 0.60 in15.2 mm 0.13 in3.3 mm
01:55 AM 45.3°F7.4°C 42.3°F5.7°C 89% 9.4 mph NNE15.1 kmh NNE 19.1 mph30.7 kmh 29.95 in1014.2 mb 0.06 in1.5 mm 0.00 in0.0 mm 0.13 in3.3 mm
01:56 AM 45.1°F7.3°C 42.1°F5.6°C 89% 13.5 mph N21.7 kmh N 19.1 mph30.7 kmh 29.95 in1014.2 mb 0.06 in1.5 mm 0.00 in0.0 mm 0.13 in3.3 mm
01:57 AM 45.0°F7.2°C 42.0°F5.6°C 89% 14.0 mph NE22.5 kmh NE 19.1 mph30.7 kmh 29.95 in1014.2 mb 0.06 in1.5 mm 0.00 in0.0 mm 0.13 in3.3 mm
01:58 AM 44.8°F7.1°C 41.8°F5.4°C 89% 15.0 mph SSW24.1 kmh SSW 19.1 mph30.7 kmh 29.95 in1014.2 mb 0.06 in1.5 mm 0.00 in0.0 mm 0.13 in3.3 mm
01:59 AM 44.8°F7.1°C 41.8°F5.4°C 89% 11.4 mph SSW18.3 kmh SSW 19.1 mph30.7 kmh 29.95 in1014.2 mb 0.06 in1.5 mm 0.00 in0.0 mm 0.13 in3.3 mm
02:00 AM 44.6°F7.0°C 41.6°F5.3°C 89% 7.3 mph NE11.7 kmh NE 19.1 mph30.7 kmh 29.95 in1014.2 mb 0.07 in1.8 mm 0.01 in0.3 mm 0.14 in3.6 mm
02:01 AM 44.4°F6.9°C 41.4°F5.2°C 89% 14.0 mph NNE22.5 kmh NNE 19.1 mph30.7 kmh 29.95 in1014.2 mb 0.07 in1.8 mm 0.00 in0.0 mm 0.14 in3.6 mm
02:02 AM 44.4°F6.9°C 41.4°F5.2°C 89% 10.9 mph NNE17.5 kmh NNE 19.1 mph30.7 kmh 29.95 in1014.2 mb 0.07 in1.8 mm 0.00 in0.0 mm 0.14 in3.6 mm
02:03 AM 44.2°F6.8°C 41.5°F5.3°C 90% 11.4 mph NNW18.3 kmh NNW 18.6 mph29.9 kmh 29.95 in1014.2 mb 0.07 in1.8 mm 0.00 in0.0 mm 0.14 in3.6 mm
02:04 AM 44.2°F6.8°C 41.5°F5.3°C 90% 9.4 mph N15.1 kmh N 18.6 mph29.9 kmh 29.95 in1014.2 mb 0.07 in1.8 mm 0.00 in0.0 mm 0.14 in3.6 mm
02:05 AM 44.2°F6.8°C 41.5°F5.3°C 90% 8.3 mph N13.4 kmh N 18.6 mph29.9 kmh 29.96 in1014.6 mb 0.07 in1.8 mm 0.00 in0.0 mm 0.14 in3.6 mm
02:06 AM 44.1°F6.7°C 41.4°F5.2°C 90% 9.4 mph NNW15.1 kmh NNW 15.0 mph24.1 kmh 29.96 in1014.6 mb 0.07 in1.8 mm 0.00 in0.0 mm 0.14 in3.6 mm
02:07 AM 44.1°F6.7°C 41.4°F5.2°C 90% 4.2 mph N6.8 kmh N 15.0 mph24.1 kmh 29.96 in1014.6 mb 0.06 in1.5 mm 0.00 in0.0 mm 0.14 in3.6 mm
02:08 AM 44.1°F6.7°C 41.6°F5.3°C 91% 6.8 mph N10.9 kmh N 15.0 mph24.1 kmh 29.96 in1014.6 mb 0.06 in1.5 mm 0.00 in0.0 mm 0.14 in3.6 mm
02:09 AM 44.1°F6.7°C 41.6°F5.3°C 91% 4.2 mph NNW6.8 kmh NNW 15.0 mph24.1 kmh 29.96 in1014.6 mb 0.06 in1.5 mm 0.00 in0.0 mm 0.14 in3.6 mm
02:10 AM 43.9°F6.6°C 41.4°F5.2°C 91% 8.9 mph NNW14.3 kmh NNW 15.0 mph24.1 kmh 29.96 in1014.6 mb 0.07 in1.8 mm 0.60 in15.2 mm 0.15 in3.8 mm
02:11 AM 43.9°F6.6°C 41.4°F5.2°C 91% 5.8 mph NNW9.3 kmh NNW 12.5 mph20.1 kmh 29.96 in1014.6 mb 0.07 in1.8 mm 0.00 in0.0 mm 0.15 in3.8 mm
02:12 AM 43.9°F6.6°C 41.4°F5.2°C 91% 6.3 mph NNE10.1 kmh NNE 11.4 mph18.3 kmh 29.96 in1014.6 mb 0.07 in1.8 mm 0.00 in0.0 mm 0.15 in3.8 mm
02:13 AM 43.7°F6.5°C 41.2°F5.1°C 91% 6.3 mph N10.1 kmh N 10.4 mph16.7 kmh 29.96 in1014.6 mb 0.06 in1.5 mm 0.00 in0.0 mm 0.15 in3.8 mm
02:14 AM 43.7°F6.5°C 41.2°F5.1°C 91% 6.8 mph NNE10.9 kmh NNE 10.4 mph16.7 kmh 29.96 in1014.6 mb 0.06 in1.5 mm 0.00 in0.0 mm 0.15 in3.8 mm
02:15 AM 43.7°F6.5°C 41.5°F5.3°C 92% 6.3 mph ENE10.1 kmh ENE 10.4 mph16.7 kmh 29.96 in1014.6 mb 0.06 in1.5 mm 0.00 in0.0 mm 0.15 in3.8 mm
02:16 AM 43.7°F6.5°C 41.5°F5.3°C 92% 7.3 mph WNW11.7 kmh WNW 9.9 mph15.9 kmh 29.96 in1014.6 mb 0.06 in1.5 mm 0.00 in0.0 mm 0.15 in3.8 mm
02:17 AM 43.7°F6.5°C 41.5°F5.3°C 92% 7.8 mph WNW12.6 kmh WNW 9.9 mph15.9 kmh 29.96 in1014.6 mb 0.06 in1.5 mm 0.00 in0.0 mm 0.15 in3.8 mm
02:18 AM 43.7°F6.5°C 41.5°F5.3°C 92% 4.7 mph NNW7.6 kmh NNW 9.9 mph15.9 kmh 29.96 in1014.6 mb 0.06 in1.5 mm 0.00 in0.0 mm 0.15 in3.8 mm
02:19 AM 43.7°F6.5°C 41.5°F5.3°C 92% 5.3 mph NNE8.5 kmh NNE 9.9 mph15.9 kmh 29.96 in1014.6 mb 0.05 in1.3 mm 0.00 in0.0 mm 0.15 in3.8 mm
02:20 AM 43.5°F6.4°C 41.3°F5.2°C 92% 4.7 mph NNW7.6 kmh NNW 9.9 mph15.9 kmh 29.96 in1014.6 mb 0.05 in1.3 mm 0.00 in0.0 mm 0.15 in3.8 mm
02:21 AM 43.5°F6.4°C 41.3°F5.2°C 92% 5.8 mph NNE9.3 kmh NNE 10.4 mph16.7 kmh 29.96 in1014.6 mb 0.05 in1.3 mm 0.00 in0.0 mm 0.15 in3.8 mm
02:22 AM 43.5°F6.4°C 41.3°F5.2°C 92% 8.3 mph ESE13.4 kmh ESE 10.4 mph16.7 kmh 29.96 in1014.6 mb 0.05 in1.3 mm 0.00 in0.0 mm 0.15 in3.8 mm
02:23 AM 43.5°F6.4°C 41.3°F5.2°C 92% 7.8 mph N12.6 kmh N 10.4 mph16.7 kmh 29.96 in1014.6 mb 0.05 in1.3 mm 0.00 in0.0 mm 0.15 in3.8 mm
02:24 AM 43.5°F6.4°C 41.3°F5.2°C 92% 5.8 mph NNE9.3 kmh NNE 10.4 mph16.7 kmh 29.96 in1014.6 mb 0.06 in1.5 mm 0.60 in15.2 mm 0.16 in4.1 mm
02:25 AM 43.5°F6.4°C 41.3°F5.2°C 92% 3.7 mph NE6.0 kmh NE 10.4 mph16.7 kmh 29.96 in1014.6 mb 0.06 in1.5 mm 0.00 in0.0 mm 0.16 in4.1 mm
02:26 AM 43.5°F6.4°C 41.3°F5.2°C 92% 4.2 mph ENE6.8 kmh ENE 10.4 mph16.7 kmh 29.96 in1014.6 mb 0.06 in1.5 mm 0.00 in0.0 mm 0.16 in4.1 mm
02:27 AM 43.3°F6.3°C 41.1°F5.1°C 92% 5.8 mph NNW9.3 kmh NNW 10.4 mph16.7 kmh 29.96 in1014.6 mb 0.06 in1.5 mm 0.00 in0.0 mm 0.16 in4.1 mm
02:28 AM 43.3°F6.3°C 41.4°F5.2°C 93% 4.7 mph NE7.6 kmh NE 10.4 mph16.7 kmh 29.96 in1014.6 mb 0.06 in1.5 mm 0.00 in0.0 mm 0.16 in4.1 mm
02:29 AM 43.3°F6.3°C 41.4°F5.2°C 93% 3.2 mph NNE5.1 kmh NNE 10.4 mph16.7 kmh 29.96 in1014.6 mb 0.05 in1.3 mm 0.00 in0.0 mm 0.16 in4.1 mm
02:30 AM 43.3°F6.3°C 41.4°F5.2°C 93% 3.2 mph NW5.1 kmh NW 10.4 mph16.7 kmh 29.96 in1014.6 mb 0.04 in1.0 mm 0.00 in0.0 mm 0.16 in4.1 mm
02:31 AM 43.3°F6.3°C 41.4°F5.2°C 93% 3.7 mph N6.0 kmh N 8.9 mph14.3 kmh 29.96 in1014.6 mb 0.04 in1.0 mm 0.00 in0.0 mm 0.16 in4.1 mm
02:32 AM 43.3°F6.3°C 41.4°F5.2°C 93% 6.3 mph N10.1 kmh N 8.9 mph14.3 kmh 29.96 in1014.6 mb 0.04 in1.0 mm 0.00 in0.0 mm 0.16 in4.1 mm
02:33 AM 43.3°F6.3°C 41.4°F5.2°C 93% 6.8 mph N10.9 kmh N 7.8 mph12.6 kmh 29.96 in1014.6 mb 0.04 in1.0 mm 0.00 in0.0 mm 0.16 in4.1 mm
02:34 AM 43.3°F6.3°C 41.4°F5.2°C 93% 5.3 mph NW8.5 kmh NW 6.8 mph10.9 kmh 29.96 in1014.6 mb 0.04 in1.0 mm 0.00 in0.0 mm 0.16 in4.1 mm
02:35 AM 43.2°F6.2°C 41.3°F5.2°C 93% 2.7 mph ENE4.3 kmh ENE 6.8 mph10.9 kmh 29.96 in1014.6 mb 0.04 in1.0 mm 0.00 in0.0 mm 0.16 in4.1 mm
02:36 AM 43.2°F6.2°C 41.3°F5.2°C 93% 3.7 mph NNW6.0 kmh NNW 6.8 mph10.9 kmh 29.96 in1014.6 mb 0.05 in1.3 mm 0.60 in15.2 mm 0.17 in4.3 mm
02:37 AM 43.2°F6.2°C 41.3°F5.2°C 93% 3.7 mph W6.0 kmh W 6.8 mph10.9 kmh 29.96 in1014.6 mb 0.05 in1.3 mm 0.00 in0.0 mm 0.17 in4.3 mm
02:38 AM 43.2°F6.2°C 41.3°F5.2°C 93% 5.3 mph NNE8.5 kmh NNE 6.8 mph10.9 kmh 29.96 in1014.6 mb 0.05 in1.3 mm 0.00 in0.0 mm 0.17 in4.3 mm
02:39 AM 43.2°F6.2°C 41.3°F5.2°C 93% 4.2 mph NE6.8 kmh NE 6.8 mph10.9 kmh 29.96 in1014.6 mb 0.05 in1.3 mm 0.00 in0.0 mm 0.17 in4.3 mm
02:40 AM 43.2°F6.2°C 41.3°F5.2°C 93% 4.7 mph NNE7.6 kmh NNE 6.8 mph10.9 kmh 29.96 in1014.6 mb 0.05 in1.3 mm 0.00 in0.0 mm 0.17 in4.3 mm
02:41 AM 43.2°F6.2°C 41.3°F5.2°C 93% 4.7 mph NNW7.6 kmh NNW 6.8 mph10.9 kmh 29.97 in1014.9 mb 0.05 in1.3 mm 0.00 in0.0 mm 0.17 in4.3 mm
02:42 AM 43.2°F6.2°C 41.3°F5.2°C 93% 6.3 mph NNE10.1 kmh NNE 6.8 mph10.9 kmh 29.97 in1014.9 mb 0.05 in1.3 mm 0.00 in0.0 mm 0.17 in4.3 mm
02:43 AM 43.0°F6.1°C 41.1°F5.1°C 93% 4.2 mph NNE6.8 kmh NNE 6.8 mph10.9 kmh 29.97 in1014.9 mb 0.05 in1.3 mm 0.00 in0.0 mm 0.17 in4.3 mm
02:44 AM 43.0°F6.1°C 41.1°F5.1°C 93% 3.7 mph NE6.0 kmh NE 6.3 mph10.1 kmh 29.97 in1014.9 mb 0.05 in1.3 mm 0.00 in0.0 mm 0.17 in4.3 mm
02:45 AM 43.0°F6.1°C 41.1°F5.1°C 93% 6.8 mph NNW10.9 kmh NNW 6.8 mph10.9 kmh 29.97 in1014.9 mb 0.05 in1.3 mm 0.00 in0.0 mm 0.17 in4.3 mm
02:46 AM 43.0°F6.1°C 41.1°F5.1°C 93% 5.8 mph NE9.3 kmh NE 7.3 mph11.7 kmh 29.97 in1014.9 mb 0.06 in1.5 mm 0.60 in15.2 mm 0.18 in4.6 mm
02:47 AM 43.0°F6.1°C 41.1°F5.1°C 93% 7.3 mph NNE11.7 kmh NNE 7.3 mph11.7 kmh 29.97 in1014.9 mb 0.06 in1.5 mm 0.00 in0.0 mm 0.18 in4.6 mm
02:48 AM 42.8°F6.0°C 40.9°F4.9°C 93% 4.2 mph NNE6.8 kmh NNE 7.3 mph11.7 kmh 29.97 in1014.9 mb 0.06 in1.5 mm 0.00 in0.0 mm 0.18 in4.6 mm
02:49 AM 42.8°F6.0°C 40.9°F4.9°C 93% 3.2 mph NE5.1 kmh NE 7.3 mph11.7 kmh 29.97 in1014.9 mb 0.06 in1.5 mm 0.00 in0.0 mm 0.18 in4.6 mm
02:50 AM 42.8°F6.0°C 40.9°F4.9°C 93% 7.3 mph NNE11.7 kmh NNE 7.3 mph11.7 kmh 29.97 in1014.9 mb 0.06 in1.5 mm 0.00 in0.0 mm 0.18 in4.6 mm
02:51 AM 42.8°F6.0°C 40.9°F4.9°C 93% 3.2 mph N5.1 kmh N 7.3 mph11.7 kmh 29.97 in1014.9 mb 0.06 in1.5 mm 0.00 in0.0 mm 0.18 in4.6 mm
02:52 AM 42.8°F6.0°C 40.9°F4.9°C 93% 5.3 mph SW8.5 kmh SW 7.3 mph11.7 kmh 29.97 in1014.9 mb 0.06 in1.5 mm 0.00 in0.0 mm 0.18 in4.6 mm
02:53 AM 42.8°F6.0°C 40.9°F4.9°C 93% 4.2 mph NNE6.8 kmh NNE 7.3 mph11.7 kmh 29.97 in1014.9 mb 0.06 in1.5 mm 0.00 in0.0 mm 0.18 in4.6 mm
02:54 AM 42.8°F6.0°C 40.9°F4.9°C 93% 6.3 mph NNE10.1 kmh NNE 7.3 mph11.7 kmh 29.97 in1014.9 mb 0.05 in1.3 mm 0.00 in0.0 mm 0.18 in4.6 mm
02:55 AM 42.8°F6.0°C 40.9°F4.9°C 93% 3.2 mph WNW5.1 kmh WNW 7.3 mph11.7 kmh 29.97 in1014.9 mb 0.05 in1.3 mm 0.00 in0.0 mm 0.18 in4.6 mm
02:56 AM 42.8°F6.0°C 40.9°F4.9°C 93% 5.3 mph N8.5 kmh N 7.3 mph11.7 kmh 29.97 in1014.9 mb 0.05 in1.3 mm 0.00 in0.0 mm 0.18 in4.6 mm
02:57 AM 42.8°F6.0°C 40.9°F4.9°C 93% 4.2 mph NE6.8 kmh NE 7.3 mph11.7 kmh 29.97 in1014.9 mb 0.05 in1.3 mm 0.00 in0.0 mm 0.18 in4.6 mm
02:58 AM 42.8°F6.0°C 40.9°F4.9°C 93% 2.7 mph NE4.3 kmh NE 7.3 mph11.7 kmh 29.97 in1014.9 mb 0.05 in1.3 mm 0.00 in0.0 mm 0.18 in4.6 mm
02:59 AM 42.8°F6.0°C 40.9°F4.9°C 93% 3.7 mph NNE6.0 kmh NNE 7.3 mph11.7 kmh 29.97 in1014.9 mb 0.05 in1.3 mm 0.00 in0.0 mm 0.18 in4.6 mm
03:00 AM 42.6°F5.9°C 40.7°F4.8°C 93% 6.3 mph NNW10.1 kmh NNW 7.3 mph11.7 kmh 29.97 in1014.9 mb 0.04 in1.0 mm 0.00 in0.0 mm 0.18 in4.6 mm
03:01 AM 42.6°F5.9°C 40.7°F4.8°C 93% 4.2 mph NNW6.8 kmh NNW 7.3 mph11.7 kmh 29.97 in1014.9 mb 0.04 in1.0 mm 0.00 in0.0 mm 0.18 in4.6 mm
03:02 AM 42.6°F5.9°C 40.7°F4.8°C 93% 2.7 mph W4.3 kmh W 7.3 mph11.7 kmh 29.97 in1014.9 mb 0.04 in1.0 mm 0.00 in0.0 mm 0.18 in4.6 mm
03:03 AM 42.6°F5.9°C 40.7°F4.8°C 93% 3.7 mph N6.0 kmh N 7.3 mph11.7 kmh 29.97 in1014.9 mb 0.04 in1.0 mm 0.00 in0.0 mm 0.18 in4.6 mm
03:04 AM 42.6°F5.9°C 40.7°F4.8°C 93% 3.7 mph NNE6.0 kmh NNE 7.3 mph11.7 kmh 29.97 in1014.9 mb 0.04 in1.0 mm 0.00 in0.0 mm 0.18 in4.6 mm
03:05 AM 42.6°F5.9°C 40.7°F4.8°C 93% 3.7 mph NNW6.0 kmh NNW 7.3 mph11.7 kmh 29.98 in1015.2 mb 0.04 in1.0 mm 0.00 in0.0 mm 0.18 in4.6 mm
03:06 AM 42.6°F5.9°C 40.7°F4.8°C 93% 4.7 mph NNW7.6 kmh NNW 7.3 mph11.7 kmh 29.98 in1015.2 mb 0.04 in1.0 mm 0.00 in0.0 mm 0.18 in4.6 mm
03:07 AM 42.6°F5.9°C 40.7°F4.8°C 93% 5.3 mph NW8.5 kmh NW 7.3 mph11.7 kmh 29.98 in1015.2 mb 0.04 in1.0 mm 0.00 in0.0 mm 0.18 in4.6 mm
03:08 AM 42.6°F5.9°C 40.7°F4.8°C 93% 3.2 mph N5.1 kmh N 7.3 mph11.7 kmh 29.98 in1015.2 mb 0.04 in1.0 mm 0.00 in0.0 mm 0.18 in4.6 mm
03:09 AM 42.6°F5.9°C 40.7°F4.8°C 93% 4.2 mph NNE6.8 kmh NNE 7.3 mph11.7 kmh 29.98 in1015.2 mb 0.04 in1.0 mm 0.00 in0.0 mm 0.18 in4.6 mm
03:10 AM 42.6°F5.9°C 40.7°F4.8°C 93% 3.2 mph NNW5.1 kmh NNW 5.8 mph9.3 kmh 29.98 in1015.2 mb 0.03 in0.8 mm 0.00 in0.0 mm 0.18 in4.6 mm
03:11 AM 42.6°F5.9°C 40.7°F4.8°C 93% 3.7 mph WNW6.0 kmh WNW 5.8 mph9.3 kmh 29.98 in1015.2 mb 0.03 in0.8 mm 0.00 in0.0 mm 0.18 in4.6 mm
03:12 AM 42.6°F5.9°C 40.7°F4.8°C 93% 3.2 mph N5.1 kmh N 5.8 mph9.3 kmh 29.98 in1015.2 mb 0.03 in0.8 mm 0.00 in0.0 mm 0.18 in4.6 mm
03:13 AM 42.6°F5.9°C 40.7°F4.8°C 93% 2.7 mph NNW4.3 kmh NNW 5.8 mph9.3 kmh 29.98 in1015.2 mb 0.03 in0.8 mm 0.00 in0.0 mm 0.18 in4.6 mm
03:14 AM 42.6°F5.9°C 40.7°F4.8°C 93% 3.7 mph WNW6.0 kmh WNW 5.8 mph9.3 kmh 29.98 in1015.2 mb 0.03 in0.8 mm 0.00 in0.0 mm 0.18 in4.6 mm
03:15 AM 42.6°F5.9°C 40.7°F4.8°C 93% 2.7 mph NE4.3 kmh NE 5.8 mph9.3 kmh 29.98 in1015.2 mb 0.03 in0.8 mm 0.00 in0.0 mm 0.18 in4.6 mm
03:16 AM 42.6°F5.9°C 40.7°F4.8°C 93% 5.3 mph NNW8.5 kmh NNW 5.8 mph9.3 kmh 29.98 in1015.2 mb 0.03 in0.8 mm 0.00 in0.0 mm 0.18 in4.6 mm
03:17 AM 42.6°F5.9°C 40.7°F4.8°C 93% 4.2 mph NNW6.8 kmh NNW 5.3 mph8.5 kmh 29.99 in1015.6 mb 0.03 in0.8 mm 0.00 in0.0 mm 0.18 in4.6 mm
03:18 AM 42.6°F5.9°C 40.7°F4.8°C 93% 4.7 mph NNW7.6 kmh NNW 6.3 mph10.1 kmh 29.99 in1015.6 mb 0.03 in0.8 mm 0.00 in0.0 mm 0.18 in4.6 mm
03:19 AM 42.4°F5.8°C 40.5°F4.7°C 93% 4.7 mph NNE7.6 kmh NNE 6.3 mph10.1 kmh 29.99 in1015.6 mb 0.03 in0.8 mm 0.00 in0.0 mm 0.18 in4.6 mm
03:20 AM 42.4°F5.8°C 40.5°F4.7°C 93% 2.7 mph NNW4.3 kmh NNW 6.3 mph10.1 kmh 29.99 in1015.6 mb 0.04 in1.0 mm 0.60 in15.2 mm 0.19 in4.8 mm
03:21 AM 42.4°F5.8°C 40.5°F4.7°C 93% 3.7 mph NE6.0 kmh NE 6.3 mph10.1 kmh 29.99 in1015.6 mb 0.04 in1.0 mm 0.00 in0.0 mm 0.19 in4.8 mm
03:22 AM 42.4°F5.8°C 40.5°F4.7°C 93% 5.8 mph NNE9.3 kmh NNE 6.3 mph10.1 kmh 29.99 in1015.6 mb 0.04 in1.0 mm 0.00 in0.0 mm 0.19 in4.8 mm
03:23 AM 42.4°F5.8°C 40.5°F4.7°C 93% 5.3 mph NNE8.5 kmh NNE 6.3 mph10.1 kmh 29.99 in1015.6 mb 0.04 in1.0 mm 0.00 in0.0 mm 0.19 in4.8 mm
03:24 AM 42.4°F5.8°C 40.5°F4.7°C 93% 4.7 mph NE7.6 kmh NE 7.3 mph11.7 kmh 29.99 in1015.6 mb 0.03 in0.8 mm 0.00 in0.0 mm 0.19 in4.8 mm
03:25 AM 42.4°F5.8°C 40.5°F4.7°C 93% 4.7 mph NE7.6 kmh NE 7.3 mph11.7 kmh 29.99 in1015.6 mb 0.03 in0.8 mm 0.00 in0.0 mm 0.19 in4.8 mm
03:26 AM 42.4°F5.8°C 40.5°F4.7°C 93% 3.7 mph NNE6.0 kmh NNE 7.3 mph11.7 kmh 29.99 in1015.6 mb 0.03 in0.8 mm 0.00 in0.0 mm 0.19 in4.8 mm
03:27 AM 42.4°F5.8°C 40.5°F4.7°C 93% 4.2 mph NNE6.8 kmh NNE 7.3 mph11.7 kmh 29.99 in1015.6 mb 0.03 in0.8 mm 0.00 in0.0 mm 0.19 in4.8 mm
03:28 AM 42.4°F5.8°C 40.5°F4.7°C 93% 3.7 mph W6.0 kmh W 7.3 mph11.7 kmh 29.99 in1015.6 mb 0.03 in0.8 mm 0.00 in0.0 mm 0.19 in4.8 mm
03:29 AM 42.3°F5.7°C 40.4°F4.7°C 93% 6.3 mph NNW10.1 kmh NNW 7.3 mph11.7 kmh 29.99 in1015.6 mb 0.03 in0.8 mm 0.00 in0.0 mm 0.19 in4.8 mm
03:30 AM 42.3°F5.7°C 40.4°F4.7°C 93% 4.7 mph NNE7.6 kmh NNE 7.3 mph11.7 kmh 29.99 in1015.6 mb 0.03 in0.8 mm 0.00 in0.0 mm 0.19 in4.8 mm
03:31 AM 42.3°F5.7°C 40.4°F4.7°C 93% 2.2 mph NNE3.5 kmh NNE 7.3 mph11.7 kmh 29.99 in1015.6 mb 0.03 in0.8 mm 0.00 in0.0 mm 0.19 in4.8 mm
03:32 AM 42.3°F5.7°C 40.4°F4.7°C 93% 4.2 mph NNE6.8 kmh NNE 7.3 mph11.7 kmh 29.99 in1015.6 mb 0.03 in0.8 mm 0.00 in0.0 mm 0.19 in4.8 mm
03:33 AM 42.3°F5.7°C 40.4°F4.7°C 93% 3.7 mph NNE6.0 kmh NNE 7.3 mph11.7 kmh 29.99 in1015.6 mb 0.03 in0.8 mm 0.00 in0.0 mm 0.19 in4.8 mm
03:34 AM 42.3°F5.7°C 40.4°F4.7°C 93% 2.7 mph N4.3 kmh N 6.3 mph10.1 kmh 29.99 in1015.6 mb 0.03 in0.8 mm 0.00 in0.0 mm 0.19 in4.8 mm
03:35 AM 42.3°F5.7°C 40.4°F4.7°C 93% 3.7 mph NNE6.0 kmh NNE 6.3 mph10.1 kmh 29.99 in1015.6 mb 0.03 in0.8 mm 0.00 in0.0 mm 0.19 in4.8 mm
03:36 AM 42.3°F5.7°C 40.4°F4.7°C 93% 3.2 mph NNE5.1 kmh NNE 6.3 mph10.1 kmh 29.99 in1015.6 mb 0.03 in0.8 mm 0.00 in0.0 mm 0.19 in4.8 mm
03:37 AM 42.3°F5.7°C 40.4°F4.7°C 93% 3.2 mph NNE5.1 kmh NNE 6.3 mph10.1 kmh 29.99 in1015.6 mb 0.02 in0.5 mm 0.00 in0.0 mm 0.19 in4.8 mm
03:38 AM 42.3°F5.7°C 40.4°F4.7°C 93% 2.7 mph NNE4.3 kmh NNE 6.3 mph10.1 kmh 29.99 in1015.6 mb 0.02 in0.5 mm 0.00 in0.0 mm 0.19 in4.8 mm
03:39 AM 42.3°F5.7°C 40.4°F4.7°C 93% 3.2 mph N5.1 kmh N 5.3 mph8.5 kmh 29.99 in1015.6 mb 0.02 in0.5 mm 0.00 in0.0 mm 0.19 in4.8 mm
03:40 AM 42.3°F5.7°C 40.4°F4.7°C 93% 3.7 mph NE6.0 kmh NE 5.3 mph8.5 kmh 29.99 in1015.6 mb 0.02 in0.5 mm 0.00 in0.0 mm 0.19 in4.8 mm
03:41 AM 42.3°F5.7°C 40.4°F4.7°C 93% 2.2 mph NNE3.5 kmh NNE 5.3 mph8.5 kmh 29.99 in1015.6 mb 0.02 in0.5 mm 0.00 in0.0 mm 0.19 in4.8 mm
03:42 AM 42.1°F5.6°C 40.2°F4.6°C 93% 4.2 mph NNE6.8 kmh NNE 4.2 mph6.8 kmh 29.99 in1015.6 mb 0.03 in0.8 mm 0.60 in15.2 mm 0.20 in5.1 mm
03:43 AM 42.1°F5.6°C 40.2°F4.6°C 93% 4.7 mph NNE7.6 kmh NNE 5.3 mph8.5 kmh 29.99 in1015.6 mb 0.03 in0.8 mm 0.00 in0.0 mm 0.20 in5.1 mm
03:44 AM 42.1°F5.6°C 40.2°F4.6°C 93% 1.7 mph NNE2.7 kmh NNE 5.3 mph8.5 kmh 29.99 in1015.6 mb 0.03 in0.8 mm 0.00 in0.0 mm 0.20 in5.1 mm
03:45 AM 42.1°F5.6°C 40.2°F4.6°C 93% 3.2 mph NNW5.1 kmh NNW 5.3 mph8.5 kmh 29.99 in1015.6 mb 0.03 in0.8 mm 0.00 in0.0 mm 0.20 in5.1 mm
03:46 AM 42.1°F5.6°C 40.2°F4.6°C 93% 4.2 mph NNE6.8 kmh NNE 5.3 mph8.5 kmh 29.99 in1015.6 mb 0.02 in0.5 mm 0.00 in0.0 mm 0.20 in5.1 mm
03:47 AM 42.1°F5.6°C 40.2°F4.6°C 93% 3.7 mph N6.0 kmh N 5.3 mph8.5 kmh 29.99 in1015.6 mb 0.02 in0.5 mm 0.00 in0.0 mm 0.20 in5.1 mm
03:48 AM 42.1°F5.6°C 40.2°F4.6°C 93% 3.2 mph NNW5.1 kmh NNW 5.3 mph8.5 kmh 29.99 in1015.6 mb 0.02 in0.5 mm 0.00 in0.0 mm 0.20 in5.1 mm
03:49 AM 42.1°F5.6°C 40.2°F4.6°C 93% 3.2 mph N5.1 kmh N 5.3 mph8.5 kmh 29.99 in1015.6 mb 0.02 in0.5 mm 0.00 in0.0 mm 0.20 in5.1 mm
03:50 AM 42.1°F5.6°C 40.2°F4.6°C 93% 3.7 mph N6.0 kmh N 5.3 mph8.5 kmh 29.99 in1015.6 mb 0.02 in0.5 mm 0.00 in0.0 mm 0.20 in5.1 mm
03:51 AM 42.1°F5.6°C 40.2°F4.6°C 93% 3.2 mph N5.1 kmh N 5.3 mph8.5 kmh 29.99 in1015.6 mb 0.02 in0.5 mm 0.00 in0.0 mm 0.20 in5.1 mm
03:52 AM 42.1°F5.6°C 40.2°F4.6°C 93% 3.2 mph NNW5.1 kmh NNW 5.3 mph8.5 kmh 29.99 in1015.6 mb 0.02 in0.5 mm 0.00 in0.0 mm 0.20 in5.1 mm
03:53 AM 42.1°F5.6°C 40.2°F4.6°C 93% 3.7 mph NW6.0 kmh NW 4.7 mph7.6 kmh 29.99 in1015.6 mb 0.02 in0.5 mm 0.00 in0.0 mm 0.20 in5.1 mm
03:54 AM 42.1°F5.6°C 40.2°F4.6°C 93% 2.7 mph N4.3 kmh N 4.7 mph7.6 kmh 30.00 in1015.9 mb 0.02 in0.5 mm 0.00 in0.0 mm 0.20 in5.1 mm
03:55 AM 42.1°F5.6°C 40.2°F4.6°C 93% 3.2 mph NNE5.1 kmh NNE 4.7 mph7.6 kmh 30.00 in1015.9 mb 0.02 in0.5 mm 0.00 in0.0 mm 0.20 in5.1 mm
03:56 AM 42.1°F5.6°C 40.2°F4.6°C 93% 4.7 mph NNE7.6 kmh NNE 4.7 mph7.6 kmh 30.00 in1015.9 mb 0.02 in0.5 mm 0.00 in0.0 mm 0.20 in5.1 mm
03:57 AM 41.9°F5.5°C 40.0°F4.4°C 93% 2.2 mph N3.5 kmh N 4.7 mph7.6 kmh 30.00 in1015.9 mb 0.02 in0.5 mm 0.00 in0.0 mm 0.20 in5.1 mm
03:58 AM 41.9°F5.5°C 40.0°F4.4°C 93% 2.7 mph NNW4.3 kmh NNW 4.7 mph7.6 kmh 30.00 in1015.9 mb 0.02 in0.5 mm 0.00 in0.0 mm 0.20 in5.1 mm
03:59 AM 41.9°F5.5°C 40.0°F4.4°C 93% 3.2 mph NNW5.1 kmh NNW 4.7 mph7.6 kmh 30.00 in1015.9 mb 0.02 in0.5 mm 0.00 in0.0 mm 0.20 in5.1 mm
04:00 AM 41.9°F5.5°C 40.3°F4.6°C 94% 2.2 mph W3.5 kmh W 4.7 mph7.6 kmh 30.00 in1015.9 mb 0.02 in0.5 mm 0.00 in0.0 mm 0.20 in5.1 mm
04:01 AM 41.9°F5.5°C 40.3°F4.6°C 94% 3.2 mph NNE5.1 kmh NNE 4.7 mph7.6 kmh 30.00 in1015.9 mb 0.02 in0.5 mm 0.00 in0.0 mm 0.20 in5.1 mm
04:02 AM 41.9°F5.5°C 40.3°F4.6°C 94% 2.7 mph W4.3 kmh W 4.7 mph7.6 kmh 30.00 in1015.9 mb 0.02 in0.5 mm 0.00 in0.0 mm 0.20 in5.1 mm
04:03 AM 41.9°F5.5°C 40.3°F4.6°C 94% 1.7 mph N2.7 kmh N 4.7 mph7.6 kmh 30.00 in1015.9 mb 0.02 in0.5 mm 0.00 in0.0 mm 0.20 in5.1 mm
04:04 AM 41.9°F5.5°C 40.3°F4.6°C 94% 2.2 mph N3.5 kmh N 4.7 mph7.6 kmh 30.00 in1015.9 mb 0.02 in0.5 mm 0.00 in0.0 mm 0.20 in5.1 mm
04:05 AM 41.9°F5.5°C 40.3°F4.6°C 94% 2.7 mph NNW4.3 kmh NNW 4.7 mph7.6 kmh 30.01 in1016.3 mb 0.02 in0.5 mm 0.00 in0.0 mm 0.20 in5.1 mm
04:06 AM 41.7°F5.4°C 40.1°F4.5°C 94% 2.2 mph N3.5 kmh N 4.7 mph7.6 kmh 30.01 in1016.3 mb 0.02 in0.5 mm 0.00 in0.0 mm 0.20 in5.1 mm
04:07 AM 41.7°F5.4°C 40.1°F4.5°C 94% 2.2 mph NNW3.5 kmh NNW 3.7 mph6.0 kmh 30.01 in1016.3 mb 0.02 in0.5 mm 0.00 in0.0 mm 0.20 in5.1 mm
04:08 AM 41.7°F5.4°C 40.1°F4.5°C 94% 3.2 mph NNE5.1 kmh NNE 4.2 mph6.8 kmh 30.01 in1016.3 mb 0.02 in0.5 mm 0.00 in0.0 mm 0.20 in5.1 mm
04:09 AM 41.7°F5.4°C 40.1°F4.5°C 94% 1.7 mph NNE2.7 kmh NNE 4.2 mph6.8 kmh 30.01 in1016.3 mb 0.02 in0.5 mm 0.00 in0.0 mm 0.20 in5.1 mm
04:10 AM 41.7°F5.4°C 40.1°F4.5°C 94% 2.2 mph W3.5 kmh W 4.2 mph6.8 kmh 30.01 in1016.3 mb 0.02 in0.5 mm 0.00 in0.0 mm 0.20 in5.1 mm
04:11 AM 41.7°F5.4°C 40.1°F4.5°C 94% 4.2 mph NW6.8 kmh NW 4.2 mph6.8 kmh 30.01 in1016.3 mb 0.02 in0.5 mm 0.00 in0.0 mm 0.20 in5.1 mm
04:12 AM 41.7°F5.4°C 40.1°F4.5°C 94% 2.7 mph NE4.3 kmh NE 4.2 mph6.8 kmh 30.01 in1016.3 mb 0.02 in0.5 mm 0.00 in0.0 mm 0.20 in5.1 mm
04:13 AM 41.7°F5.4°C 40.1°F4.5°C 94% 3.2 mph NNE5.1 kmh NNE 4.2 mph6.8 kmh 30.01 in1016.3 mb 0.02 in0.5 mm 0.00 in0.0 mm 0.20 in5.1 mm
04:14 AM 41.7°F5.4°C 40.1°F4.5°C 94% 2.7 mph NW4.3 kmh NW 4.2 mph6.8 kmh 30.01 in1016.3 mb 0.02 in0.5 mm 0.00 in0.0 mm 0.20 in5.1 mm
04:15 AM 41.7°F5.4°C 40.1°F4.5°C 94% 3.7 mph NE6.0 kmh NE 4.2 mph6.8 kmh 30.01 in1016.3 mb 0.02 in0.5 mm 0.00 in0.0 mm 0.20 in5.1 mm
04:16 AM 41.7°F5.4°C 40.1°F4.5°C 94% 2.7 mph NNE4.3 kmh NNE 4.2 mph6.8 kmh 30.01 in1016.3 mb 0.02 in0.5 mm 0.00 in0.0 mm 0.20 in5.1 mm
04:17 AM 41.7°F5.4°C 40.1°F4.5°C 94% 1.7 mph N2.7 kmh N 4.2 mph6.8 kmh 30.01 in1016.3 mb 0.02 in0.5 mm 0.00 in0.0 mm 0.20 in5.1 mm
04:18 AM 41.7°F5.4°C 40.1°F4.5°C 94% 2.7 mph NNE4.3 kmh NNE 4.2 mph6.8 kmh 30.00 in1015.9 mb 0.02 in0.5 mm 0.00 in0.0 mm 0.20 in5.1 mm
04:19 AM 41.7°F5.4°C 40.1°F4.5°C 94% 3.7 mph NNW6.0 kmh NNW 4.2 mph6.8 kmh 30.00 in1015.9 mb 0.02 in0.5 mm 0.00 in0.0 mm 0.20 in5.1 mm
04:20 AM 41.5°F5.3°C 39.9°F4.4°C 94% 3.2 mph W5.1 kmh W 4.2 mph6.8 kmh 30.00 in1015.9 mb 0.02 in0.5 mm 0.00 in0.0 mm 0.20 in5.1 mm
04:21 AM 41.5°F5.3°C 39.9°F4.4°C 94% 3.2 mph W5.1 kmh W 4.2 mph6.8 kmh 30.00 in1015.9 mb 0.01 in0.3 mm 0.00 in0.0 mm 0.20 in5.1 mm
04:22 AM 41.5°F5.3°C 39.9°F4.4°C 94% 2.7 mph W4.3 kmh W 4.2 mph6.8 kmh 30.00 in1015.9 mb 0.01 in0.3 mm 0.00 in0.0 mm 0.20 in5.1 mm
04:23 AM 41.5°F5.3°C 39.9°F4.4°C 94% 1.7 mph WSW2.7 kmh WSW 4.2 mph6.8 kmh 30.00 in1015.9 mb 0.01 in0.3 mm 0.00 in0.0 mm 0.20 in5.1 mm
04:24 AM 41.5°F5.3°C 39.9°F4.4°C 94% Calm Calm 4.2 mph6.8 kmh 30.00 in1015.9 mb 0.01 in0.3 mm 0.00 in0.0 mm 0.20 in5.1 mm
04:25 AM 41.5°F5.3°C 39.9°F4.4°C 94% Calm Calm 4.2 mph6.8 kmh 30.00 in1015.9 mb 0.01 in0.3 mm 0.00 in0.0 mm 0.20 in5.1 mm
04:26 AM 41.5°F5.3°C 39.9°F4.4°C 94% Calm Calm 4.2 mph6.8 kmh 30.00 in1015.9 mb 0.01 in0.3 mm 0.00 in0.0 mm 0.20 in5.1 mm
04:27 AM 41.5°F5.3°C 40.2°F4.6°C 95% 1.7 mph SW2.7 kmh SW 4.2 mph6.8 kmh 30.00 in1015.9 mb 0.01 in0.3 mm 0.00 in0.0 mm 0.20 in5.1 mm
04:28 AM 41.5°F5.3°C 40.2°F4.6°C 95% 1.7 mph SSW2.7 kmh SSW 4.2 mph6.8 kmh 30.00 in1015.9 mb 0.01 in0.3 mm 0.00 in0.0 mm 0.20 in5.1 mm
04:29 AM 41.5°F5.3°C 40.2°F4.6°C 95% 2.2 mph NNW3.5 kmh NNW 4.2 mph6.8 kmh 30.01 in1016.3 mb 0.01 in0.3 mm 0.00 in0.0 mm 0.20 in5.1 mm
04:30 AM 41.5°F5.3°C 40.2°F4.6°C 95% 1.1 mph W1.8 kmh W 3.7 mph6.0 kmh 30.01 in1016.3 mb 0.01 in0.3 mm 0.00 in0.0 mm 0.20 in5.1 mm
04:31 AM 41.5°F5.3°C 40.2°F4.6°C 95% 1.1 mph W1.8 kmh W 3.2 mph5.1 kmh 30.01 in1016.3 mb 0.01 in0.3 mm 0.00 in0.0 mm 0.20 in5.1 mm
04:32 AM 41.5°F5.3°C 40.2°F4.6°C 95% 1.1 mph SSE1.8 kmh SSE 2.7 mph4.3 kmh 30.01 in1016.3 mb 0.01 in0.3 mm 0.00 in0.0 mm 0.20 in5.1 mm
04:33 AM 41.4°F5.2°C 40.1°F4.5°C 95% Calm Calm 2.2 mph3.5 kmh 30.01 in1016.3 mb 0.01 in0.3 mm 0.00 in0.0 mm 0.20 in5.1 mm
04:34 AM 41.4°F5.2°C 40.1°F4.5°C 95% 2.2 mph NE3.5 kmh NE 2.2 mph3.5 kmh 30.01 in1016.3 mb 0.01 in0.3 mm 0.00 in0.0 mm 0.20 in5.1 mm
04:35 AM 41.4°F5.2°C 40.1°F4.5°C 95% 3.7 mph WSW6.0 kmh WSW 3.7 mph6.0 kmh 30.01 in1016.3 mb 0.01 in0.3 mm 0.00 in0.0 mm 0.20 in5.1 mm
04:36 AM 41.4°F5.2°C 40.1°F4.5°C 95% 2.2 mph NNW3.5 kmh NNW 4.2 mph6.8 kmh 30.01 in1016.3 mb 0.01 in0.3 mm 0.00 in0.0 mm 0.20 in5.1 mm
04:37 AM 41.4°F5.2°C 40.1°F4.5°C 95% 1.7 mph N2.7 kmh N 4.2 mph6.8 kmh 30.01 in1016.3 mb 0.01 in0.3 mm 0.00 in0.0 mm 0.20 in5.1 mm
04:38 AM 41.4°F5.2°C 40.1°F4.5°C 95% 3.2 mph N5.1 kmh N 4.2 mph6.8 kmh 30.01 in1016.3 mb 0.01 in0.3 mm 0.00 in0.0 mm 0.20 in5.1 mm
04:39 AM 41.4°F5.2°C 40.1°F4.5°C 95% 2.7 mph W4.3 kmh W 4.2 mph6.8 kmh 30.01 in1016.3 mb 0.01 in0.3 mm 0.00 in0.0 mm 0.20 in5.1 mm
04:40 AM 41.4°F5.2°C 40.1°F4.5°C 95% 2.7 mph NW4.3 kmh NW 4.2 mph6.8 kmh 30.01 in1016.3 mb 0.01 in0.3 mm 0.00 in0.0 mm 0.20 in5.1 mm
04:41 AM 41.4°F5.2°C 40.1°F4.5°C 95% 2.2 mph SW3.5 kmh SW 4.2 mph6.8 kmh 30.01 in1016.3 mb 0.01 in0.3 mm 0.00 in0.0 mm 0.20 in5.1 mm
04:42 AM 41.4°F5.2°C 40.1°F4.5°C 95% 2.7 mph WSW4.3 kmh WSW 4.2 mph6.8 kmh 30.01 in1016.3 mb 0.00 in0.0 mm 0.00 in0.0 mm 0.20 in5.1 mm
04:43 AM 41.4°F5.2°C 40.1°F4.5°C 95% 2.2 mph W3.5 kmh W 4.2 mph6.8 kmh 30.01 in1016.3 mb 0.00 in0.0 mm 0.00 in0.0 mm 0.20 in5.1 mm
04:44 AM 41.4°F5.2°C 40.1°F4.5°C 95% 2.7 mph WNW4.3 kmh WNW 4.2 mph6.8 kmh 30.01 in1016.3 mb 0.00 in0.0 mm 0.00 in0.0 mm 0.20 in5.1 mm
04:45 AM 41.4°F5.2°C 40.1°F4.5°C 95% 2.7 mph WNW4.3 kmh WNW 4.2 mph6.8 kmh 30.01 in1016.3 mb 0.00 in0.0 mm 0.00 in0.0 mm 0.20 in5.1 mm
04:46 AM 41.4°F5.2°C 40.1°F4.5°C 95% 2.2 mph WSW3.5 kmh WSW 4.2 mph6.8 kmh 30.01 in1016.3 mb 0.00 in0.0 mm 0.00 in0.0 mm 0.20 in5.1 mm
04:47 AM 41.4°F5.2°C 40.1°F4.5°C 95% 1.7 mph W2.7 kmh W 4.2 mph6.8 kmh 30.01 in1016.3 mb 0.00 in0.0 mm 0.00 in0.0 mm 0.20 in5.1 mm
04:48 AM 41.4°F5.2°C 40.1°F4.5°C 95% 3.2 mph W5.1 kmh W 3.2 mph5.1 kmh 30.01 in1016.3 mb 0.00 in0.0 mm 0.00 in0.0 mm 0.20 in5.1 mm
04:49 AM 41.4°F5.2°C 40.1°F4.5°C 95% 3.2 mph W5.1 kmh W 3.2 mph5.1 kmh 30.01 in1016.3 mb 0.00 in0.0 mm 0.00 in0.0 mm 0.20 in5.1 mm
04:50 AM 41.4°F5.2°C 40.1°F4.5°C 95% 2.2 mph W3.5 kmh W 3.7 mph6.0 kmh 30.01 in1016.3 mb 0.00 in0.0 mm 0.00 in0.0 mm 0.20 in5.1 mm
04:51 AM 41.4°F5.2°C 40.1°F4.5°C 95% 1.1 mph SW1.8 kmh SW 3.7 mph6.0 kmh 30.01 in1016.3 mb 0.00 in0.0 mm 0.00 in0.0 mm 0.20 in5.1 mm
04:52 AM 41.4°F5.2°C 40.1°F4.5°C 95% 1.7 mph W2.7 kmh W 3.7 mph6.0 kmh 30.01 in1016.3 mb 0.00 in0.0 mm 0.00 in0.0 mm 0.20 in5.1 mm
04:53 AM 41.2°F5.1°C 39.9°F4.4°C 95% Calm Calm 3.7 mph6.0 kmh 30.01 in1016.3 mb 0.00 in0.0 mm 0.00 in0.0 mm 0.20 in5.1 mm
04:54 AM 41.2°F5.1°C 39.9°F4.4°C 95% 1.7 mph W2.7 kmh W 3.7 mph6.0 kmh 30.01 in1016.3 mb 0.00 in0.0 mm 0.00 in0.0 mm 0.20 in5.1 mm
04:55 AM 41.2°F5.1°C 39.9°F4.4°C 95% 1.1 mph SW1.8 kmh SW 3.7 mph6.0 kmh 30.01 in1016.3 mb 0.00 in0.0 mm 0.00 in0.0 mm 0.20 in5.1 mm
04:56 AM 41.2°F5.1°C 39.9°F4.4°C 95% 2.2 mph SSW3.5 kmh SSW 3.7 mph6.0 kmh 30.01 in1016.3 mb 0.00 in0.0 mm 0.00 in0.0 mm 0.20 in5.1 mm
04:57 AM 41.2°F5.1°C 39.9°F4.4°C 95% 2.7 mph W4.3 kmh W 3.7 mph6.0 kmh 30.01 in1016.3 mb 0.00 in0.0 mm 0.00 in0.0 mm 0.20 in5.1 mm
04:58 AM 41.2°F5.1°C 39.9°F4.4°C 95% 2.7 mph W4.3 kmh W 3.7 mph6.0 kmh 30.01 in1016.3 mb 0.00 in0.0 mm 0.00 in0.0 mm 0.20 in5.1 mm
04:59 AM 41.2°F5.1°C 39.9°F4.4°C 95% 5.8 mph W9.3 kmh W 5.8 mph9.3 kmh 30.01 in1016.3 mb 0.00 in0.0 mm 0.00 in0.0 mm 0.20 in5.1 mm
05:00 AM 41.0°F5.0°C 38.9°F3.8°C 92% 7.8 mph WNW12.6 kmh WNW 7.8 mph12.6 kmh 30.01 in1016.3 mb 0.00 in0.0 mm 0.00 in0.0 mm 0.20 in5.1 mm
05:01 AM 41.0°F5.0°C 38.6°F3.7°C 91% 5.3 mph W8.5 kmh W 7.8 mph12.6 kmh 30.01 in1016.3 mb 0.00 in0.0 mm 0.00 in0.0 mm 0.20 in5.1 mm
05:02 AM 41.0°F5.0°C 38.6°F3.7°C 91% 14.5 mph WNW23.3 kmh WNW 14.5 mph23.3 kmh 30.01 in1016.3 mb 0.01 in0.3 mm 0.60 in15.2 mm 0.21 in5.3 mm
05:03 AM 41.0°F5.0°C 37.4°F3.0°C 87% 10.4 mph W16.7 kmh W 14.5 mph23.3 kmh 30.01 in1016.3 mb 0.01 in0.3 mm 0.00 in0.0 mm 0.21 in5.3 mm
05:04 AM 40.8°F4.9°C 36.9°F2.7°C 86% 7.8 mph WNW12.6 kmh WNW 14.5 mph23.3 kmh 30.01 in1016.3 mb 0.01 in0.3 mm 0.00 in0.0 mm 0.21 in5.3 mm
05:05 AM 40.8°F4.9°C 36.9°F2.7°C 86% 8.3 mph W13.4 kmh W 14.5 mph23.3 kmh 30.02 in1016.6 mb 0.01 in0.3 mm 0.00 in0.0 mm 0.21 in5.3 mm
05:06 AM 40.8°F4.9°C 36.6°F2.6°C 85% 6.8 mph WNW10.9 kmh WNW 14.5 mph23.3 kmh 30.02 in1016.6 mb 0.01 in0.3 mm 0.00 in0.0 mm 0.21 in5.3 mm
05:07 AM 40.8°F4.9°C 36.6°F2.6°C 85% 6.3 mph W10.1 kmh W 14.5 mph23.3 kmh 30.02 in1016.6 mb 0.01 in0.3 mm 0.00 in0.0 mm 0.21 in5.3 mm
05:08 AM 40.6°F4.8°C 36.5°F2.5°C 85% 4.7 mph W7.6 kmh W 14.5 mph23.3 kmh 30.02 in1016.6 mb 0.01 in0.3 mm 0.00 in0.0 mm 0.21 in5.3 mm
05:09 AM 40.6°F4.8°C 36.5°F2.5°C 85% 4.2 mph W6.8 kmh W 14.5 mph23.3 kmh 30.02 in1016.6 mb 0.01 in0.3 mm 0.00 in0.0 mm 0.21 in5.3 mm
05:10 AM 40.6°F4.8°C 36.5°F2.5°C 85% 5.8 mph W9.3 kmh W 14.5 mph23.3 kmh 30.02 in1016.6 mb 0.01 in0.3 mm 0.00 in0.0 mm 0.21 in5.3 mm
05:11 AM 40.6°F4.8°C 36.5°F2.5°C 85% 6.3 mph NNW10.1 kmh NNW 14.5 mph23.3 kmh 30.02 in1016.6 mb 0.01 in0.3 mm 0.00 in0.0 mm 0.21 in5.3 mm
05:12 AM 40.6°F4.8°C 36.5°F2.5°C 85% 3.7 mph W6.0 kmh W 14.5 mph23.3 kmh 30.02 in1016.6 mb 0.01 in0.3 mm 0.00 in0.0 mm 0.21 in5.3 mm
05:13 AM 40.6°F4.8°C 36.5°F2.5°C 85% 4.7 mph W7.6 kmh W 9.9 mph15.9 kmh 30.02 in1016.6 mb 0.01 in0.3 mm 0.00 in0.0 mm 0.21 in5.3 mm
05:14 AM 40.5°F4.7°C 36.4°F2.4°C 85% 5.8 mph W9.3 kmh W 9.9 mph15.9 kmh 30.02 in1016.6 mb 0.01 in0.3 mm 0.00 in0.0 mm 0.21 in5.3 mm
05:15 AM 40.5°F4.7°C 36.4°F2.4°C 85% 3.2 mph W5.1 kmh W 9.9 mph15.9 kmh 30.02 in1016.6 mb 0.01 in0.3 mm 0.00 in0.0 mm 0.21 in5.3 mm
05:16 AM 40.5°F4.7°C 36.6°F2.6°C 86% 1.7 mph SSW2.7 kmh SSW 9.4 mph15.1 kmh 30.02 in1016.6 mb 0.01 in0.3 mm 0.00 in0.0 mm 0.21 in5.3 mm
05:17 AM 40.5°F4.7°C 36.9°F2.7°C 87% 1.7 mph WNW2.7 kmh WNW 9.4 mph15.1 kmh 30.02 in1016.6 mb 0.01 in0.3 mm 0.00 in0.0 mm 0.21 in5.3 mm
05:18 AM 40.5°F4.7°C 36.9°F2.7°C 87% 2.7 mph W4.3 kmh W 7.3 mph11.7 kmh 30.02 in1016.6 mb 0.01 in0.3 mm 0.00 in0.0 mm 0.21 in5.3 mm
05:19 AM 40.3°F4.6°C 36.7°F2.6°C 87% 3.2 mph W5.1 kmh W 7.3 mph11.7 kmh 30.02 in1016.6 mb 0.01 in0.3 mm 0.00 in0.0 mm 0.21 in5.3 mm
05:20 AM 40.3°F4.6°C 36.7°F2.6°C 87% 2.2 mph W3.5 kmh W 7.3 mph11.7 kmh 30.02 in1016.6 mb 0.01 in0.3 mm 0.00 in0.0 mm 0.21 in5.3 mm
05:21 AM 40.3°F4.6°C 36.7°F2.6°C 87% 3.2 mph W5.1 kmh W 6.8 mph10.9 kmh 30.02 in1016.6 mb 0.01 in0.3 mm 0.00 in0.0 mm 0.21 in5.3 mm
05:22 AM 40.1°F4.5°C 36.5°F2.5°C 87% 4.7 mph W7.6 kmh W 5.8 mph9.3 kmh 30.02 in1016.6 mb 0.01 in0.3 mm 0.00 in0.0 mm 0.21 in5.3 mm
05:23 AM 40.1°F4.5°C 36.5°F2.5°C 87% 2.7 mph W4.3 kmh W 5.8 mph9.3 kmh 30.02 in1016.6 mb 0.01 in0.3 mm 0.00 in0.0 mm 0.21 in5.3 mm
05:24 AM 40.1°F4.5°C 36.5°F2.5°C 87% 3.2 mph WSW5.1 kmh WSW 5.8 mph9.3 kmh 30.02 in1016.6 mb 0.01 in0.3 mm 0.00 in0.0 mm 0.21 in5.3 mm
05:25 AM 40.1°F4.5°C 36.8°F2.7°C 88% 2.2 mph WSW3.5 kmh WSW 5.3 mph8.5 kmh 30.02 in1016.6 mb 0.01 in0.3 mm 0.00 in0.0 mm 0.21 in5.3 mm
05:26 AM 40.1°F4.5°C 36.8°F2.7°C 88% 5.3 mph W8.5 kmh W 5.3 mph8.5 kmh 30.02 in1016.6 mb 0.01 in0.3 mm 0.00 in0.0 mm 0.21 in5.3 mm
05:27 AM 40.1°F4.5°C 36.5°F2.5°C 87% 8.3 mph WSW13.4 kmh WSW 8.3 mph13.4 kmh 30.02 in1016.6 mb 0.01 in0.3 mm 0.00 in0.0 mm 0.21 in5.3 mm
05:28 AM 40.3°F4.6°C 36.5°F2.5°C 86% 4.7 mph W7.6 kmh W 8.9 mph14.3 kmh 30.02 in1016.6 mb 0.01 in0.3 mm 0.00 in0.0 mm 0.21 in5.3 mm
05:29 AM 40.3°F4.6°C 36.5°F2.5°C 86% 5.8 mph W9.3 kmh W 8.9 mph14.3 kmh 30.02 in1016.6 mb 0.01 in0.3 mm 0.00 in0.0 mm 0.21 in5.3 mm
05:30 AM 40.3°F4.6°C 36.5°F2.5°C 86% 4.2 mph W6.8 kmh W 8.9 mph14.3 kmh 30.02 in1016.6 mb 0.01 in0.3 mm 0.00 in0.0 mm 0.21 in5.3 mm
05:31 AM 40.3°F4.6°C 36.5°F2.5°C 86% 4.2 mph NW6.8 kmh NW 8.9 mph14.3 kmh 30.02 in1016.6 mb 0.01 in0.3 mm 0.00 in0.0 mm 0.21 in5.3 mm
05:32 AM 40.3°F4.6°C 36.5°F2.5°C 86% 7.3 mph NW11.7 kmh NW 8.9 mph14.3 kmh 30.02 in1016.6 mb 0.01 in0.3 mm 0.00 in0.0 mm 0.21 in5.3 mm
05:33 AM 40.3°F4.6°C 36.2°F2.3°C 85% 5.8 mph W9.3 kmh W 8.9 mph14.3 kmh 30.02 in1016.6 mb 0.01 in0.3 mm 0.00 in0.0 mm 0.21 in5.3 mm
05:34 AM 40.5°F4.7°C 36.4°F2.4°C 85% 5.8 mph W9.3 kmh W 8.9 mph14.3 kmh 30.02 in1016.6 mb 0.01 in0.3 mm 0.00 in0.0 mm 0.21 in5.3 mm
05:35 AM 40.5°F4.7°C 36.1°F2.3°C 84% 4.7 mph WNW7.6 kmh WNW 8.9 mph14.3 kmh 30.02 in1016.6 mb 0.01 in0.3 mm 0.00 in0.0 mm 0.21 in5.3 mm
05:36 AM 40.5°F4.7°C 36.4°F2.4°C 85% 3.2 mph W5.1 kmh W 8.9 mph14.3 kmh 30.02 in1016.6 mb 0.01 in0.3 mm 0.00 in0.0 mm 0.21 in5.3 mm
05:37 AM 40.5°F4.7°C 36.6°F2.6°C 86% 3.7 mph WSW6.0 kmh WSW 8.9 mph14.3 kmh 30.02 in1016.6 mb 0.01 in0.3 mm 0.00 in0.0 mm 0.21 in5.3 mm
05:38 AM 40.5°F4.7°C 36.6°F2.6°C 86% 3.2 mph SSW5.1 kmh SSW 8.9 mph14.3 kmh 30.02 in1016.6 mb 0.01 in0.3 mm 0.00 in0.0 mm 0.21 in5.3 mm
05:39 AM 40.5°F4.7°C 36.6°F2.6°C 86% 3.7 mph W6.0 kmh W 7.8 mph12.6 kmh 30.02 in1016.6 mb 0.01 in0.3 mm 0.00 in0.0 mm 0.21 in5.3 mm
05:40 AM 40.5°F4.7°C 36.6°F2.6°C 86% 3.7 mph WNW6.0 kmh WNW 7.8 mph12.6 kmh 30.02 in1016.6 mb 0.01 in0.3 mm 0.00 in0.0 mm 0.21 in5.3 mm
05:41 AM 40.3°F4.6°C 36.5°F2.5°C 86% 2.7 mph W4.3 kmh W 7.8 mph12.6 kmh 30.02 in1016.6 mb 0.01 in0.3 mm 0.00 in0.0 mm 0.21 in5.3 mm
05:42 AM 40.3°F4.6°C 36.2°F2.3°C 85% 4.2 mph W6.8 kmh W 7.8 mph12.6 kmh 30.03 in1016.9 mb 0.01 in0.3 mm 0.00 in0.0 mm 0.21 in5.3 mm
05:43 AM 40.3°F4.6°C 36.2°F2.3°C 85% 7.8 mph N12.6 kmh N 7.8 mph12.6 kmh 30.03 in1016.9 mb 0.01 in0.3 mm 0.00 in0.0 mm 0.21 in5.3 mm
05:44 AM 40.3°F4.6°C 35.9°F2.2°C 84% 6.8 mph W10.9 kmh W 7.8 mph12.6 kmh 30.03 in1016.9 mb 0.01 in0.3 mm 0.00 in0.0 mm 0.21 in5.3 mm
05:45 AM 40.3°F4.6°C 35.9°F2.2°C 84% 5.3 mph NW8.5 kmh NW 7.8 mph12.6 kmh 30.03 in1016.9 mb 0.01 in0.3 mm 0.00 in0.0 mm 0.21 in5.3 mm
05:46 AM 40.3°F4.6°C 35.6°F2.0°C 83% 3.7 mph WSW6.0 kmh WSW 7.8 mph12.6 kmh 30.03 in1016.9 mb 0.01 in0.3 mm 0.00 in0.0 mm 0.21 in5.3 mm
05:47 AM 40.3°F4.6°C 35.6°F2.0°C 83% 5.3 mph W8.5 kmh W 7.8 mph12.6 kmh 30.03 in1016.9 mb 0.01 in0.3 mm 0.00 in0.0 mm 0.21 in5.3 mm
05:48 AM 40.3°F4.6°C 35.9°F2.2°C 84% 5.3 mph WNW8.5 kmh WNW 7.8 mph12.6 kmh 30.03 in1016.9 mb 0.01 in0.3 mm 0.00 in0.0 mm 0.21 in5.3 mm
05:49 AM 40.3°F4.6°C 36.2°F2.3°C 85% 3.7 mph W6.0 kmh W 7.8 mph12.6 kmh 30.03 in1016.9 mb 0.01 in0.3 mm 0.00 in0.0 mm 0.21 in5.3 mm
05:50 AM 40.1°F4.5°C 36.3°F2.4°C 86% 3.2 mph W5.1 kmh W 7.8 mph12.6 kmh 30.03 in1016.9 mb 0.01 in0.3 mm 0.00 in0.0 mm 0.21 in5.3 mm
05:51 AM 40.1°F4.5°C 36.3°F2.4°C 86% 2.2 mph W3.5 kmh W 7.8 mph12.6 kmh 30.03 in1016.9 mb 0.01 in0.3 mm 0.00 in0.0 mm 0.21 in5.3 mm
05:52 AM 40.1°F4.5°C 36.3°F2.4°C 86% 2.7 mph NNW4.3 kmh NNW 7.8 mph12.6 kmh 30.03 in1016.9 mb 0.01 in0.3 mm 0.00 in0.0 mm 0.21 in5.3 mm
05:53 AM 39.9°F4.4°C 36.1°F2.3°C 86% 3.7 mph W6.0 kmh W 7.8 mph12.6 kmh 30.03 in1016.9 mb 0.01 in0.3 mm 0.00 in0.0 mm 0.21 in5.3 mm
05:54 AM 39.9°F4.4°C 36.1°F2.3°C 86% 3.2 mph WNW5.1 kmh WNW 6.8 mph10.9 kmh 30.02 in1016.6 mb 0.01 in0.3 mm 0.00 in0.0 mm 0.21 in5.3 mm
05:55 AM 39.9°F4.4°C 36.1°F2.3°C 86% 4.2 mph W6.8 kmh W 6.3 mph10.1 kmh 30.02 in1016.6 mb 0.01 in0.3 mm 0.00 in0.0 mm 0.21 in5.3 mm
05:56 AM 39.9°F4.4°C 36.1°F2.3°C 86% 1.7 mph SSW2.7 kmh SSW 6.3 mph10.1 kmh 30.02 in1016.6 mb 0.01 in0.3 mm 0.00 in0.0 mm 0.21 in5.3 mm
05:57 AM 39.9°F4.4°C 36.1°F2.3°C 86% 2.7 mph WNW4.3 kmh WNW 5.3 mph8.5 kmh 30.02 in1016.6 mb 0.01 in0.3 mm 0.00 in0.0 mm 0.21 in5.3 mm
05:58 AM 39.9°F4.4°C 36.4°F2.4°C 87% 2.2 mph WSW3.5 kmh WSW 4.2 mph6.8 kmh 30.02 in1016.6 mb 0.01 in0.3 mm 0.00 in0.0 mm 0.21 in5.3 mm
05:59 AM 39.9°F4.4°C 36.4°F2.4°C 87% 2.2 mph W3.5 kmh W 4.2 mph6.8 kmh 30.02 in1016.6 mb 0.01 in0.3 mm 0.00 in0.0 mm 0.21 in5.3 mm
06:00 AM 39.7°F4.3°C 36.2°F2.3°C 87% 2.2 mph W3.5 kmh W 4.2 mph6.8 kmh 30.02 in1016.6 mb 0.01 in0.3 mm 0.00 in0.0 mm 0.21 in5.3 mm
06:01 AM 39.7°F4.3°C 36.2°F2.3°C 87% 2.2 mph W3.5 kmh W 4.2 mph6.8 kmh 30.02 in1016.6 mb 0.01 in0.3 mm 0.00 in0.0 mm 0.21 in5.3 mm
06:02 AM 39.7°F4.3°C 36.2°F2.3°C 87% 1.1 mph S1.8 kmh S 4.2 mph6.8 kmh 30.02 in1016.6 mb 0.01 in0.3 mm 0.00 in0.0 mm 0.21 in5.3 mm
06:03 AM 39.7°F4.3°C 36.7°F2.6°C 89% 1.7 mph SSE2.7 kmh SSE 4.2 mph6.8 kmh 30.02 in1016.6 mb 0.00 in0.0 mm 0.00 in0.0 mm 0.21 in5.3 mm
06:04 AM 39.6°F4.2°C 36.9°F2.7°C 90% Calm Calm 4.2 mph6.8 kmh 30.02 in1016.6 mb 0.00 in0.0 mm 0.00 in0.0 mm 0.21 in5.3 mm
06:05 AM 39.6°F4.2°C 36.9°F2.7°C 90% Calm Calm 4.2 mph6.8 kmh 30.02 in1016.6 mb 0.00 in0.0 mm 0.00 in0.0 mm 0.21 in5.3 mm
06:06 AM 39.6°F4.2°C 36.9°F2.7°C 90% Calm Calm 2.7 mph4.3 kmh 30.02 in1016.6 mb 0.00 in0.0 mm 0.00 in0.0 mm 0.21 in5.3 mm
06:07 AM 39.6°F4.2°C 36.9°F2.7°C 90% Calm Calm 2.7 mph4.3 kmh 30.02 in1016.6 mb 0.00 in0.0 mm 0.00 in0.0 mm 0.21 in5.3 mm
06:08 AM 39.4°F4.1°C 36.4°F2.4°C 89% 1.7 mph WSW2.7 kmh WSW 2.2 mph3.5 kmh 30.02 in1016.6 mb 0.00 in0.0 mm 0.00 in0.0 mm 0.21 in5.3 mm
06:09 AM 39.4°F4.1°C 36.4°F2.4°C 89% Calm Calm 2.2 mph3.5 kmh 30.02 in1016.6 mb 0.00 in0.0 mm 0.00 in0.0 mm 0.21 in5.3 mm
06:10 AM 39.4°F4.1°C 36.4°F2.4°C 89% 1.7 mph W2.7 kmh W 2.2 mph3.5 kmh 30.02 in1016.6 mb 0.00 in0.0 mm 0.00 in0.0 mm 0.21 in5.3 mm
06:11 AM 39.2°F4.0°C 36.2°F2.3°C 89% 1.7 mph WSW2.7 kmh WSW 2.2 mph3.5 kmh 30.02 in1016.6 mb 0.00 in0.0 mm 0.00 in0.0 mm 0.21 in5.3 mm
06:12 AM 39.2°F4.0°C 36.2°F2.3°C 89% Calm Calm 2.2 mph3.5 kmh 30.02 in1016.6 mb 0.00 in0.0 mm 0.00 in0.0 mm 0.21 in5.3 mm
06:13 AM 39.2°F4.0°C 36.8°F2.7°C 91% 1.1 mph SSW1.8 kmh SSW 2.2 mph3.5 kmh 30.02 in1016.6 mb 0.00 in0.0 mm 0.00 in0.0 mm 0.21 in5.3 mm
06:14 AM 39.2°F4.0°C 36.8°F2.7°C 91% Calm Calm 2.2 mph3.5 kmh 30.02 in1016.6 mb 0.00 in0.0 mm 0.00 in0.0 mm 0.21 in5.3 mm
06:15 AM 39.2°F4.0°C 36.8°F2.7°C 91% Calm Calm 2.2 mph3.5 kmh 30.02 in1016.6 mb 0.00 in0.0 mm 0.00 in0.0 mm 0.21 in5.3 mm
06:16 AM 39.0°F3.9°C 36.9°F2.7°C 92% Calm Calm 2.2 mph3.5 kmh 30.02 in1016.6 mb 0.00 in0.0 mm 0.00 in0.0 mm 0.21 in5.3 mm
06:17 AM 39.0°F3.9°C 36.9°F2.7°C 92% Calm Calm 2.2 mph3.5 kmh 30.03 in1016.9 mb 0.00 in0.0 mm 0.00 in0.0 mm 0.21 in5.3 mm
06:18 AM 38.8°F3.8°C 36.7°F2.6°C 92% Calm Calm 2.2 mph3.5 kmh 30.03 in1016.9 mb 0.00 in0.0 mm 0.00 in0.0 mm 0.21 in5.3 mm
06:19 AM 38.8°F3.8°C 36.7°F2.6°C 92% Calm Calm 2.2 mph3.5 kmh 30.03 in1016.9 mb 0.00 in0.0 mm 0.00 in0.0 mm 0.21 in5.3 mm
06:20 AM 38.8°F3.8°C 36.7°F2.6°C 92% Calm Calm 2.2 mph3.5 kmh 30.03 in1016.9 mb 0.00 in0.0 mm 0.00 in0.0 mm 0.21 in5.3 mm
06:21 AM 38.8°F3.8°C 36.7°F2.6°C 92% 1.1 mph SE1.8 kmh SE 1.1 mph1.8 kmh 30.03 in1016.9 mb 0.00 in0.0 mm 0.00 in0.0 mm 0.21 in5.3 mm
06:22 AM 38.8°F3.8°C 36.7°F2.6°C 92% Calm Calm 1.1 mph1.8 kmh 30.03 in1016.9 mb 0.00 in0.0 mm 0.00 in0.0 mm 0.21 in5.3 mm
06:23 AM 38.8°F3.8°C 36.7°F2.6°C 92% Calm Calm 1.1 mph1.8 kmh 30.03 in1016.9 mb 0.00 in0.0 mm 0.00 in0.0 mm 0.21 in5.3 mm
06:24 AM 38.7°F3.7°C 36.6°F2.6°C 92% Calm Calm 1.1 mph1.8 kmh 30.03 in1016.9 mb 0.00 in0.0 mm 0.00 in0.0 mm 0.21 in5.3 mm
06:25 AM 38.7°F3.7°C 36.6°F2.6°C 92% Calm Calm 1.1 mph1.8 kmh 30.03 in1016.9 mb 0.00 in0.0 mm 0.00 in0.0 mm 0.21 in5.3 mm
06:26 AM 38.7°F3.7°C 36.6°F2.6°C 92% Calm Calm 1.1 mph1.8 kmh 30.03 in1016.9 mb 0.00 in0.0 mm 0.00 in0.0 mm 0.21 in5.3 mm
06:27 AM 38.7°F3.7°C 36.6°F2.6°C 92% Calm Calm 1.1 mph1.8 kmh 30.03 in1016.9 mb 0.00 in0.0 mm 0.00 in0.0 mm 0.21 in5.3 mm
06:28 AM 38.7°F3.7°C 36.6°F2.6°C 92% Calm Calm 1.1 mph1.8 kmh 30.03 in1016.9 mb 0.00 in0.0 mm 0.00 in0.0 mm 0.21 in5.3 mm
06:29 AM 38.7°F3.7°C 36.6°F2.6°C 92% Calm Calm 1.1 mph1.8 kmh 30.02 in1016.6 mb 0.00 in0.0 mm 0.00 in0.0 mm 0.21 in5.3 mm
06:30 AM 38.7°F3.7°C 36.9°F2.7°C 93% Calm Calm 1.1 mph1.8 kmh 30.02 in1016.6 mb 0.00 in0.0 mm 0.00 in0.0 mm 0.21 in5.3 mm
06:31 AM 38.5°F3.6°C 36.7°F2.6°C 93% 2.2 mph W3.5 kmh W 2.7 mph4.3 kmh 30.02 in1016.6 mb 0.00 in0.0 mm 0.00 in0.0 mm 0.21 in5.3 mm
06:32 AM 38.5°F3.6°C 36.7°F2.6°C 93% Calm Calm 2.7 mph4.3 kmh 30.02 in1016.6 mb 0.00 in0.0 mm 0.00 in0.0 mm 0.21 in5.3 mm
06:33 AM 38.5°F3.6°C 36.7°F2.6°C 93% Calm Calm 2.7 mph4.3 kmh 30.02 in1016.6 mb 0.00 in0.0 mm 0.00 in0.0 mm 0.21 in5.3 mm
06:34 AM 38.5°F3.6°C 36.7°F2.6°C 93% 2.2 mph W3.5 kmh W 2.7 mph4.3 kmh 30.02 in1016.6 mb 0.00 in0.0 mm 0.00 in0.0 mm 0.21 in5.3 mm
06:35 AM 38.5°F3.6°C 36.9°F2.7°C 94% Calm Calm 2.7 mph4.3 kmh 30.02 in1016.6 mb 0.00 in0.0 mm 0.00 in0.0 mm 0.21 in5.3 mm
06:36 AM 38.5°F3.6°C 36.9°F2.7°C 94% Calm Calm 2.7 mph4.3 kmh 30.02 in1016.6 mb 0.00 in0.0 mm 0.00 in0.0 mm 0.21 in5.3 mm
06:37 AM 38.3°F3.5°C 36.7°F2.6°C 94% Calm Calm 2.7 mph4.3 kmh 30.02 in1016.6 mb 0.00 in0.0 mm 0.00 in0.0 mm 0.21 in5.3 mm
06:38 AM 38.3°F3.5°C 36.7°F2.6°C 94% Calm Calm 2.7 mph4.3 kmh 30.02 in1016.6 mb 0.00 in0.0 mm 0.00 in0.0 mm 0.21 in5.3 mm
06:39 AM 38.3°F3.5°C 36.7°F2.6°C 94% Calm Calm 2.7 mph4.3 kmh 30.02 in1016.6 mb 0.00 in0.0 mm 0.00 in0.0 mm 0.21 in5.3 mm
06:40 AM 38.3°F3.5°C 36.7°F2.6°C 94% Calm Calm 2.7 mph4.3 kmh 30.02 in1016.6 mb 0.00 in0.0 mm 0.00 in0.0 mm 0.21 in5.3 mm
06:41 AM 38.3°F3.5°C 36.7°F2.6°C 94% Calm Calm 2.2 mph3.5 kmh 30.04 in1017.3 mb 0.00 in0.0 mm 0.00 in0.0 mm 0.21 in5.3 mm
06:42 AM 38.3°F3.5°C 36.7°F2.6°C 94% Calm Calm 2.2 mph3.5 kmh 30.04 in1017.3 mb 0.00 in0.0 mm 0.00 in0.0 mm 0.21 in5.3 mm
06:43 AM 38.3°F3.5°C 36.7°F2.6°C 94% Calm Calm 2.2 mph3.5 kmh 30.04 in1017.3 mb 0.00 in0.0 mm 0.00 in0.0 mm 0.21 in5.3 mm
06:44 AM 38.3°F3.5°C 36.7°F2.6°C 94% Calm Calm 1.7 mph2.7 kmh 30.04 in1017.3 mb 0.00 in0.0 mm 0.00 in0.0 mm 0.21 in5.3 mm
06:45 AM 38.3°F3.5°C 37.0°F2.8°C 95% Calm Calm -- 30.04 in1017.3 mb 0.00 in0.0 mm 0.00 in0.0 mm 0.21 in5.3 mm
06:46 AM 38.3°F3.5°C 37.0°F2.8°C 95% Calm Calm -- 30.04 in1017.3 mb 0.00 in0.0 mm 0.00 in0.0 mm 0.21 in5.3 mm
06:47 AM 38.3°F3.5°C 37.0°F2.8°C 95% Calm Calm -- 30.04 in1017.3 mb 0.00 in0.0 mm 0.00 in0.0 mm 0.21 in5.3 mm
06:48 AM 38.3°F3.5°C 37.0°F2.8°C 95% Calm Calm -- 30.04 in1017.3 mb 0.00 in0.0 mm 0.00 in0.0 mm 0.21 in5.3 mm
06:49 AM 38.1°F3.4°C 36.8°F2.7°C 95% Calm Calm -- 30.04 in1017.3 mb 0.00 in0.0 mm 0.00 in0.0 mm 0.21 in5.3 mm
06:50 AM 38.1°F3.4°C 36.8°F2.7°C 95% Calm Calm -- 30.04 in1017.3 mb 0.00 in0.0 mm 0.00 in0.0 mm 0.21 in5.3 mm
06:51 AM 38.1°F3.4°C 36.8°F2.7°C 95% Calm Calm -- 30.04 in1017.3 mb 0.00 in0.0 mm 0.00 in0.0 mm 0.21 in5.3 mm
06:52 AM 38.1°F3.4°C 36.8°F2.7°C 95% Calm Calm -- 30.04 in1017.3 mb 0.00 in0.0 mm 0.00 in0.0 mm 0.21 in5.3 mm
06:53 AM 38.1°F3.4°C 36.8°F2.7°C 95% Calm Calm -- 30.04 in1017.3 mb 0.00 in0.0 mm 0.00 in0.0 mm 0.21 in5.3 mm
06:54 AM 38.1°F3.4°C 36.8°F2.7°C 95% Calm Calm -- 30.04 in1017.3 mb 0.00 in0.0 mm 0.00 in0.0 mm 0.21 in5.3 mm
06:55 AM 38.1°F3.4°C 36.8°F2.7°C 95% Calm Calm -- 30.04 in1017.3 mb 0.00 in0.0 mm 0.00 in0.0 mm 0.21 in5.3 mm
06:56 AM 38.1°F3.4°C 36.8°F2.7°C 95% 1.1 mph SW1.8 kmh SW 1.7 mph2.7 kmh 30.04 in1017.3 mb 0.00 in0.0 mm 0.00 in0.0 mm 0.21 in5.3 mm
06:57 AM 37.9°F3.3°C 36.6°F2.6°C 95% Calm Calm 1.7 mph2.7 kmh 30.04 in1017.3 mb 0.00 in0.0 mm 0.00 in0.0 mm 0.21 in5.3 mm
06:58 AM 37.9°F3.3°C 36.6°F2.6°C 95% 1.1 mph SSE1.8 kmh SSE 1.7 mph2.7 kmh 30.04 in1017.3 mb 0.00 in0.0 mm 0.00 in0.0 mm 0.21 in5.3 mm
06:59 AM 37.9°F3.3°C 36.6°F2.6°C 95% 1.7 mph WSW2.7 kmh WSW 1.7 mph2.7 kmh 30.04 in1017.3 mb 0.00 in0.0 mm 0.00 in0.0 mm 0.21 in5.3 mm
07:00 AM 37.9°F3.3°C 36.6°F2.6°C 95% 1.1 mph W1.8 kmh W 1.7 mph2.7 kmh 30.04 in1017.3 mb 0.00 in0.0 mm 0.00 in0.0 mm 0.21 in5.3 mm
07:01 AM 37.9°F3.3°C 36.6°F2.6°C 95% Calm Calm 1.7 mph2.7 kmh 30.04 in1017.3 mb 0.00 in0.0 mm 0.00 in0.0 mm 0.21 in5.3 mm
07:02 AM 37.9°F3.3°C 36.6°F2.6°C 95% Calm Calm 1.7 mph2.7 kmh 30.04 in1017.3 mb 0.00 in0.0 mm 0.00 in0.0 mm 0.21 in5.3 mm
07:03 AM 37.9°F3.3°C 36.6°F2.6°C 95% Calm Calm 1.7 mph2.7 kmh 30.04 in1017.3 mb 0.00 in0.0 mm 0.00 in0.0 mm 0.21 in5.3 mm
07:04 AM 37.9°F3.3°C 36.6°F2.6°C 95% Calm Calm 1.7 mph2.7 kmh 30.04 in1017.3 mb 0.00 in0.0 mm 0.00 in0.0 mm 0.21 in5.3 mm
07:05 AM 37.9°F3.3°C 36.6°F2.6°C 95% Calm Calm 1.7 mph2.7 kmh 30.04 in1017.3 mb 0.00 in0.0 mm 0.00 in0.0 mm 0.21 in5.3 mm
07:06 AM 37.9°F3.3°C 36.6°F2.6°C 95% Calm Calm 1.7 mph2.7 kmh 30.04 in1017.3 mb 0.00 in0.0 mm 0.00 in0.0 mm 0.21 in5.3 mm
07:07 AM 37.9°F3.3°C 36.6°F2.6°C 95% Calm Calm 1.7 mph2.7 kmh 30.04 in1017.3 mb 0.00 in0.0 mm 0.00 in0.0 mm 0.21 in5.3 mm
07:08 AM 37.9°F3.3°C 36.6°F2.6°C 95% Calm Calm 1.7 mph2.7 kmh 30.04 in1017.3 mb 0.00 in0.0 mm 0.00 in0.0 mm 0.21 in5.3 mm
07:09 AM 37.9°F3.3°C 36.6°F2.6°C 95% Calm Calm 1.7 mph2.7 kmh 30.04 in1017.3 mb 0.00 in0.0 mm 0.00 in0.0 mm 0.21 in5.3 mm
07:10 AM 37.9°F3.3°C 36.6°F2.6°C 95% Calm Calm 1.1 mph1.8 kmh 30.04 in1017.3 mb 0.00 in0.0 mm 0.00 in0.0 mm 0.21 in5.3 mm
07:11 AM 37.9°F3.3°C 36.6°F2.6°C 95% Calm Calm 1.1 mph1.8 kmh 30.04 in1017.3 mb 0.00 in0.0 mm 0.00 in0.0 mm 0.21 in5.3 mm
07:12 AM 37.9°F3.3°C 36.6°F2.6°C 95% Calm Calm 1.1 mph1.8 kmh 30.04 in1017.3 mb 0.00 in0.0 mm 0.00 in0.0 mm 0.21 in5.3 mm
07:13 AM 37.9°F3.3°C 36.6°F2.6°C 95% 1.7 mph WSW2.7 kmh WSW 1.7 mph2.7 kmh 30.04 in1017.3 mb 0.00 in0.0 mm 0.00 in0.0 mm 0.21 in5.3 mm
07:14 AM 37.8°F3.2°C 36.5°F2.5°C 95% 1.1 mph WSW1.8 kmh WSW 1.7 mph2.7 kmh 30.04 in1017.3 mb 0.00 in0.0 mm 0.00 in0.0 mm 0.21 in5.3 mm
07:15 AM 37.8°F3.2°C 36.5°F2.5°C 95% Calm Calm 1.7 mph2.7 kmh 30.04 in1017.3 mb 0.00 in0.0 mm 0.00 in0.0 mm 0.21 in5.3 mm
07:16 AM 37.8°F3.2°C 36.5°F2.5°C 95% 2.2 mph SSW3.5 kmh SSW 2.2 mph3.5 kmh 30.04 in1017.3 mb 0.00 in0.0 mm 0.00 in0.0 mm 0.21 in5.3 mm
07:17 AM 37.8°F3.2°C 36.5°F2.5°C 95% 2.7 mph SSW4.3 kmh SSW 2.7 mph4.3 kmh 30.04 in1017.3 mb 0.00 in0.0 mm 0.00 in0.0 mm 0.21 in5.3 mm
07:18 AM 37.9°F3.3°C 36.6°F2.6°C 95% 4.2 mph W6.8 kmh W 4.2 mph6.8 kmh 30.04 in1017.3 mb 0.00 in0.0 mm 0.00 in0.0 mm 0.21 in5.3 mm
07:19 AM 37.9°F3.3°C 36.6°F2.6°C 95% 1.7 mph WSW2.7 kmh WSW 4.2 mph6.8 kmh 30.04 in1017.3 mb 0.00 in0.0 mm 0.00 in0.0 mm 0.21 in5.3 mm
07:20 AM 37.9°F3.3°C 36.6°F2.6°C 95% 2.2 mph WNW3.5 kmh WNW 4.2 mph6.8 kmh 30.04 in1017.3 mb 0.00 in0.0 mm 0.00 in0.0 mm 0.21 in5.3 mm
07:21 AM 37.9°F3.3°C 36.6°F2.6°C 95% 2.2 mph WSW3.5 kmh WSW 4.2 mph6.8 kmh 30.04 in1017.3 mb 0.00 in0.0 mm 0.00 in0.0 mm 0.21 in5.3 mm
07:22 AM 38.1°F3.4°C 36.8°F2.7°C 95% 1.7 mph WSW2.7 kmh WSW 4.2 mph6.8 kmh 30.04 in1017.3 mb 0.00 in0.0 mm 0.00 in0.0 mm 0.21 in5.3 mm
07:23 AM 38.1°F3.4°C 36.8°F2.7°C 95% 1.7 mph W2.7 kmh W 4.2 mph6.8 kmh 30.04 in1017.3 mb 0.00 in0.0 mm 0.00 in0.0 mm 0.21 in5.3 mm
07:24 AM 38.1°F3.4°C 36.8°F2.7°C 95% 2.7 mph W4.3 kmh W 4.2 mph6.8 kmh 30.04 in1017.3 mb 0.00 in0.0 mm 0.00 in0.0 mm 0.21 in5.3 mm
07:25 AM 38.1°F3.4°C 36.8°F2.7°C 95% 2.2 mph W3.5 kmh W 4.2 mph6.8 kmh 30.04 in1017.3 mb 0.00 in0.0 mm 0.00 in0.0 mm 0.21 in5.3 mm
07:26 AM 38.1°F3.4°C 36.8°F2.7°C 95% 2.2 mph SW3.5 kmh SW 4.2 mph6.8 kmh 30.04 in1017.3 mb 0.00 in0.0 mm 0.00 in0.0 mm 0.21 in5.3 mm
07:27 AM 38.1°F3.4°C 36.8°F2.7°C 95% 2.2 mph WNW3.5 kmh WNW 4.2 mph6.8 kmh 30.04 in1017.3 mb 0.00 in0.0 mm 0.00 in0.0 mm 0.21 in5.3 mm
07:28 AM 38.1°F3.4°C 36.8°F2.7°C 95% 1.7 mph WSW2.7 kmh WSW 3.7 mph6.0 kmh 30.04 in1017.3 mb 0.00 in0.0 mm 0.00 in0.0 mm 0.21 in5.3 mm
07:29 AM 38.1°F3.4°C 36.8°F2.7°C 95% 2.7 mph W4.3 kmh W 3.7 mph6.0 kmh 30.05 in1017.6 mb 0.00 in0.0 mm 0.00 in0.0 mm 0.21 in5.3 mm
07:30 AM 38.3°F3.5°C 37.0°F2.8°C 95% 2.2 mph W3.5 kmh W 3.7 mph6.0 kmh 30.05 in1017.6 mb 0.00 in0.0 mm 0.00 in0.0 mm 0.21 in5.3 mm
07:31 AM 38.3°F3.5°C 37.0°F2.8°C 95% 2.7 mph WSW4.3 kmh WSW 3.7 mph6.0 kmh 30.05 in1017.6 mb 0.00 in0.0 mm 0.00 in0.0 mm 0.21 in5.3 mm
07:32 AM 38.3°F3.5°C 37.0°F2.8°C 95% 1.7 mph SSW2.7 kmh SSW 3.7 mph6.0 kmh 30.05 in1017.6 mb 0.00 in0.0 mm 0.00 in0.0 mm 0.21 in5.3 mm
07:33 AM 38.3°F3.5°C 37.0°F2.8°C 95% 2.2 mph SW3.5 kmh SW 3.7 mph6.0 kmh 30.05 in1017.6 mb 0.00 in0.0 mm 0.00 in0.0 mm 0.21 in5.3 mm
07:34 AM 38.3°F3.5°C 37.0°F2.8°C 95% 1.1 mph SSW1.8 kmh SSW 3.7 mph6.0 kmh 30.05 in1017.6 mb 0.00 in0.0 mm 0.00 in0.0 mm 0.21 in5.3 mm
07:35 AM 38.3°F3.5°C 37.0°F2.8°C 95% 1.7 mph SE2.7 kmh SE 3.7 mph6.0 kmh 30.05 in1017.6 mb 0.00 in0.0 mm 0.00 in0.0 mm 0.21 in5.3 mm
07:36 AM 38.3°F3.5°C 37.0°F2.8°C 95% 3.2 mph SSW5.1 kmh SSW 3.7 mph6.0 kmh 30.05 in1017.6 mb 0.00 in0.0 mm 0.00 in0.0 mm 0.21 in5.3 mm
07:37 AM 38.3°F3.5°C 37.0°F2.8°C 95% 3.2 mph W5.1 kmh W 3.7 mph6.0 kmh 30.05 in1017.6 mb 0.00 in0.0 mm 0.00 in0.0 mm 0.21 in5.3 mm
07:38 AM 38.3°F3.5°C 36.7°F2.6°C 94% 3.7 mph WSW6.0 kmh WSW 3.7 mph6.0 kmh 30.05 in1017.6 mb 0.00 in0.0 mm 0.00 in0.0 mm 0.21 in5.3 mm
07:39 AM 38.5°F3.6°C 36.9°F2.7°C 94% 2.7 mph W4.3 kmh W 3.7 mph6.0 kmh 30.05 in1017.6 mb 0.00 in0.0 mm 0.00 in0.0 mm 0.21 in5.3 mm
07:40 AM 38.7°F3.7°C 37.1°F2.8°C 94% 3.2 mph NE5.1 kmh NE 3.7 mph6.0 kmh 30.05 in1017.6 mb 0.00 in0.0 mm 0.00 in0.0 mm 0.21 in5.3 mm
07:41 AM 38.7°F3.7°C 37.1°F2.8°C 94% 3.2 mph SSW5.1 kmh SSW 3.7 mph6.0 kmh 30.06 in1017.9 mb 0.00 in0.0 mm 0.00 in0.0 mm 0.21 in5.3 mm
07:42 AM 38.7°F3.7°C 37.1°F2.8°C 94% 2.7 mph WSW4.3 kmh WSW 3.7 mph6.0 kmh 30.06 in1017.9 mb 0.00 in0.0 mm 0.00 in0.0 mm 0.21 in5.3 mm
07:43 AM 38.7°F3.7°C 36.9°F2.7°C 93% 4.2 mph W6.8 kmh W 4.7 mph7.6 kmh 30.06 in1017.9 mb 0.00 in0.0 mm 0.00 in0.0 mm 0.21 in5.3 mm
07:44 AM 38.8°F3.8°C 37.0°F2.8°C 93% 1.7 mph SW2.7 kmh SW 4.7 mph7.6 kmh 30.06 in1017.9 mb 0.00 in0.0 mm 0.00 in0.0 mm 0.21 in5.3 mm
07:45 AM 38.8°F3.8°C 37.0°F2.8°C 93% 3.7 mph W6.0 kmh W 4.7 mph7.6 kmh 30.06 in1017.9 mb 0.00 in0.0 mm 0.00 in0.0 mm 0.21 in5.3 mm
07:46 AM 38.8°F3.8°C 37.0°F2.8°C 93% 3.7 mph SW6.0 kmh SW 4.7 mph7.6 kmh 30.06 in1017.9 mb 0.00 in0.0 mm 0.00 in0.0 mm 0.21 in5.3 mm
07:47 AM 39.0°F3.9°C 37.2°F2.9°C 93% 3.2 mph W5.1 kmh W 6.3 mph10.1 kmh 30.06 in1017.9 mb 0.00 in0.0 mm 0.00 in0.0 mm 0.21 in5.3 mm
07:48 AM 39.0°F3.9°C 37.2°F2.9°C 93% 4.7 mph W7.6 kmh W 6.3 mph10.1 kmh 30.06 in1017.9 mb 0.00 in0.0 mm 0.00 in0.0 mm 0.21 in5.3 mm
07:49 AM 39.0°F3.9°C 36.9°F2.7°C 92% 4.7 mph W7.6 kmh W 6.3 mph10.1 kmh 30.06 in1017.9 mb 0.00 in0.0 mm 0.00 in0.0 mm 0.21 in5.3 mm
07:50 AM 39.0°F3.9°C 36.9°F2.7°C 92% 2.7 mph W4.3 kmh W 6.3 mph10.1 kmh 30.06 in1017.9 mb 0.00 in0.0 mm 0.00 in0.0 mm 0.21 in5.3 mm
07:51 AM 39.0°F3.9°C 36.9°F2.7°C 92% 5.8 mph NW9.3 kmh NW 6.3 mph10.1 kmh 30.06 in1017.9 mb 0.00 in0.0 mm 0.00 in0.0 mm 0.21 in5.3 mm
07:52 AM 39.0°F3.9°C 36.9°F2.7°C 92% 3.7 mph W6.0 kmh W 6.3 mph10.1 kmh 30.06 in1017.9 mb 0.00 in0.0 mm 0.00 in0.0 mm 0.21 in5.3 mm
07:53 AM 39.2°F4.0°C 37.1°F2.8°C 92% 3.2 mph W5.1 kmh W 6.3 mph10.1 kmh 30.06 in1017.9 mb 0.00 in0.0 mm 0.00 in0.0 mm 0.21 in5.3 mm
07:54 AM 39.2°F4.0°C 37.1°F2.8°C 92% 4.7 mph WNW7.6 kmh WNW 6.3 mph10.1 kmh 30.06 in1017.9 mb 0.00 in0.0 mm 0.00 in0.0 mm 0.21 in5.3 mm
07:55 AM 39.2°F4.0°C 37.1°F2.8°C 92% 2.2 mph W3.5 kmh W 6.3 mph10.1 kmh 30.06 in1017.9 mb 0.00 in0.0 mm 0.00 in0.0 mm 0.21 in5.3 mm
07:56 AM 39.2°F4.0°C 37.1°F2.8°C 92% 2.7 mph W4.3 kmh W 6.3 mph10.1 kmh 30.06 in1017.9 mb 0.00 in0.0 mm 0.00 in0.0 mm 0.21 in5.3 mm
07:57 AM 39.2°F4.0°C 37.1°F2.8°C 92% 3.2 mph W5.1 kmh W 5.8 mph9.3 kmh 30.06 in1017.9 mb 0.00 in0.0 mm 0.00 in0.0 mm 0.21 in5.3 mm
07:58 AM 39.2°F4.0°C 37.1°F2.8°C 92% 2.7 mph W4.3 kmh W 5.8 mph9.3 kmh 30.06 in1017.9 mb 0.00 in0.0 mm 0.00 in0.0 mm 0.21 in5.3 mm
07:59 AM 39.2°F4.0°C 37.1°F2.8°C 92% 3.7 mph WNW6.0 kmh WNW 5.8 mph9.3 kmh 30.06 in1017.9 mb 0.00 in0.0 mm 0.00 in0.0 mm 0.21 in5.3 mm
08:00 AM 39.2°F4.0°C 37.1°F2.8°C 92% 2.7 mph W4.3 kmh W 5.8 mph9.3 kmh 30.06 in1017.9 mb 0.00 in0.0 mm 0.00 in0.0 mm 0.21 in5.3 mm
08:01 AM 39.2°F4.0°C 37.1°F2.8°C 92% 2.7 mph W4.3 kmh W 5.8 mph9.3 kmh 30.06 in1017.9 mb 0.00 in0.0 mm 0.00 in0.0 mm 0.21 in5.3 mm
08:02 AM 39.4°F4.1°C 37.0°F2.8°C 91% 3.7 mph W6.0 kmh W 4.7 mph7.6 kmh 30.06 in1017.9 mb 0.00 in0.0 mm 0.00 in0.0 mm 0.21 in5.3 mm
08:03 AM 39.4°F4.1°C 37.0°F2.8°C 91% 3.7 mph W6.0 kmh W 4.7 mph7.6 kmh 30.06 in1017.9 mb 0.00 in0.0 mm 0.00 in0.0 mm 0.21 in5.3 mm
08:04 AM 39.4°F4.1°C 37.0°F2.8°C 91% 5.8 mph W9.3 kmh W 5.8 mph9.3 kmh 30.06 in1017.9 mb 0.00 in0.0 mm 0.00 in0.0 mm 0.21 in5.3 mm
08:05 AM 39.6°F4.2°C 37.2°F2.9°C 91% 4.7 mph W7.6 kmh W 5.8 mph9.3 kmh 30.06 in1017.9 mb 0.00 in0.0 mm 0.00 in0.0 mm 0.21 in5.3 mm
08:06 AM 39.6°F4.2°C 37.2°F2.9°C 91% 4.7 mph NW7.6 kmh NW 5.8 mph9.3 kmh 30.07 in1018.3 mb 0.00 in0.0 mm 0.00 in0.0 mm 0.21 in5.3 mm
08:07 AM 39.6°F4.2°C 37.2°F2.9°C 91% 3.7 mph WNW6.0 kmh WNW 5.8 mph9.3 kmh 30.07 in1018.3 mb 0.00 in0.0 mm 0.00 in0.0 mm 0.21 in5.3 mm
08:08 AM 39.7°F4.3°C 37.3°F2.9°C 91% 4.7 mph WSW7.6 kmh WSW 5.8 mph9.3 kmh 30.07 in1018.3 mb 0.00 in0.0 mm 0.00 in0.0 mm 0.21 in5.3 mm
08:09 AM 39.7°F4.3°C 37.3°F2.9°C 91% 4.2 mph NW6.8 kmh NW 5.8 mph9.3 kmh 30.07 in1018.3 mb 0.00 in0.0 mm 0.00 in0.0 mm 0.21 in5.3 mm
08:10 AM 39.7°F4.3°C 37.3°F2.9°C 91% 3.2 mph NW5.1 kmh NW 5.8 mph9.3 kmh 30.07 in1018.3 mb 0.00 in0.0 mm 0.00 in0.0 mm 0.21 in5.3 mm
08:11 AM 39.7°F4.3°C 37.0°F2.8°C 90% 4.7 mph W7.6 kmh W 5.8 mph9.3 kmh 30.07 in1018.3 mb 0.00 in0.0 mm 0.00 in0.0 mm 0.21 in5.3 mm
08:12 AM 40.1°F4.5°C 37.1°F2.8°C 89% 3.7 mph W6.0 kmh W 7.3 mph11.7 kmh 30.07 in1018.3 mb 0.00 in0.0 mm 0.00 in0.0 mm 0.21 in5.3 mm
08:13 AM 40.1°F4.5°C 37.1°F2.8°C 89% 4.7 mph W7.6 kmh W 7.3 mph11.7 kmh 30.07 in1018.3 mb 0.00 in0.0 mm 0.00 in0.0 mm 0.21 in5.3 mm
08:14 AM 40.1°F4.5°C 37.1°F2.8°C 89% 4.7 mph WSW7.6 kmh WSW 7.3 mph11.7 kmh 30.07 in1018.3 mb 0.00 in0.0 mm 0.00 in0.0 mm 0.21 in5.3 mm
08:15 AM 40.3°F4.6°C 37.3°F2.9°C 89% 3.7 mph W6.0 kmh W 7.3 mph11.7 kmh 30.07 in1018.3 mb 0.00 in0.0 mm 0.00 in0.0 mm 0.21 in5.3 mm
08:16 AM 40.3°F4.6°C 37.3°F2.9°C 89% 4.2 mph W6.8 kmh W 7.3 mph11.7 kmh 30.07 in1018.3 mb 0.00 in0.0 mm 0.00 in0.0 mm 0.21 in5.3 mm
08:17 AM 40.3°F4.6°C 37.3°F2.9°C 89% 5.8 mph W9.3 kmh W 7.3 mph11.7 kmh 30.08 in1018.6 mb 0.00 in0.0 mm 0.00 in0.0 mm 0.21 in5.3 mm
08:18 AM 40.5°F4.7°C 37.5°F3.1°C 89% 3.7 mph SE6.0 kmh SE 7.3 mph11.7 kmh 30.08 in1018.6 mb 0.00 in0.0 mm 0.00 in0.0 mm 0.21 in5.3 mm
08:19 AM 40.5°F4.7°C 37.5°F3.1°C 89% 3.7 mph W6.0 kmh W 7.3 mph11.7 kmh 30.08 in1018.6 mb 0.00 in0.0 mm 0.00 in0.0 mm 0.21 in5.3 mm
08:20 AM 40.5°F4.7°C 37.5°F3.1°C 89% 3.2 mph NNW5.1 kmh NNW 7.3 mph11.7 kmh 30.08 in1018.6 mb 0.00 in0.0 mm 0.00 in0.0 mm 0.21 in5.3 mm
08:21 AM 40.5°F4.7°C 37.5°F3.1°C 89% 4.7 mph WNW7.6 kmh WNW 7.3 mph11.7 kmh 30.08 in1018.6 mb 0.00 in0.0 mm 0.00 in0.0 mm 0.21 in5.3 mm
08:22 AM 40.5°F4.7°C 37.5°F3.1°C 89% 3.2 mph W5.1 kmh W 5.8 mph9.3 kmh 30.08 in1018.6 mb 0.00 in0.0 mm 0.00 in0.0 mm 0.21 in5.3 mm
08:23 AM 40.5°F4.7°C 37.5°F3.1°C 89% 4.2 mph WNW6.8 kmh WNW 5.8 mph9.3 kmh 30.08 in1018.6 mb 0.00 in0.0 mm 0.00 in0.0 mm 0.21 in5.3 mm
08:24 AM 40.6°F4.8°C 37.3°F2.9°C 88% 4.7 mph NW7.6 kmh NW 5.8 mph9.3 kmh 30.08 in1018.6 mb 0.00 in0.0 mm 0.00 in0.0 mm 0.21 in5.3 mm
08:25 AM 40.6°F4.8°C 37.3°F2.9°C 88% 6.8 mph NW10.9 kmh NW 6.8 mph10.9 kmh 30.08 in1018.6 mb 0.00 in0.0 mm 0.00 in0.0 mm 0.21 in5.3 mm
08:26 AM 40.6°F4.8°C 37.3°F2.9°C 88% 3.2 mph NNW5.1 kmh NNW 6.8 mph10.9 kmh 30.08 in1018.6 mb 0.00 in0.0 mm 0.00 in0.0 mm 0.21 in5.3 mm
08:27 AM 40.6°F4.8°C 37.3°F2.9°C 88% 5.8 mph NNE9.3 kmh NNE 7.3 mph11.7 kmh 30.08 in1018.6 mb 0.00 in0.0 mm 0.00 in0.0 mm 0.21 in5.3 mm
08:28 AM 40.8°F4.9°C 37.2°F2.9°C 87% 6.3 mph WNW10.1 kmh WNW 7.3 mph11.7 kmh 30.08 in1018.6 mb 0.00 in0.0 mm 0.00 in0.0 mm 0.21 in5.3 mm
08:29 AM 40.8°F4.9°C 36.9°F2.7°C 86% 5.3 mph WNW8.5 kmh WNW 7.3 mph11.7 kmh 30.09 in1019.0 mb 0.00 in0.0 mm 0.00 in0.0 mm 0.21 in5.3 mm
08:30 AM 40.8°F4.9°C 36.9°F2.7°C 86% 8.3 mph W13.4 kmh W 8.3 mph13.4 kmh 30.09 in1019.0 mb 0.00 in0.0 mm 0.00 in0.0 mm 0.21 in5.3 mm
08:31 AM 40.8°F4.9°C 36.6°F2.6°C 85% 4.7 mph NNE7.6 kmh NNE 8.3 mph13.4 kmh 30.09 in1019.0 mb 0.00 in0.0 mm 0.00 in0.0 mm 0.21 in5.3 mm
08:32 AM 40.8°F4.9°C 36.6°F2.6°C 85% 4.2 mph SW6.8 kmh SW 8.3 mph13.4 kmh 30.09 in1019.0 mb 0.00 in0.0 mm 0.00 in0.0 mm 0.21 in5.3 mm
08:33 AM 40.8°F4.9°C 36.6°F2.6°C 85% 5.8 mph W9.3 kmh W 8.3 mph13.4 kmh 30.09 in1019.0 mb 0.00 in0.0 mm 0.00 in0.0 mm 0.21 in5.3 mm
08:34 AM 40.8°F4.9°C 36.6°F2.6°C 85% 6.3 mph ENE10.1 kmh ENE 8.3 mph13.4 kmh 30.09 in1019.0 mb 0.00 in0.0 mm 0.00 in0.0 mm 0.21 in5.3 mm
08:35 AM 40.8°F4.9°C 36.6°F2.6°C 85% 7.3 mph NE11.7 kmh NE 8.3 mph13.4 kmh 30.09 in1019.0 mb 0.00 in0.0 mm 0.00 in0.0 mm 0.21 in5.3 mm
08:36 AM 40.8°F4.9°C 36.6°F2.6°C 85% 4.2 mph NNW6.8 kmh NNW 8.3 mph13.4 kmh 30.09 in1019.0 mb 0.00 in0.0 mm 0.00 in0.0 mm 0.21 in5.3 mm
08:37 AM 40.8°F4.9°C 36.6°F2.6°C 85% 7.3 mph WNW11.7 kmh WNW 9.9 mph15.9 kmh 30.09 in1019.0 mb 0.00 in0.0 mm 0.00 in0.0 mm 0.21 in5.3 mm
08:38 AM 41.0°F5.0°C 36.5°F2.5°C 84% 8.3 mph WNW13.4 kmh WNW 9.9 mph15.9 kmh 30.09 in1019.0 mb 0.00 in0.0 mm 0.00 in0.0 mm 0.21 in5.3 mm
08:39 AM 41.0°F5.0°C 35.9°F2.2°C 82% 9.9 mph NNW15.9 kmh NNW 9.9 mph15.9 kmh 30.09 in1019.0 mb 0.00 in0.0 mm 0.00 in0.0 mm 0.21 in5.3 mm
08:40 AM 41.0°F5.0°C 35.9°F2.2°C 82% 8.3 mph N13.4 kmh N 9.9 mph15.9 kmh 30.09 in1019.0 mb 0.00 in0.0 mm 0.00 in0.0 mm 0.21 in5.3 mm
08:41 AM 41.0°F5.0°C 35.6°F2.0°C 81% 9.4 mph NNW15.1 kmh NNW 12.5 mph20.1 kmh 30.10 in1019.3 mb 0.00 in0.0 mm 0.00 in0.0 mm 0.21 in5.3 mm
08:42 AM 41.0°F5.0°C 35.3°F1.8°C 80% 10.9 mph E17.5 kmh E 15.0 mph24.1 kmh 30.10 in1019.3 mb 0.00 in0.0 mm 0.00 in0.0 mm 0.21 in5.3 mm
08:43 AM 41.0°F5.0°C 35.0°F1.7°C 79% 9.9 mph E15.9 kmh E 15.0 mph24.1 kmh 30.10 in1019.3 mb 0.00 in0.0 mm 0.00 in0.0 mm 0.21 in5.3 mm
08:44 AM 40.8°F4.9°C 34.5°F1.4°C 78% 13.0 mph NNE20.9 kmh NNE 15.0 mph24.1 kmh 30.10 in1019.3 mb 0.00 in0.0 mm 0.00 in0.0 mm 0.21 in5.3 mm
08:45 AM 40.8°F4.9°C 33.8°F1.0°C 76% 15.0 mph NNW24.1 kmh NNW 15.0 mph24.1 kmh 30.10 in1019.3 mb 0.00 in0.0 mm 0.00 in0.0 mm 0.21 in5.3 mm
08:46 AM 40.8°F4.9°C 33.2°F0.7°C 74% 14.5 mph N23.3 kmh N 15.0 mph24.1 kmh 30.10 in1019.3 mb 0.00 in0.0 mm 0.00 in0.0 mm 0.21 in5.3 mm
08:51 AM 40.8°F4.9°C 33.2°F0.7°C 74% 10.9 mph NNW17.5 kmh NNW 15.0 mph24.1 kmh 30.10 in1019.3 mb 0.01 in0.3 mm 0.12 in3.0 mm 0.22 in5.6 mm
08:52 AM 40.6°F4.8°C 30.9°F-0.6°C 68% 8.9 mph NNW14.3 kmh NNW 15.0 mph24.1 kmh 30.10 in1019.3 mb 0.01 in0.3 mm 0.00 in0.0 mm 0.22 in5.6 mm
08:53 AM 40.6°F4.8°C 30.5°F-0.8°C 67% 11.4 mph ENE18.3 kmh ENE 15.0 mph24.1 kmh 30.11 in1019.6 mb 0.01 in0.3 mm 0.00 in0.0 mm 0.22 in5.6 mm
08:54 AM 40.6°F4.8°C 30.5°F-0.8°C 67% 8.9 mph N14.3 kmh N 15.0 mph24.1 kmh 30.11 in1019.6 mb 0.01 in0.3 mm 0.00 in0.0 mm 0.22 in5.6 mm
08:55 AM 40.5°F4.7°C 30.0°F-1.1°C 66% 10.9 mph W17.5 kmh W 14.5 mph23.3 kmh 30.11 in1019.6 mb 0.01 in0.3 mm 0.00 in0.0 mm 0.22 in5.6 mm
08:56 AM 40.5°F4.7°C 30.0°F-1.1°C 66% 9.4 mph NNE15.1 kmh NNE 14.5 mph23.3 kmh 30.11 in1019.6 mb 0.01 in0.3 mm 0.00 in0.0 mm 0.22 in5.6 mm
08:57 AM 40.5°F4.7°C 30.0°F-1.1°C 66% 11.9 mph NNW19.2 kmh NNW 14.0 mph22.5 kmh 30.11 in1019.6 mb 0.01 in0.3 mm 0.00 in0.0 mm 0.22 in5.6 mm
08:58 AM 40.5°F4.7°C 29.7°F-1.3°C 65% 10.9 mph N17.5 kmh N 16.6 mph26.7 kmh 30.11 in1019.6 mb 0.01 in0.3 mm 0.00 in0.0 mm 0.22 in5.6 mm
08:59 AM 40.5°F4.7°C 29.7°F-1.3°C 65% 11.9 mph WNW19.2 kmh WNW 16.6 mph26.7 kmh 30.11 in1019.6 mb 0.01 in0.3 mm 0.00 in0.0 mm 0.22 in5.6 mm
09:00 AM 40.5°F4.7°C 29.7°F-1.3°C 65% 7.8 mph SSW12.6 kmh SSW 16.6 mph26.7 kmh 30.11 in1019.6 mb 0.01 in0.3 mm 0.00 in0.0 mm 0.22 in5.6 mm
09:01 AM 40.5°F4.7°C 29.7°F-1.3°C 65% 10.9 mph NNE17.5 kmh NNE 16.6 mph26.7 kmh 30.11 in1019.6 mb 0.01 in0.3 mm 0.00 in0.0 mm 0.22 in5.6 mm
09:02 AM 40.5°F4.7°C 29.3°F-1.5°C 64% 10.4 mph WSW16.7 kmh WSW 16.6 mph26.7 kmh 30.11 in1019.6 mb 0.01 in0.3 mm 0.00 in0.0 mm 0.22 in5.6 mm
09:03 AM 40.6°F4.8°C 29.4°F-1.4°C 64% 8.9 mph W14.3 kmh W 16.6 mph26.7 kmh 30.11 in1019.6 mb 0.01 in0.3 mm 0.00 in0.0 mm 0.22 in5.6 mm
09:04 AM 40.6°F4.8°C 29.0°F-1.7°C 63% 6.8 mph N10.9 kmh N 16.6 mph26.7 kmh 30.11 in1019.6 mb 0.01 in0.3 mm 0.00 in0.0 mm 0.22 in5.6 mm
09:05 AM 40.8°F4.9°C 29.6°F-1.3°C 64% 10.9 mph NNW17.5 kmh NNW 16.6 mph26.7 kmh 30.11 in1019.6 mb 0.01 in0.3 mm 0.00 in0.0 mm 0.22 in5.6 mm
09:06 AM 40.8°F4.9°C 29.6°F-1.3°C 64% 11.4 mph W18.3 kmh W 16.6 mph26.7 kmh 30.12 in1020.0 mb 0.01 in0.3 mm 0.00 in0.0 mm 0.22 in5.6 mm
09:07 AM 40.8°F4.9°C 28.8°F-1.8°C 62% 9.9 mph NNW15.9 kmh NNW 16.6 mph26.7 kmh 30.12 in1020.0 mb 0.01 in0.3 mm 0.00 in0.0 mm 0.22 in5.6 mm
09:08 AM 40.8°F4.9°C 28.4°F-2.0°C 61% 22.2 mph W35.7 kmh W 22.2 mph35.7 kmh 30.12 in1020.0 mb 0.01 in0.3 mm 0.00 in0.0 mm 0.22 in5.6 mm
09:09 AM 41.0°F5.0°C 28.2°F-2.1°C 60% 13.0 mph WNW20.9 kmh WNW 22.2 mph35.7 kmh 30.12 in1020.0 mb 0.01 in0.3 mm 0.00 in0.0 mm 0.22 in5.6 mm
09:10 AM 41.0°F5.0°C 28.2°F-2.1°C 60% 10.4 mph SW16.7 kmh SW 22.2 mph35.7 kmh 30.12 in1020.0 mb 0.01 in0.3 mm 0.00 in0.0 mm 0.22 in5.6 mm
09:11 AM 41.0°F5.0°C 28.6°F-1.9°C 61% 6.8 mph NNE10.9 kmh NNE 22.2 mph35.7 kmh 30.12 in1020.0 mb 0.01 in0.3 mm 0.00 in0.0 mm 0.22 in5.6 mm
09:12 AM 41.0°F5.0°C 28.6°F-1.9°C 61% 11.4 mph NNW18.3 kmh NNW 22.2 mph35.7 kmh 30.12 in1020.0 mb 0.01 in0.3 mm 0.00 in0.0 mm 0.22 in5.6 mm
09:13 AM 41.0°F5.0°C 28.2°F-2.1°C 60% 13.0 mph N20.9 kmh N 22.2 mph35.7 kmh 30.12 in1020.0 mb 0.01 in0.3 mm 0.00 in0.0 mm 0.22 in5.6 mm
09:14 AM 41.2°F5.1°C 28.0°F-2.2°C 59% 7.8 mph W12.6 kmh W 22.2 mph35.7 kmh 30.12 in1020.0 mb 0.01 in0.3 mm 0.00 in0.0 mm 0.22 in5.6 mm
09:15 AM 41.2°F5.1°C 28.4°F-2.0°C 60% 12.5 mph WNW20.1 kmh WNW 22.2 mph35.7 kmh 30.12 in1020.0 mb 0.01 in0.3 mm 0.00 in0.0 mm 0.22 in5.6 mm
09:16 AM 41.2°F5.1°C 28.0°F-2.2°C 59% 9.4 mph W15.1 kmh W 22.2 mph35.7 kmh 30.12 in1020.0 mb 0.01 in0.3 mm 0.00 in0.0 mm 0.22 in5.6 mm
09:17 AM 41.2°F5.1°C 28.4°F-2.0°C 60% 14.0 mph WSW22.5 kmh WSW 22.2 mph35.7 kmh 30.12 in1020.0 mb 0.01 in0.3 mm 0.00 in0.0 mm 0.22 in5.6 mm
09:18 AM 41.2°F5.1°C 28.4°F-2.0°C 60% 6.8 mph NNW10.9 kmh NNW 17.6 mph28.3 kmh 30.12 in1020.0 mb 0.01 in0.3 mm 0.00 in0.0 mm 0.22 in5.6 mm
09:19 AM 41.2°F5.1°C 28.4°F-2.0°C 60% 9.4 mph NNW15.1 kmh NNW 15.5 mph24.9 kmh 30.12 in1020.0 mb 0.01 in0.3 mm 0.00 in0.0 mm 0.22 in5.6 mm
09:20 AM 41.0°F5.0°C 28.2°F-2.1°C 60% 8.3 mph NNW13.4 kmh NNW 15.5 mph24.9 kmh 30.12 in1020.0 mb 0.01 in0.3 mm 0.00 in0.0 mm 0.22 in5.6 mm
09:21 AM 41.0°F5.0°C 28.6°F-1.9°C 61% 7.3 mph W11.7 kmh W 15.5 mph24.9 kmh 30.12 in1020.0 mb 0.01 in0.3 mm 0.00 in0.0 mm 0.22 in5.6 mm
09:22 AM 41.0°F5.0°C 28.6°F-1.9°C 61% 13.5 mph N21.7 kmh N 15.5 mph24.9 kmh 30.12 in1020.0 mb 0.01 in0.3 mm 0.00 in0.0 mm 0.22 in5.6 mm
09:23 AM 41.0°F5.0°C 28.2°F-2.1°C 60% 10.4 mph W16.7 kmh W 15.5 mph24.9 kmh 30.12 in1020.0 mb 0.01 in0.3 mm 0.00 in0.0 mm 0.22 in5.6 mm
09:24 AM 40.8°F4.9°C 28.0°F-2.2°C 60% 11.9 mph NW19.2 kmh NW 15.5 mph24.9 kmh 30.12 in1020.0 mb 0.01 in0.3 mm 0.00 in0.0 mm 0.22 in5.6 mm
09:25 AM 40.8°F4.9°C 28.4°F-2.0°C 61% 11.4 mph NNE18.3 kmh NNE 15.5 mph24.9 kmh 30.12 in1020.0 mb 0.01 in0.3 mm 0.00 in0.0 mm 0.22 in5.6 mm
09:26 AM 40.8°F4.9°C 28.4°F-2.0°C 61% 11.9 mph WNW19.2 kmh WNW 15.5 mph24.9 kmh 30.12 in1020.0 mb 0.01 in0.3 mm 0.00 in0.0 mm 0.22 in5.6 mm
09:27 AM 40.8°F4.9°C 28.4°F-2.0°C 61% 12.5 mph NNW20.1 kmh NNW 16.1 mph25.9 kmh 30.12 in1020.0 mb 0.01 in0.3 mm 0.00 in0.0 mm 0.22 in5.6 mm
09:28 AM 40.8°F4.9°C 28.4°F-2.0°C 61% 8.3 mph NNE13.4 kmh NNE 16.1 mph25.9 kmh 30.12 in1020.0 mb 0.01 in0.3 mm 0.00 in0.0 mm 0.22 in5.6 mm
09:29 AM 40.8°F4.9°C 28.4°F-2.0°C 61% 13.0 mph NNW20.9 kmh NNW 16.1 mph25.9 kmh 30.12 in1020.0 mb 0.01 in0.3 mm 0.00 in0.0 mm 0.22 in5.6 mm
09:30 AM 41.0°F5.0°C 29.0°F-1.7°C 62% 15.0 mph NNE24.1 kmh NNE 17.1 mph27.5 kmh 30.13 in1020.3 mb 0.01 in0.3 mm 0.00 in0.0 mm 0.22 in5.6 mm
09:31 AM 41.2°F5.1°C 28.8°F-1.8°C 61% 13.5 mph NNW21.7 kmh NNW 17.1 mph27.5 kmh 30.13 in1020.3 mb 0.01 in0.3 mm 0.00 in0.0 mm 0.22 in5.6 mm
09:32 AM 41.2°F5.1°C 28.8°F-1.8°C 61% 11.4 mph W18.3 kmh W 17.1 mph27.5 kmh 30.13 in1020.3 mb 0.01 in0.3 mm 0.00 in0.0 mm 0.22 in5.6 mm
09:33 AM 41.2°F5.1°C 28.8°F-1.8°C 61% 14.5 mph NNW23.3 kmh NNW 17.1 mph27.5 kmh 30.13 in1020.3 mb 0.01 in0.3 mm 0.00 in0.0 mm 0.22 in5.6 mm
09:34 AM 41.2°F5.1°C 28.4°F-2.0°C 60% 14.0 mph NE22.5 kmh NE 17.1 mph27.5 kmh 30.13 in1020.3 mb 0.01 in0.3 mm 0.00 in0.0 mm 0.22 in5.6 mm
09:35 AM 41.2°F5.1°C 28.4°F-2.0°C 60% 11.4 mph NNE18.3 kmh NNE 17.1 mph27.5 kmh 30.13 in1020.3 mb 0.01 in0.3 mm 0.00 in0.0 mm 0.22 in5.6 mm
09:36 AM 41.2°F5.1°C 28.8°F-1.8°C 61% 11.4 mph NNE18.3 kmh NNE 17.1 mph27.5 kmh 30.13 in1020.3 mb 0.01 in0.3 mm 0.00 in0.0 mm 0.22 in5.6 mm
09:37 AM 41.0°F5.0°C 28.6°F-1.9°C 61% 14.0 mph NNE22.5 kmh NNE 17.1 mph27.5 kmh 30.13 in1020.3 mb 0.01 in0.3 mm 0.00 in0.0 mm 0.22 in5.6 mm
09:38 AM 40.8°F4.9°C 28.0°F-2.2°C 60% 7.8 mph NNE12.6 kmh NNE 17.1 mph27.5 kmh 30.13 in1020.3 mb 0.01 in0.3 mm 0.00 in0.0 mm 0.22 in5.6 mm
09:39 AM 40.8°F4.9°C 28.4°F-2.0°C 61% 6.8 mph W10.9 kmh W 17.1 mph27.5 kmh 30.13 in1020.3 mb 0.01 in0.3 mm 0.00 in0.0 mm 0.22 in5.6 mm
09:40 AM 41.0°F5.0°C 28.2°F-2.1°C 60% 5.8 mph N9.3 kmh N 14.5 mph23.3 kmh 30.13 in1020.3 mb 0.01 in0.3 mm 0.00 in0.0 mm 0.22 in5.6 mm
09:41 AM 41.2°F5.1°C 28.8°F-1.8°C 61% 7.8 mph NNE12.6 kmh NNE 14.5 mph23.3 kmh 30.14 in1020.7 mb 0.01 in0.3 mm 0.00 in0.0 mm 0.22 in5.6 mm
09:42 AM 41.2°F5.1°C 28.8°F-1.8°C 61% 2.7 mph W4.3 kmh W 14.5 mph23.3 kmh 30.14 in1020.7 mb 0.01 in0.3 mm 0.00 in0.0 mm 0.22 in5.6 mm
09:43 AM 41.7°F5.4°C 29.3°F-1.5°C 61% 14.5 mph W23.3 kmh W 14.5 mph23.3 kmh 30.14 in1020.7 mb 0.01 in0.3 mm 0.00 in0.0 mm 0.22 in5.6 mm
09:44 AM 41.5°F5.3°C 27.4°F-2.6°C 57% 8.9 mph W14.3 kmh W 14.5 mph23.3 kmh 30.14 in1020.7 mb 0.01 in0.3 mm 0.00 in0.0 mm 0.22 in5.6 mm
09:45 AM 41.5°F5.3°C 27.4°F-2.6°C 57% 13.0 mph W20.9 kmh W 14.5 mph23.3 kmh 30.14 in1020.7 mb 0.01 in0.3 mm 0.00 in0.0 mm 0.22 in5.6 mm
09:46 AM 41.2°F5.1°C 26.3°F-3.2°C 55% 6.8 mph W10.9 kmh W 14.5 mph23.3 kmh 30.14 in1020.7 mb 0.01 in0.3 mm 0.00 in0.0 mm 0.22 in5.6 mm
09:47 AM 40.8°F4.9°C 26.3°F-3.2°C 56% 8.9 mph NW14.3 kmh NW 14.5 mph23.3 kmh 30.14 in1020.7 mb 0.01 in0.3 mm 0.00 in0.0 mm 0.22 in5.6 mm
09:48 AM 40.8°F4.9°C 26.3°F-3.2°C 56% 4.2 mph NW6.8 kmh NW 14.5 mph23.3 kmh 30.14 in1020.7 mb 0.01 in0.3 mm 0.00 in0.0 mm 0.22 in5.6 mm
09:49 AM 40.8°F4.9°C 25.9°F-3.4°C 55% 11.9 mph WNW19.2 kmh WNW 14.5 mph23.3 kmh 30.14 in1020.7 mb 0.01 in0.3 mm 0.00 in0.0 mm 0.22 in5.6 mm
09:50 AM 40.8°F4.9°C 26.3°F-3.2°C 56% 9.4 mph WSW15.1 kmh WSW 14.5 mph23.3 kmh 30.14 in1020.7 mb 0.01 in0.3 mm 0.00 in0.0 mm 0.22 in5.6 mm
09:51 AM 40.8°F4.9°C 26.3°F-3.2°C 56% 9.9 mph N15.9 kmh N 14.5 mph23.3 kmh 30.14 in1020.7 mb 0.01 in0.3 mm 0.00 in0.0 mm 0.22 in5.6 mm
09:52 AM 40.5°F4.7°C 26.1°F-3.3°C 56% 14.5 mph W23.3 kmh W 14.5 mph23.3 kmh 30.14 in1020.7 mb 0.00 in0.0 mm 0.00 in0.0 mm 0.22 in5.6 mm
09:53 AM 40.1°F4.5°C 24.8°F-4.0°C 54% 17.1 mph NNW27.5 kmh NNW 20.7 mph33.3 kmh 30.14 in1020.7 mb 0.00 in0.0 mm 0.00 in0.0 mm 0.22 in5.6 mm
09:54 AM 40.1°F4.5°C 24.8°F-4.0°C 54% 10.4 mph W16.7 kmh W 20.7 mph33.3 kmh 30.15 in1021.0 mb 0.00 in0.0 mm 0.00 in0.0 mm 0.22 in5.6 mm
09:55 AM 39.7°F4.3°C 24.9°F-3.9°C 55% 8.9 mph WSW14.3 kmh WSW 20.7 mph33.3 kmh 30.15 in1021.0 mb 0.00 in0.0 mm 0.00 in0.0 mm 0.22 in5.6 mm
09:56 AM 39.6°F4.2°C 24.8°F-4.0°C 55% 9.9 mph NNW15.9 kmh NNW 20.7 mph33.3 kmh 30.15 in1021.0 mb 0.00 in0.0 mm 0.00 in0.0 mm 0.22 in5.6 mm
09:57 AM 39.6°F4.2°C 24.8°F-4.0°C 55% 10.9 mph NW17.5 kmh NW 20.7 mph33.3 kmh 30.15 in1021.0 mb 0.00 in0.0 mm 0.00 in0.0 mm 0.22 in5.6 mm
09:58 AM 39.4°F4.1°C 24.6°F-4.1°C 55% 8.3 mph NNE13.4 kmh NNE 20.7 mph33.3 kmh 30.15 in1021.0 mb 0.00 in0.0 mm 0.00 in0.0 mm 0.22 in5.6 mm
09:59 AM 39.4°F4.1°C 25.0°F-3.9°C 56% 9.4 mph SW15.1 kmh SW 20.7 mph33.3 kmh 30.15 in1021.0 mb 0.00 in0.0 mm 0.00 in0.0 mm 0.22 in5.6 mm
10:00 AM 39.4°F4.1°C 25.0°F-3.9°C 56% 7.3 mph N11.7 kmh N 20.7 mph33.3 kmh 30.15 in1021.0 mb 0.00 in0.0 mm 0.00 in0.0 mm 0.22 in5.6 mm
10:01 AM 39.4°F4.1°C 25.0°F-3.9°C 56% 9.4 mph E15.1 kmh E 20.7 mph33.3 kmh 30.15 in1021.0 mb 0.00 in0.0 mm 0.00 in0.0 mm 0.22 in5.6 mm
10:02 AM 39.2°F4.0°C 24.4°F-4.2°C 55% 16.6 mph N26.7 kmh N 20.7 mph33.3 kmh 30.15 in1021.0 mb 0.00 in0.0 mm 0.00 in0.0 mm 0.22 in5.6 mm
10:03 AM 39.2°F4.0°C 24.4°F-4.2°C 55% 8.9 mph W14.3 kmh W 17.1 mph27.5 kmh 30.15 in1021.0 mb 0.00 in0.0 mm 0.00 in0.0 mm 0.22 in5.6 mm
10:04 AM 39.2°F4.0°C 24.4°F-4.2°C 55% 8.3 mph NNE13.4 kmh NNE 16.6 mph26.7 kmh 30.15 in1021.0 mb 0.00 in0.0 mm 0.00 in0.0 mm 0.22 in5.6 mm
10:05 AM 39.0°F3.9°C 23.8°F-4.6°C 54% 9.4 mph NNW15.1 kmh NNW 16.6 mph26.7 kmh 30.15 in1021.0 mb 0.00 in0.0 mm 0.00 in0.0 mm 0.22 in5.6 mm
10:06 AM 38.8°F3.8°C 23.6°F-4.7°C 54% 7.3 mph NW11.7 kmh NW 16.6 mph26.7 kmh 30.15 in1021.0 mb 0.00 in0.0 mm 0.00 in0.0 mm 0.22 in5.6 mm
10:07 AM 38.7°F3.7°C 23.5°F-4.7°C 54% 13.5 mph NW21.7 kmh NW 16.6 mph26.7 kmh 30.15 in1021.0 mb 0.00 in0.0 mm 0.00 in0.0 mm 0.22 in5.6 mm
10:08 AM 38.7°F3.7°C 23.5°F-4.7°C 54% 7.8 mph NE12.6 kmh NE 16.6 mph26.7 kmh 30.15 in1021.0 mb 0.00 in0.0 mm 0.00 in0.0 mm 0.22 in5.6 mm
10:09 AM 38.7°F3.7°C 23.5°F-4.7°C 54% 7.8 mph NNE12.6 kmh NNE 16.6 mph26.7 kmh 30.15 in1021.0 mb 0.00 in0.0 mm 0.00 in0.0 mm 0.22 in5.6 mm
10:10 AM 38.8°F3.8°C 23.6°F-4.7°C 54% 11.9 mph NNE19.2 kmh NNE 16.6 mph26.7 kmh 30.15 in1021.0 mb 0.00 in0.0 mm 0.00 in0.0 mm 0.22 in5.6 mm
10:11 AM 39.2°F4.0°C 24.4°F-4.2°C 55% 8.9 mph N14.3 kmh N 16.6 mph26.7 kmh 30.15 in1021.0 mb 0.00 in0.0 mm 0.00 in0.0 mm 0.22 in5.6 mm
10:12 AM 39.2°F4.0°C 24.4°F-4.2°C 55% 9.9 mph N15.9 kmh N 16.6 mph26.7 kmh 30.15 in1021.0 mb 0.00 in0.0 mm 0.00 in0.0 mm 0.22 in5.6 mm
10:13 AM 39.7°F4.3°C 25.3°F-3.7°C 56% 8.3 mph WNW13.4 kmh WNW 16.6 mph26.7 kmh 30.15 in1021.0 mb 0.00 in0.0 mm 0.00 in0.0 mm 0.22 in5.6 mm
10:14 AM 39.9°F4.4°C 25.5°F-3.6°C 56% 9.4 mph NNE15.1 kmh NNE 15.0 mph24.1 kmh 30.15 in1021.0 mb 0.00 in0.0 mm 0.00 in0.0 mm 0.22 in5.6 mm
10:15 AM 40.1°F4.5°C 24.8°F-4.0°C 54% 11.4 mph NNW18.3 kmh NNW 16.6 mph26.7 kmh 30.15 in1021.0 mb 0.00 in0.0 mm 0.00 in0.0 mm 0.22 in5.6 mm
10:16 AM 40.1°F4.5°C 24.4°F-4.2°C 53% 9.4 mph NE15.1 kmh NE 16.6 mph26.7 kmh 30.15 in1021.0 mb 0.00 in0.0 mm 0.00 in0.0 mm 0.22 in5.6 mm
10:17 AM 40.3°F4.6°C 25.0°F-3.9°C 54% 10.4 mph NNE16.7 kmh NNE 16.6 mph26.7 kmh 30.15 in1021.0 mb 0.00 in0.0 mm 0.00 in0.0 mm 0.22 in5.6 mm
10:18 AM 40.3°F4.6°C 24.1°F-4.4°C 52% 13.0 mph NE20.9 kmh NE 17.6 mph28.3 kmh 30.16 in1021.3 mb 0.00 in0.0 mm 0.00 in0.0 mm 0.22 in5.6 mm
10:19 AM 40.1°F4.5°C 23.9°F-4.5°C 52% 10.4 mph NNE16.7 kmh NNE 17.6 mph28.3 kmh 30.16 in1021.3 mb 0.00 in0.0 mm 0.00 in0.0 mm 0.22 in5.6 mm
10:20 AM 40.1°F4.5°C 24.4°F-4.2°C 53% 5.3 mph WNW8.5 kmh WNW 17.6 mph28.3 kmh 30.16 in1021.3 mb 0.00 in0.0 mm 0.00 in0.0 mm 0.22 in5.6 mm
10:21 AM 40.1°F4.5°C 24.4°F-4.2°C 53% 12.5 mph NNE20.1 kmh NNE 17.6 mph28.3 kmh 30.16 in1021.3 mb 0.00 in0.0 mm 0.00 in0.0 mm 0.22 in5.6 mm
10:22 AM 39.9°F4.4°C 23.7°F-4.6°C 52% 15.0 mph SW24.1 kmh SW 17.6 mph28.3 kmh 30.16 in1021.3 mb 0.00 in0.0 mm 0.00 in0.0 mm 0.22 in5.6 mm
10:23 AM 39.7°F4.3°C 23.1°F-4.9°C 51% 14.0 mph NNE22.5 kmh NNE 18.6 mph29.9 kmh 30.16 in1021.3 mb 0.00 in0.0 mm 0.00 in0.0 mm 0.22 in5.6 mm
10:24 AM 39.6°F4.2°C 23.0°F-5.0°C 51% 10.9 mph NNW17.5 kmh NNW 18.6 mph29.9 kmh 30.16 in1021.3 mb 0.00 in0.0 mm 0.00 in0.0 mm 0.22 in5.6 mm
10:25 AM 39.6°F4.2°C 23.0°F-5.0°C 51% 12.5 mph NW20.1 kmh NW 18.6 mph29.9 kmh 30.16 in1021.3 mb 0.00 in0.0 mm 0.00 in0.0 mm 0.22 in5.6 mm
10:26 AM 39.6°F4.2°C 23.0°F-5.0°C 51% 15.0 mph NNW24.1 kmh NNW 18.6 mph29.9 kmh 30.16 in1021.3 mb 0.00 in0.0 mm 0.00 in0.0 mm 0.22 in5.6 mm
10:27 AM 39.6°F4.2°C 23.0°F-5.0°C 51% 10.4 mph NNE16.7 kmh NNE 18.6 mph29.9 kmh 30.16 in1021.3 mb 0.00 in0.0 mm 0.00 in0.0 mm 0.22 in5.6 mm
10:28 AM 39.9°F4.4°C 23.3°F-4.8°C 51% 9.9 mph NNW15.9 kmh NNW 18.6 mph29.9 kmh 30.16 in1021.3 mb 0.00 in0.0 mm 0.00 in0.0 mm 0.22 in5.6 mm
10:29 AM 40.1°F4.5°C 23.4°F-4.8°C 51% 6.3 mph NNW10.1 kmh NNW 18.6 mph29.9 kmh 30.16 in1021.3 mb 0.00 in0.0 mm 0.00 in0.0 mm 0.22 in5.6 mm
10:30 AM 40.3°F4.6°C 23.6°F-4.7°C 51% 9.9 mph NE15.9 kmh NE 18.6 mph29.9 kmh 30.16 in1021.3 mb 0.00 in0.0 mm 0.00 in0.0 mm 0.22 in5.6 mm
10:31 AM 40.5°F4.7°C 24.3°F-4.3°C 52% 7.8 mph NE12.6 kmh NE 18.6 mph29.9 kmh 30.16 in1021.3 mb 0.00 in0.0 mm 0.00 in0.0 mm 0.22 in5.6 mm
10:32 AM 40.6°F4.8°C 24.4°F-4.2°C 52% 10.4 mph N16.7 kmh N 18.6 mph29.9 kmh 30.16 in1021.3 mb 0.00 in0.0 mm 0.00 in0.0 mm 0.22 in5.6 mm
10:33 AM 40.6°F4.8°C 24.4°F-4.2°C 52% 7.3 mph N11.7 kmh N 16.1 mph25.9 kmh 30.16 in1021.3 mb 0.00 in0.0 mm 0.00 in0.0 mm 0.22 in5.6 mm
10:34 AM 40.5°F4.7°C 23.8°F-4.6°C 51% 13.0 mph NNW20.9 kmh NNW 16.1 mph25.9 kmh 30.16 in1021.3 mb 0.00 in0.0 mm 0.00 in0.0 mm 0.22 in5.6 mm
10:35 AM 40.1°F4.5°C 23.0°F-5.0°C 50% 13.5 mph NNW21.7 kmh NNW 16.1 mph25.9 kmh 30.16 in1021.3 mb 0.00 in0.0 mm 0.00 in0.0 mm 0.22 in5.6 mm
10:36 AM 39.9°F4.4°C 22.8°F-5.1°C 50% 9.4 mph WNW15.1 kmh WNW 16.1 mph25.9 kmh 30.16 in1021.3 mb 0.00 in0.0 mm 0.00 in0.0 mm 0.22 in5.6 mm
10:37 AM 39.6°F4.2°C 22.5°F-5.3°C 50% 13.0 mph WNW20.9 kmh WNW 16.1 mph25.9 kmh 30.16 in1021.3 mb 0.00 in0.0 mm 0.00 in0.0 mm 0.22 in5.6 mm
10:38 AM 39.4°F4.1°C 22.3°F-5.4°C 50% 9.9 mph SW15.9 kmh SW 16.1 mph25.9 kmh 30.16 in1021.3 mb 0.00 in0.0 mm 0.00 in0.0 mm 0.22 in5.6 mm
10:39 AM 39.4°F4.1°C 22.3°F-5.4°C 50% 10.9 mph NNE17.5 kmh NNE 13.5 mph21.7 kmh 30.16 in1021.3 mb 0.00 in0.0 mm 0.00 in0.0 mm 0.22 in5.6 mm
10:40 AM 39.7°F4.3°C 23.1°F-4.9°C 51% 6.8 mph NNE10.9 kmh NNE 13.5 mph21.7 kmh 30.16 in1021.3 mb 0.00 in0.0 mm 0.00 in0.0 mm 0.22 in5.6 mm
10:41 AM 39.9°F4.4°C 22.8°F-5.1°C 50% 13.0 mph NNE20.9 kmh NNE 13.5 mph21.7 kmh 30.17 in1021.7 mb 0.00 in0.0 mm 0.00 in0.0 mm 0.22 in5.6 mm
10:42 AM 40.1°F4.5°C 23.0°F-5.0°C 50% 13.0 mph NW20.9 kmh NW 15.5 mph24.9 kmh 30.17 in1021.7 mb 0.00 in0.0 mm 0.00 in0.0 mm 0.22 in5.6 mm
10:43 AM 40.5°F4.7°C 23.3°F-4.8°C 50% 6.8 mph NNE10.9 kmh NNE 15.5 mph24.9 kmh 30.17 in1021.7 mb 0.00 in0.0 mm 0.00 in0.0 mm 0.22 in5.6 mm
10:44 AM 40.6°F4.8°C 23.0°F-5.0°C 49% 9.9 mph WSW15.9 kmh WSW 15.5 mph24.9 kmh 30.17 in1021.7 mb 0.00 in0.0 mm 0.00 in0.0 mm 0.22 in5.6 mm
10:45 AM 40.6°F4.8°C 23.0°F-5.0°C 49% 4.2 mph NNE6.8 kmh NNE 15.5 mph24.9 kmh 30.17 in1021.7 mb 0.00 in0.0 mm 0.00 in0.0 mm 0.22 in5.6 mm
10:46 AM 40.8°F4.9°C 23.1°F-4.9°C 49% 15.5 mph W24.9 kmh W 15.5 mph24.9 kmh 30.17 in1021.7 mb 0.00 in0.0 mm 0.00 in0.0 mm 0.22 in5.6 mm
10:47 AM 41.2°F5.1°C 24.0°F-4.4°C 50% 10.9 mph W17.5 kmh W 15.5 mph24.9 kmh 30.17 in1021.7 mb 0.00 in0.0 mm 0.00 in0.0 mm 0.22 in5.6 mm
10:48 AM 41.2°F5.1°C 23.5°F-4.7°C 49% 8.3 mph NW13.4 kmh NW 15.5 mph24.9 kmh 30.17 in1021.7 mb 0.00 in0.0 mm 0.00 in0.0 mm 0.22 in5.6 mm
10:49 AM 41.2°F5.1°C 23.5°F-4.7°C 49% 6.8 mph WNW10.9 kmh WNW 15.5 mph24.9 kmh 30.17 in1021.7 mb 0.00 in0.0 mm 0.00 in0.0 mm 0.22 in5.6 mm
10:50 AM 41.2°F5.1°C 23.0°F-5.0°C 48% 5.3 mph NNE8.5 kmh NNE 15.5 mph24.9 kmh 30.17 in1021.7 mb 0.00 in0.0 mm 0.00 in0.0 mm 0.22 in5.6 mm
10:51 AM 41.5°F5.3°C 23.8°F-4.6°C 49% 13.0 mph N20.9 kmh N 15.5 mph24.9 kmh 30.17 in1021.7 mb 0.00 in0.0 mm 0.00 in0.0 mm 0.22 in5.6 mm
10:52 AM 41.5°F5.3°C 23.3°F-4.8°C 48% 9.4 mph NNE15.1 kmh NNE 16.1 mph25.9 kmh 30.17 in1021.7 mb 0.00 in0.0 mm 0.00 in0.0 mm 0.22 in5.6 mm
10:53 AM 41.5°F5.3°C 22.8°F-5.1°C 47% 7.8 mph NE12.6 kmh NE 16.1 mph25.9 kmh 30.17 in1021.7 mb 0.00 in0.0 mm 0.00 in0.0 mm 0.22 in5.6 mm
10:54 AM 41.7°F5.4°C 23.5°F-4.7°C 48% 10.9 mph NW17.5 kmh NW 16.1 mph25.9 kmh 30.17 in1021.7 mb 0.00 in0.0 mm 0.00 in0.0 mm 0.22 in5.6 mm
10:55 AM 41.7°F5.4°C 23.0°F-5.0°C 47% 11.4 mph ENE18.3 kmh ENE 16.1 mph25.9 kmh 30.17 in1021.7 mb 0.00 in0.0 mm 0.00 in0.0 mm 0.22 in5.6 mm
10:56 AM 41.5°F5.3°C 22.8°F-5.1°C 47% 11.9 mph N19.2 kmh N 16.1 mph25.9 kmh 30.17 in1021.7 mb 0.00 in0.0 mm 0.00 in0.0 mm 0.22 in5.6 mm
10:57 AM 41.0°F5.0°C 22.3°F-5.4°C 47% 6.8 mph WSW10.9 kmh WSW 16.1 mph25.9 kmh 30.17 in1021.7 mb 0.00 in0.0 mm 0.00 in0.0 mm 0.22 in5.6 mm
10:58 AM 40.8°F4.9°C 22.2°F-5.4°C 47% 9.4 mph N15.1 kmh N 16.1 mph25.9 kmh 30.17 in1021.7 mb 0.00 in0.0 mm 0.00 in0.0 mm 0.22 in5.6 mm
10:59 AM 40.8°F4.9°C 22.2°F-5.4°C 47% 11.4 mph NE18.3 kmh NE 16.1 mph25.9 kmh 30.17 in1021.7 mb 0.00 in0.0 mm 0.00 in0.0 mm 0.22 in5.6 mm
11:04 AM 40.8°F4.9°C 22.2°F-5.4°C 47% 14.0 mph NNW22.5 kmh NNW 14.0 mph22.5 kmh 30.17 in1021.7 mb 0.00 in0.0 mm 0.00 in0.0 mm 0.22 in5.6 mm
11:05 AM 40.8°F4.9°C 22.2°F-5.4°C 47% 14.0 mph NNW22.5 kmh NNW 14.0 mph22.5 kmh 30.17 in1021.7 mb 0.00 in0.0 mm 0.00 in0.0 mm 0.22 in5.6 mm
11:06 AM 40.8°F4.9°C 22.2°F-5.4°C 47% 8.9 mph W14.3 kmh W 14.0 mph22.5 kmh 30.18 in1022.0 mb 0.00 in0.0 mm 0.00 in0.0 mm 0.22 in5.6 mm
11:07 AM 39.2°F4.0°C 20.7°F-6.3°C 47% 5.3 mph E8.5 kmh E 14.0 mph22.5 kmh 30.18 in1022.0 mb 0.00 in0.0 mm 0.00 in0.0 mm 0.22 in5.6 mm
11:08 AM 39.4°F4.1°C 21.4°F-5.9°C 48% 10.9 mph NNW17.5 kmh NNW 14.0 mph22.5 kmh 30.18 in1022.0 mb 0.00 in0.0 mm 0.00 in0.0 mm 0.22 in5.6 mm
11:09 AM 39.6°F4.2°C 21.1°F-6.1°C 47% 14.5 mph ENE23.3 kmh ENE 14.5 mph23.3 kmh 30.18 in1022.0 mb 0.00 in0.0 mm 0.00 in0.0 mm 0.22 in5.6 mm
11:10 AM 39.4°F4.1°C 21.4°F-5.9°C 48% 10.9 mph W17.5 kmh W 14.5 mph23.3 kmh 30.18 in1022.0 mb 0.00 in0.0 mm 0.00 in0.0 mm 0.22 in5.6 mm
11:11 AM 39.4°F4.1°C 21.4°F-5.9°C 48% 13.0 mph NNW20.9 kmh NNW 14.5 mph23.3 kmh 30.18 in1022.0 mb 0.00 in0.0 mm 0.00 in0.0 mm 0.22 in5.6 mm
11:12 AM 39.4°F4.1°C 21.4°F-5.9°C 48% 13.0 mph NNW20.9 kmh NNW 14.5 mph23.3 kmh 30.18 in1022.0 mb 0.00 in0.0 mm 0.00 in0.0 mm 0.22 in5.6 mm
11:13 AM 39.4°F4.1°C 21.4°F-5.9°C 48% 13.0 mph W20.9 kmh W 14.5 mph23.3 kmh 30.18 in1022.0 mb 0.00 in0.0 mm 0.00 in0.0 mm 0.22 in5.6 mm
11:14 AM 39.2°F4.0°C 21.2°F-6.0°C 48% 9.9 mph NE15.9 kmh NE 14.5 mph23.3 kmh 30.18 in1022.0 mb 0.00 in0.0 mm 0.00 in0.0 mm 0.22 in5.6 mm
11:15 AM 39.2°F4.0°C 21.2°F-6.0°C 48% 8.3 mph NNE13.4 kmh NNE 14.5 mph23.3 kmh 30.18 in1022.0 mb 0.00 in0.0 mm 0.00 in0.0 mm 0.22 in5.6 mm
11:16 AM 39.2°F4.0°C 21.2°F-6.0°C 48% 8.9 mph NNW14.3 kmh NNW 14.5 mph23.3 kmh 30.18 in1022.0 mb 0.00 in0.0 mm 0.00 in0.0 mm 0.22 in5.6 mm
11:17 AM 39.2°F4.0°C 20.7°F-6.3°C 47% 13.5 mph N21.7 kmh N 14.5 mph23.3 kmh 30.18 in1022.0 mb 0.00 in0.0 mm 0.00 in0.0 mm 0.22 in5.6 mm
11:18 AM 38.8°F3.8°C 20.8°F-6.2°C 48% 7.8 mph N12.6 kmh N 14.5 mph23.3 kmh 30.18 in1022.0 mb 0.00 in0.0 mm 0.00 in0.0 mm 0.22 in5.6 mm
11:19 AM 38.8°F3.8°C 20.8°F-6.2°C 48% 9.4 mph N15.1 kmh N 14.5 mph23.3 kmh 30.18 in1022.0 mb 0.00 in0.0 mm 0.00 in0.0 mm 0.22 in5.6 mm
11:20 AM 39.0°F3.9°C 20.5°F-6.4°C 47% 11.4 mph NNE18.3 kmh NNE 14.0 mph22.5 kmh 30.18 in1022.0 mb 0.00 in0.0 mm 0.00 in0.0 mm 0.22 in5.6 mm
11:21 AM 39.2°F4.0°C 21.2°F-6.0°C 48% 10.4 mph NNW16.7 kmh NNW 14.0 mph22.5 kmh 30.18 in1022.0 mb 0.00 in0.0 mm 0.00 in0.0 mm 0.22 in5.6 mm
11:22 AM 39.7°F4.3°C 21.1°F-6.1°C 47% 10.4 mph NNW16.7 kmh NNW 14.0 mph22.5 kmh 30.18 in1022.0 mb 0.00 in0.0 mm 0.00 in0.0 mm 0.22 in5.6 mm
11:23 AM 39.7°F4.3°C 20.6°F-6.3°C 46% 8.3 mph WNW13.4 kmh WNW 14.0 mph22.5 kmh 30.18 in1022.0 mb 0.00 in0.0 mm 0.00 in0.0 mm 0.22 in5.6 mm
11:24 AM 39.7°F4.3°C 21.1°F-6.1°C 47% 10.9 mph W17.5 kmh W 14.0 mph22.5 kmh 30.18 in1022.0 mb 0.00 in0.0 mm 0.00 in0.0 mm 0.22 in5.6 mm
11:25 AM 39.7°F4.3°C 21.1°F-6.1°C 47% 11.9 mph NNE19.2 kmh NNE 14.0 mph22.5 kmh 30.18 in1022.0 mb 0.00 in0.0 mm 0.00 in0.0 mm 0.22 in5.6 mm
11:26 AM 39.6°F4.2°C 21.1°F-6.1°C 47% 7.3 mph E11.7 kmh E 14.0 mph22.5 kmh 30.18 in1022.0 mb 0.00 in0.0 mm 0.00 in0.0 mm 0.22 in5.6 mm
11:27 AM 39.7°F4.3°C 21.1°F-6.1°C 47% 9.9 mph W15.9 kmh W 13.5 mph21.7 kmh 30.18 in1022.0 mb 0.00 in0.0 mm 0.00 in0.0 mm 0.22 in5.6 mm
11:28 AM 39.9°F4.4°C 20.8°F-6.2°C 46% 11.4 mph W18.3 kmh W 11.9 mph19.2 kmh 30.18 in1022.0 mb 0.00 in0.0 mm 0.00 in0.0 mm 0.22 in5.6 mm
11:29 AM 39.7°F4.3°C 20.1°F-6.6°C 45% 7.8 mph W12.6 kmh W 11.9 mph19.2 kmh 30.18 in1022.0 mb 0.00 in0.0 mm 0.00 in0.0 mm 0.22 in5.6 mm
11:30 AM 39.6°F4.2°C 20.0°F-6.7°C 45% 9.9 mph WNW15.9 kmh WNW 11.9 mph19.2 kmh 30.18 in1022.0 mb 0.00 in0.0 mm 0.00 in0.0 mm 0.22 in5.6 mm
11:31 AM 39.6°F4.2°C 20.0°F-6.7°C 45% 5.8 mph W9.3 kmh W 11.9 mph19.2 kmh 30.18 in1022.0 mb 0.00 in0.0 mm 0.00 in0.0 mm 0.22 in5.6 mm
11:32 AM 39.7°F4.3°C 21.1°F-6.1°C 47% 6.8 mph N10.9 kmh N 11.9 mph19.2 kmh 30.18 in1022.0 mb 0.00 in0.0 mm 0.00 in0.0 mm 0.22 in5.6 mm
11:33 AM 40.5°F4.7°C 21.9°F-5.6°C 47% 3.2 mph NNW5.1 kmh NNW 11.9 mph19.2 kmh 30.18 in1022.0 mb 0.00 in0.0 mm 0.00 in0.0 mm 0.22 in5.6 mm
11:34 AM 40.6°F4.8°C 22.0°F-5.6°C 47% 9.9 mph WSW15.9 kmh WSW 11.9 mph19.2 kmh 30.18 in1022.0 mb 0.00 in0.0 mm 0.00 in0.0 mm 0.22 in5.6 mm
11:35 AM 40.6°F4.8°C 20.9°F-6.2°C 45% 9.4 mph WNW15.1 kmh WNW 11.9 mph19.2 kmh 30.18 in1022.0 mb 0.00 in0.0 mm 0.00 in0.0 mm 0.22 in5.6 mm
11:36 AM 40.6°F4.8°C 20.4°F-6.4°C 44% 7.3 mph W11.7 kmh W 11.9 mph19.2 kmh 30.18 in1022.0 mb 0.00 in0.0 mm 0.00 in0.0 mm 0.22 in5.6 mm
11:37 AM 40.6°F4.8°C 20.9°F-6.2°C 45% 8.9 mph W14.3 kmh W 11.9 mph19.2 kmh 30.18 in1022.0 mb 0.00 in0.0 mm 0.00 in0.0 mm 0.22 in5.6 mm
11:38 AM 40.6°F4.8°C 20.9°F-6.2°C 45% 16.6 mph NNE26.7 kmh NNE 16.6 mph26.7 kmh 30.18 in1022.0 mb 0.00 in0.0 mm 0.00 in0.0 mm 0.22 in5.6 mm
11:39 AM 40.6°F4.8°C 20.9°F-6.2°C 45% 9.9 mph N15.9 kmh N 16.6 mph26.7 kmh 30.18 in1022.0 mb 0.00 in0.0 mm 0.00 in0.0 mm 0.22 in5.6 mm
11:40 AM 40.6°F4.8°C 20.9°F-6.2°C 45% 10.9 mph NNW17.5 kmh NNW 16.6 mph26.7 kmh 30.18 in1022.0 mb 0.00 in0.0 mm 0.00 in0.0 mm 0.22 in5.6 mm
11:41 AM 40.6°F4.8°C 20.9°F-6.2°C 45% 8.9 mph N14.3 kmh N 16.6 mph26.7 kmh 30.18 in1022.0 mb 0.00 in0.0 mm 0.00 in0.0 mm 0.22 in5.6 mm
11:42 AM 40.8°F4.9°C 21.1°F-6.1°C 45% 7.3 mph N11.7 kmh N 16.6 mph26.7 kmh 30.18 in1022.0 mb 0.00 in0.0 mm 0.00 in0.0 mm 0.22 in5.6 mm
11:43 AM 40.8°F4.9°C 21.1°F-6.1°C 45% 8.9 mph W14.3 kmh W 16.6 mph26.7 kmh 30.18 in1022.0 mb 0.00 in0.0 mm 0.00 in0.0 mm 0.22 in5.6 mm
11:44 AM 40.8°F4.9°C 21.1°F-6.1°C 45% 9.4 mph E15.1 kmh E 16.6 mph26.7 kmh 30.18 in1022.0 mb 0.00 in0.0 mm 0.00 in0.0 mm 0.22 in5.6 mm
11:45 AM 40.8°F4.9°C 20.6°F-6.3°C 44% 9.4 mph NNW15.1 kmh NNW 16.6 mph26.7 kmh 30.18 in1022.0 mb 0.00 in0.0 mm 0.00 in0.0 mm 0.22 in5.6 mm
11:46 AM 40.6°F4.8°C 19.9°F-6.7°C 43% 13.5 mph NNW21.7 kmh NNW 17.1 mph27.5 kmh 30.18 in1022.0 mb 0.00 in0.0 mm 0.00 in0.0 mm 0.22 in5.6 mm
11:47 AM 40.5°F4.7°C 20.3°F-6.5°C 44% 10.9 mph N17.5 kmh N 17.1 mph27.5 kmh 30.18 in1022.0 mb 0.00 in0.0 mm 0.00 in0.0 mm 0.22 in5.6 mm
11:48 AM 40.5°F4.7°C 20.3°F-6.5°C 44% 11.4 mph NNE18.3 kmh NNE 17.1 mph27.5 kmh 30.18 in1022.0 mb 0.00 in0.0 mm 0.00 in0.0 mm 0.22 in5.6 mm
11:49 AM 40.5°F4.7°C 19.8°F-6.8°C 43% 13.5 mph NNE21.7 kmh NNE 17.1 mph27.5 kmh 30.18 in1022.0 mb 0.00 in0.0 mm 0.00 in0.0 mm 0.22 in5.6 mm
11:50 AM 40.5°F4.7°C 19.8°F-6.8°C 43% 14.0 mph NNW22.5 kmh NNW 17.1 mph27.5 kmh 30.18 in1022.0 mb 0.00 in0.0 mm 0.00 in0.0 mm 0.22 in5.6 mm
11:51 AM 40.5°F4.7°C 20.3°F-6.5°C 44% 7.8 mph NNE12.6 kmh NNE 17.1 mph27.5 kmh 30.18 in1022.0 mb 0.00 in0.0 mm 0.00 in0.0 mm 0.22 in5.6 mm
11:52 AM 40.5°F4.7°C 19.8°F-6.8°C 43% 14.5 mph NNE23.3 kmh NNE 17.1 mph27.5 kmh 30.18 in1022.0 mb 0.00 in0.0 mm 0.00 in0.0 mm 0.22 in5.6 mm
11:53 AM 40.5°F4.7°C 20.3°F-6.5°C 44% 12.5 mph NNE20.1 kmh NNE 17.1 mph27.5 kmh 30.18 in1022.0 mb 0.00 in0.0 mm 0.00 in0.0 mm 0.22 in5.6 mm
11:54 AM 40.5°F4.7°C 20.9°F-6.2°C 45% 10.9 mph NNW17.5 kmh NNW 17.1 mph27.5 kmh 30.18 in1022.0 mb 0.00 in0.0 mm 0.00 in0.0 mm 0.22 in5.6 mm
11:55 AM 40.6°F4.8°C 20.9°F-6.2°C 45% 5.8 mph N9.3 kmh N 17.1 mph27.5 kmh 30.18 in1022.0 mb 0.00 in0.0 mm 0.00 in0.0 mm 0.22 in5.6 mm
11:56 AM 40.6°F4.8°C 20.9°F-6.2°C 45% 6.8 mph N10.9 kmh N 14.5 mph23.3 kmh 30.18 in1022.0 mb 0.00 in0.0 mm 0.00 in0.0 mm 0.22 in5.6 mm
11:57 AM 40.6°F4.8°C 20.9°F-6.2°C 45% 8.3 mph WNW13.4 kmh WNW 14.5 mph23.3 kmh 30.18 in1022.0 mb 0.00 in0.0 mm 0.00 in0.0 mm 0.22 in5.6 mm
11:58 AM 40.5°F4.7°C 20.3°F-6.5°C 44% 11.9 mph WSW19.2 kmh WSW 14.5 mph23.3 kmh 30.18 in1022.0 mb 0.00 in0.0 mm 0.00 in0.0 mm 0.22 in5.6 mm
11:59 AM 40.5°F4.7°C 20.3°F-6.5°C 44% 11.9 mph WSW19.2 kmh WSW 14.5 mph23.3 kmh 30.18 in1022.0 mb 0.00 in0.0 mm 0.00 in0.0 mm 0.22 in5.6 mm
12:04 PM 40.5°F4.7°C 20.3°F-6.5°C 44% 10.4 mph ENE16.7 kmh ENE 11.9 mph19.2 kmh 30.18 in1022.0 mb 0.00 in0.0 mm 0.00 in0.0 mm 0.22 in5.6 mm
12:05 PM 40.1°F4.5°C 19.4°F-7.0°C 43% 8.3 mph SSE13.4 kmh SSE 11.9 mph19.2 kmh 30.18 in1022.0 mb 0.00 in0.0 mm 0.00 in0.0 mm 0.22 in5.6 mm
12:06 PM 40.1°F4.5°C 19.4°F-7.0°C 43% 10.4 mph N16.7 kmh N 15.5 mph24.9 kmh 30.18 in1022.0 mb 0.00 in0.0 mm 0.00 in0.0 mm 0.22 in5.6 mm
12:07 PM 40.1°F4.5°C 19.4°F-7.0°C 43% 14.0 mph NNW22.5 kmh NNW 15.5 mph24.9 kmh 30.18 in1022.0 mb 0.00 in0.0 mm 0.00 in0.0 mm 0.22 in5.6 mm
12:08 PM 40.1°F4.5°C 19.4°F-7.0°C 43% 10.9 mph N17.5 kmh N 15.5 mph24.9 kmh 30.18 in1022.0 mb 0.00 in0.0 mm 0.00 in0.0 mm 0.22 in5.6 mm
12:13 PM 40.1°F4.5°C 19.4°F-7.0°C 43% 7.3 mph N11.7 kmh N 15.5 mph24.9 kmh 30.18 in1022.0 mb 0.00 in0.0 mm 0.00 in0.0 mm 0.22 in5.6 mm
12:14 PM 40.5°F4.7°C 20.3°F-6.5°C 44% 7.8 mph NNE12.6 kmh NNE 15.5 mph24.9 kmh 30.18 in1022.0 mb 0.00 in0.0 mm 0.00 in0.0 mm 0.22 in5.6 mm
12:15 PM 40.6°F4.8°C 20.4°F-6.4°C 44% 11.4 mph NW18.3 kmh NW 15.5 mph24.9 kmh 30.18 in1022.0 mb 0.00 in0.0 mm 0.00 in0.0 mm 0.22 in5.6 mm
12:16 PM 40.5°F4.7°C 19.2°F-7.1°C 42% 9.9 mph NNW15.9 kmh NNW 14.0 mph22.5 kmh 30.18 in1022.0 mb 0.00 in0.0 mm 0.00 in0.0 mm 0.22 in5.6 mm
12:17 PM 40.1°F4.5°C 18.3°F-7.6°C 41% 8.3 mph W13.4 kmh W 12.5 mph20.1 kmh 30.18 in1022.0 mb 0.00 in0.0 mm 0.00 in0.0 mm 0.22 in5.6 mm
12:18 PM 39.9°F4.4°C 18.7°F-7.4°C 42% 15.0 mph NNE24.1 kmh NNE 15.0 mph24.1 kmh 30.18 in1022.0 mb 0.00 in0.0 mm 0.00 in0.0 mm 0.22 in5.6 mm
12:19 PM 39.9°F4.4°C 18.1°F-7.7°C 41% 14.5 mph NE23.3 kmh NE 18.6 mph29.9 kmh 30.18 in1022.0 mb 0.00 in0.0 mm 0.00 in0.0 mm 0.22 in5.6 mm
12:20 PM 39.7°F4.3°C 18.0°F-7.8°C 41% 16.1 mph NE25.9 kmh NE 18.6 mph29.9 kmh 30.18 in1022.0 mb 0.00 in0.0 mm 0.00 in0.0 mm 0.22 in5.6 mm
12:21 PM 39.7°F4.3°C 18.0°F-7.8°C 41% 14.0 mph N22.5 kmh N 18.6 mph29.9 kmh 30.18 in1022.0 mb 0.00 in0.0 mm 0.00 in0.0 mm 0.22 in5.6 mm
12:22 PM 39.7°F4.3°C 18.5°F-7.5°C 42% 13.0 mph NNW20.9 kmh NNW 18.6 mph29.9 kmh 30.18 in1022.0 mb 0.00 in0.0 mm 0.00 in0.0 mm 0.22 in5.6 mm
12:23 PM 39.7°F4.3°C 18.0°F-7.8°C 41% 7.8 mph ENE12.6 kmh ENE 18.6 mph29.9 kmh 30.18 in1022.0 mb 0.00 in0.0 mm 0.00 in0.0 mm 0.22 in5.6 mm
12:24 PM 39.6°F4.2°C 18.4°F-7.6°C 42% 13.0 mph NNE20.9 kmh NNE 18.6 mph29.9 kmh 30.18 in1022.0 mb 0.00 in0.0 mm 0.00 in0.0 mm 0.22 in5.6 mm
12:25 PM 39.6°F4.2°C 17.9°F-7.8°C 41% 12.5 mph WNW20.1 kmh WNW 18.6 mph29.9 kmh 30.18 in1022.0 mb 0.00 in0.0 mm 0.00 in0.0 mm 0.22 in5.6 mm
12:26 PM 39.6°F4.2°C 17.9°F-7.8°C 41% 16.1 mph N25.9 kmh N 18.6 mph29.9 kmh 30.18 in1022.0 mb 0.00 in0.0 mm 0.00 in0.0 mm 0.22 in5.6 mm
12:27 PM 39.6°F4.2°C 18.4°F-7.6°C 42% 8.9 mph NE14.3 kmh NE 18.6 mph29.9 kmh 30.18 in1022.0 mb 0.00 in0.0 mm 0.00 in0.0 mm 0.22 in5.6 mm
12:28 PM 40.1°F4.5°C 19.4°F-7.0°C 43% 10.4 mph N16.7 kmh N 18.6 mph29.9 kmh 30.18 in1022.0 mb 0.00 in0.0 mm 0.00 in0.0 mm 0.22 in5.6 mm
12:29 PM 40.3°F4.6°C 18.5°F-7.5°C 41% 13.5 mph N21.7 kmh N 17.1 mph27.5 kmh 30.18 in1022.0 mb 0.00 in0.0 mm 0.00 in0.0 mm 0.22 in5.6 mm
12:30 PM 40.3°F4.6°C 18.5°F-7.5°C 41% 17.1 mph NW27.5 kmh NW 17.1 mph27.5 kmh 30.18 in1022.0 mb 0.00 in0.0 mm 0.00 in0.0 mm 0.22 in5.6 mm
12:31 PM 39.7°F4.3°C 18.0°F-7.8°C 41% 11.9 mph NNW19.2 kmh NNW 17.1 mph27.5 kmh 30.18 in1022.0 mb 0.00 in0.0 mm 0.00 in0.0 mm 0.22 in5.6 mm
12:32 PM 39.6°F4.2°C 18.4°F-7.6°C 42% 11.9 mph NNE19.2 kmh NNE 17.1 mph27.5 kmh 30.18 in1022.0 mb 0.00 in0.0 mm 0.00 in0.0 mm 0.22 in5.6 mm
12:33 PM 39.7°F4.3°C 18.5°F-7.5°C 42% 9.4 mph NNW15.1 kmh NNW 17.1 mph27.5 kmh 30.18 in1022.0 mb 0.00 in0.0 mm 0.00 in0.0 mm 0.22 in5.6 mm
12:34 PM 39.7°F4.3°C 18.5°F-7.5°C 42% 8.9 mph NNE14.3 kmh NNE 17.1 mph27.5 kmh 30.18 in1022.0 mb 0.00 in0.0 mm 0.00 in0.0 mm 0.22 in5.6 mm
12:35 PM 39.7°F4.3°C 18.5°F-7.5°C 42% 10.4 mph NNW16.7 kmh NNW 17.1 mph27.5 kmh 30.18 in1022.0 mb 0.00 in0.0 mm 0.00 in0.0 mm 0.22 in5.6 mm
12:36 PM 39.6°F4.2°C 17.9°F-7.8°C 41% 7.3 mph NNE11.7 kmh NNE 17.1 mph27.5 kmh 30.18 in1022.0 mb 0.00 in0.0 mm 0.00 in0.0 mm 0.22 in5.6 mm
12:37 PM 39.9°F4.4°C 18.1°F-7.7°C 41% 7.3 mph W11.7 kmh W 17.1 mph27.5 kmh 30.18 in1022.0 mb 0.00 in0.0 mm 0.00 in0.0 mm 0.22 in5.6 mm
12:38 PM 40.1°F4.5°C 18.3°F-7.6°C 41% 10.9 mph WNW17.5 kmh WNW 17.1 mph27.5 kmh 30.18 in1022.0 mb 0.00 in0.0 mm 0.00 in0.0 mm 0.22 in5.6 mm
12:39 PM 40.1°F4.5°C 18.3°F-7.6°C 41% 11.4 mph N18.3 kmh N 17.1 mph27.5 kmh 30.18 in1022.0 mb 0.00 in0.0 mm 0.00 in0.0 mm 0.22 in5.6 mm
12:40 PM 40.5°F4.7°C 19.2°F-7.1°C 42% 17.6 mph ENE28.3 kmh ENE 17.6 mph28.3 kmh 30.18 in1022.0 mb 0.00 in0.0 mm 0.00 in0.0 mm 0.22 in5.6 mm
12:41 PM 40.5°F4.7°C 18.7°F-7.4°C 41% 11.4 mph N18.3 kmh N 17.6 mph28.3 kmh 30.18 in1022.0 mb 0.00 in0.0 mm 0.00 in0.0 mm 0.22 in5.6 mm
12:42 PM 40.3°F4.6°C 18.5°F-7.5°C 41% 12.5 mph NNE20.1 kmh NNE 17.6 mph28.3 kmh 30.18 in1022.0 mb 0.00 in0.0 mm 0.00 in0.0 mm 0.22 in5.6 mm
12:43 PM 40.1°F4.5°C 18.9°F-7.3°C 42% 9.9 mph NNE15.9 kmh NNE 17.6 mph28.3 kmh 30.18 in1022.0 mb 0.00 in0.0 mm 0.00 in0.0 mm 0.22 in5.6 mm
12:44 PM 40.1°F4.5°C 18.3°F-7.6°C 41% 14.0 mph NW22.5 kmh NW 17.6 mph28.3 kmh 30.18 in1022.0 mb 0.00 in0.0 mm 0.00 in0.0 mm 0.22 in5.6 mm
12:45 PM 39.9°F4.4°C 17.6°F-8.0°C 40% 16.1 mph NNW25.9 kmh NNW 17.6 mph28.3 kmh 30.18 in1022.0 mb 0.00 in0.0 mm 0.00 in0.0 mm 0.22 in5.6 mm
12:46 PM 39.9°F4.4°C 18.1°F-7.7°C 41% 11.4 mph W18.3 kmh W 17.6 mph28.3 kmh 30.18 in1022.0 mb 0.00 in0.0 mm 0.00 in0.0 mm 0.22 in5.6 mm
12:47 PM 40.1°F4.5°C 18.3°F-7.6°C 41% 8.9 mph NNE14.3 kmh NNE 17.6 mph28.3 kmh 30.18 in1022.0 mb 0.00 in0.0 mm 0.00 in0.0 mm 0.22 in5.6 mm
12:48 PM 40.1°F4.5°C 18.9°F-7.3°C 42% 13.0 mph NNE20.9 kmh NNE 17.6 mph28.3 kmh 30.18 in1022.0 mb 0.00 in0.0 mm 0.00 in0.0 mm 0.22 in5.6 mm
12:49 PM 40.1°F4.5°C 18.9°F-7.3°C 42% 12.5 mph NNW20.1 kmh NNW 17.6 mph28.3 kmh 30.18 in1022.0 mb 0.00 in0.0 mm 0.00 in0.0 mm 0.22 in5.6 mm
12:50 PM 40.1°F4.5°C 18.9°F-7.3°C 42% 8.3 mph NW13.4 kmh NW 16.1 mph25.9 kmh 30.18 in1022.0 mb 0.00 in0.0 mm 0.00 in0.0 mm 0.22 in5.6 mm
12:51 PM 40.1°F4.5°C 18.3°F-7.6°C 41% 10.4 mph W16.7 kmh W 16.1 mph25.9 kmh 30.18 in1022.0 mb 0.00 in0.0 mm 0.00 in0.0 mm 0.22 in5.6 mm
12:52 PM 40.1°F4.5°C 18.3°F-7.6°C 41% 9.9 mph WSW15.9 kmh WSW 16.1 mph25.9 kmh 30.18 in1022.0 mb 0.00 in0.0 mm 0.00 in0.0 mm 0.22 in5.6 mm
12:53 PM 39.9°F4.4°C 18.1°F-7.7°C 41% 11.4 mph NW18.3 kmh NW 16.1 mph25.9 kmh 30.18 in1022.0 mb 0.00 in0.0 mm 0.00 in0.0 mm 0.22 in5.6 mm
12:54 PM 40.1°F4.5°C 18.3°F-7.6°C 41% 9.9 mph NNW15.9 kmh NNW 16.1 mph25.9 kmh 30.18 in1022.0 mb 0.00 in0.0 mm 0.00 in0.0 mm 0.22 in5.6 mm
12:55 PM 40.3°F4.6°C 17.9°F-7.8°C 40% 18.6 mph NNW29.9 kmh NNW 18.6 mph29.9 kmh 30.18 in1022.0 mb 0.00 in0.0 mm 0.00 in0.0 mm 0.22 in5.6 mm
12:56 PM 40.1°F4.5°C 17.7°F-7.9°C 40% 10.9 mph NNW17.5 kmh NNW 18.6 mph29.9 kmh 30.18 in1022.0 mb 0.00 in0.0 mm 0.00 in0.0 mm 0.22 in5.6 mm
12:57 PM 39.9°F4.4°C 17.6°F-8.0°C 40% 8.9 mph W14.3 kmh W 18.6 mph29.9 kmh 30.18 in1022.0 mb 0.00 in0.0 mm 0.00 in0.0 mm 0.22 in5.6 mm
12:58 PM 39.9°F4.4°C 17.6°F-8.0°C 40% 9.9 mph S15.9 kmh S 18.6 mph29.9 kmh 30.18 in1022.0 mb 0.00 in0.0 mm 0.00 in0.0 mm 0.22 in5.6 mm
12:59 PM 40.3°F4.6°C 18.5°F-7.5°C 41% 6.8 mph W10.9 kmh W 18.6 mph29.9 kmh 30.18 in1022.0 mb 0.00 in0.0 mm 0.00 in0.0 mm 0.22 in5.6 mm
01:00 PM 40.1°F4.5°C 17.7°F-7.9°C 40% 5.3 mph W8.5 kmh W 18.6 mph29.9 kmh 30.18 in1022.0 mb 0.00 in0.0 mm 0.00 in0.0 mm 0.22 in5.6 mm
01:01 PM 40.3°F4.6°C 17.9°F-7.8°C 40% 7.3 mph N11.7 kmh N 18.6 mph29.9 kmh 30.18 in1022.0 mb 0.00 in0.0 mm 0.00 in0.0 mm 0.22 in5.6 mm
01:02 PM 40.3°F4.6°C 17.9°F-7.8°C 40% 10.9 mph NNE17.5 kmh NNE 18.6 mph29.9 kmh 30.18 in1022.0 mb 0.00 in0.0 mm 0.00 in0.0 mm 0.22 in5.6 mm
01:03 PM 40.3°F4.6°C 17.9°F-7.8°C 40% 7.8 mph W12.6 kmh W 18.6 mph29.9 kmh 30.18 in1022.0 mb 0.00 in0.0 mm 0.00 in0.0 mm 0.22 in5.6 mm
01:04 PM 40.1°F4.5°C 17.7°F-7.9°C 40% 11.4 mph NW18.3 kmh NW 18.6 mph29.9 kmh 30.18 in1022.0 mb 0.00 in0.0 mm 0.00 in0.0 mm 0.22 in5.6 mm
01:05 PM 40.1°F4.5°C 17.7°F-7.9°C 40% 8.3 mph NNE13.4 kmh NNE 18.6 mph29.9 kmh 30.19 in1022.4 mb 0.00 in0.0 mm 0.00 in0.0 mm 0.22 in5.6 mm
01:06 PM 40.3°F4.6°C 17.9°F-7.8°C 40% 9.4 mph N15.1 kmh N 13.5 mph21.7 kmh 30.19 in1022.4 mb 0.00 in0.0 mm 0.00 in0.0 mm 0.22 in5.6 mm
01:07 PM 40.3°F4.6°C 17.9°F-7.8°C 40% 6.3 mph NNE10.1 kmh NNE 13.5 mph21.7 kmh 30.19 in1022.4 mb 0.00 in0.0 mm 0.00 in0.0 mm 0.22 in5.6 mm
01:08 PM 40.3°F4.6°C 17.9°F-7.8°C 40% 13.0 mph N20.9 kmh N 13.5 mph21.7 kmh 30.19 in1022.4 mb 0.00 in0.0 mm 0.00 in0.0 mm 0.22 in5.6 mm
01:09 PM 40.3°F4.6°C 17.9°F-7.8°C 40% 11.4 mph N18.3 kmh N 13.5 mph21.7 kmh 30.19 in1022.4 mb 0.00 in0.0 mm 0.00 in0.0 mm 0.22 in5.6 mm
01:10 PM 40.1°F4.5°C 17.7°F-7.9°C 40% 10.9 mph N17.5 kmh N 13.5 mph21.7 kmh 30.19 in1022.4 mb 0.00 in0.0 mm 0.00 in0.0 mm 0.22 in5.6 mm
01:11 PM 40.3°F4.6°C 17.3°F-8.2°C 39% 13.5 mph N21.7 kmh N 15.0 mph24.1 kmh 30.19 in1022.4 mb 0.00 in0.0 mm 0.00 in0.0 mm 0.22 in5.6 mm
01:12 PM 40.3°F4.6°C 17.9°F-7.8°C 40% 11.9 mph NE19.2 kmh NE 15.0 mph24.1 kmh 30.19 in1022.4 mb 0.00 in0.0 mm 0.00 in0.0 mm 0.22 in5.6 mm
01:13 PM 40.5°F4.7°C 18.1°F-7.7°C 40% 8.9 mph WNW14.3 kmh WNW 15.0 mph24.1 kmh 30.19 in1022.4 mb 0.00 in0.0 mm 0.00 in0.0 mm 0.22 in5.6 mm
01:14 PM 40.8°F4.9°C 18.9°F-7.3°C 41% 15.0 mph NNE24.1 kmh NNE 15.0 mph24.1 kmh 30.19 in1022.4 mb 0.00 in0.0 mm 0.00 in0.0 mm 0.22 in5.6 mm
01:15 PM 40.5°F4.7°C 18.1°F-7.7°C 40% 13.5 mph SSW21.7 kmh SSW 16.6 mph26.7 kmh 30.19 in1022.4 mb 0.00 in0.0 mm 0.00 in0.0 mm 0.22 in5.6 mm
01:16 PM 40.5°F4.7°C 18.1°F-7.7°C 40% 7.3 mph NNE11.7 kmh NNE 16.6 mph26.7 kmh 30.19 in1022.4 mb 0.00 in0.0 mm 0.00 in0.0 mm 0.22 in5.6 mm
01:17 PM 40.5°F4.7°C 18.1°F-7.7°C 40% 11.9 mph NNW19.2 kmh NNW 16.6 mph26.7 kmh 30.19 in1022.4 mb 0.00 in0.0 mm 0.00 in0.0 mm 0.22 in5.6 mm
01:18 PM 40.5°F4.7°C 17.5°F-8.1°C 39% 11.9 mph NNE19.2 kmh NNE 16.6 mph26.7 kmh 30.19 in1022.4 mb 0.00 in0.0 mm 0.00 in0.0 mm 0.22 in5.6 mm
01:19 PM 40.1°F4.5°C 17.2°F-8.2°C 39% 9.4 mph NE15.1 kmh NE 16.6 mph26.7 kmh 30.19 in1022.4 mb 0.00 in0.0 mm 0.00 in0.0 mm 0.22 in5.6 mm
01:20 PM 40.1°F4.5°C 17.2°F-8.2°C 39% 7.3 mph N11.7 kmh N 16.6 mph26.7 kmh 30.19 in1022.4 mb 0.00 in0.0 mm 0.00 in0.0 mm 0.22 in5.6 mm
01:21 PM 40.5°F4.7°C 17.5°F-8.1°C 39% 15.0 mph ESE24.1 kmh ESE 16.6 mph26.7 kmh 30.19 in1022.4 mb 0.00 in0.0 mm 0.00 in0.0 mm 0.22 in5.6 mm
01:22 PM 40.5°F4.7°C 17.5°F-8.1°C 39% 18.6 mph W29.9 kmh W 18.6 mph29.9 kmh 30.19 in1022.4 mb 0.00 in0.0 mm 0.00 in0.0 mm 0.22 in5.6 mm
01:23 PM 39.9°F4.4°C 16.4°F-8.7°C 38% 8.9 mph NNE14.3 kmh NNE 18.6 mph29.9 kmh 30.19 in1022.4 mb 0.00 in0.0 mm 0.00 in0.0 mm 0.22 in5.6 mm
01:24 PM 40.1°F4.5°C 16.6°F-8.6°C 38% 15.5 mph NE24.9 kmh NE 18.6 mph29.9 kmh 30.19 in1022.4 mb 0.00 in0.0 mm 0.00 in0.0 mm 0.22 in5.6 mm
01:25 PM 40.1°F4.5°C 16.6°F-8.6°C 38% 12.5 mph N20.1 kmh N 18.6 mph29.9 kmh 30.19 in1022.4 mb 0.00 in0.0 mm 0.00 in0.0 mm 0.22 in5.6 mm
01:26 PM 40.1°F4.5°C 16.6°F-8.6°C 38% 14.0 mph NNE22.5 kmh NNE 18.6 mph29.9 kmh 30.19 in1022.4 mb 0.00 in0.0 mm 0.00 in0.0 mm 0.22 in5.6 mm
01:27 PM 39.9°F4.4°C 16.4°F-8.7°C 38% 6.8 mph W10.9 kmh W 18.6 mph29.9 kmh 30.19 in1022.4 mb 0.00 in0.0 mm 0.00 in0.0 mm 0.22 in5.6 mm
01:28 PM 39.9°F4.4°C 16.4°F-8.7°C 38% 15.0 mph NNE24.1 kmh NNE 18.6 mph29.9 kmh 30.19 in1022.4 mb 0.00 in0.0 mm 0.00 in0.0 mm 0.22 in5.6 mm
01:29 PM 39.9°F4.4°C 16.4°F-8.7°C 38% 13.5 mph NNW21.7 kmh NNW 18.6 mph29.9 kmh 30.19 in1022.4 mb 0.00 in0.0 mm 0.00 in0.0 mm 0.22 in5.6 mm
01:30 PM 39.7°F4.3°C 15.6°F-9.1°C 37% 8.9 mph NNW14.3 kmh NNW 18.6 mph29.9 kmh 30.19 in1022.4 mb 0.00 in0.0 mm 0.00 in0.0 mm 0.22 in5.6 mm
01:31 PM 39.7°F4.3°C 15.6°F-9.1°C 37% 14.5 mph NNE23.3 kmh NNE 18.6 mph29.9 kmh 30.19 in1022.4 mb 0.00 in0.0 mm 0.00 in0.0 mm 0.22 in5.6 mm
01:32 PM 39.7°F4.3°C 15.6°F-9.1°C 37% 12.5 mph N20.1 kmh N 17.6 mph28.3 kmh 30.19 in1022.4 mb 0.00 in0.0 mm 0.00 in0.0 mm 0.22 in5.6 mm
01:33 PM 39.7°F4.3°C 16.2°F-8.8°C 38% 16.6 mph NNE26.7 kmh NNE 17.6 mph28.3 kmh 30.19 in1022.4 mb 0.00 in0.0 mm 0.00 in0.0 mm 0.22 in5.6 mm
01:34 PM 39.7°F4.3°C 16.2°F-8.8°C 38% 10.4 mph N16.7 kmh N 17.6 mph28.3 kmh 30.19 in1022.4 mb 0.00 in0.0 mm 0.00 in0.0 mm 0.22 in5.6 mm
01:35 PM 39.9°F4.4°C 15.8°F-9.0°C 37% 13.0 mph NW20.9 kmh NW 17.6 mph28.3 kmh 30.19 in1022.4 mb 0.00 in0.0 mm 0.00 in0.0 mm 0.22 in5.6 mm
01:36 PM 39.7°F4.3°C 15.6°F-9.1°C 37% 15.0 mph NNE24.1 kmh NNE 17.6 mph28.3 kmh 30.19 in1022.4 mb 0.00 in0.0 mm 0.00 in0.0 mm 0.22 in5.6 mm
01:37 PM 39.6°F4.2°C 15.5°F-9.2°C 37% 8.3 mph WSW13.4 kmh WSW 17.1 mph27.5 kmh 30.19 in1022.4 mb 0.00 in0.0 mm 0.00 in0.0 mm 0.22 in5.6 mm
01:38 PM 39.6°F4.2°C 15.5°F-9.2°C 37% 8.9 mph SW14.3 kmh SW 17.1 mph27.5 kmh 30.19 in1022.4 mb 0.00 in0.0 mm 0.00 in0.0 mm 0.22 in5.6 mm
01:39 PM 39.9°F4.4°C 16.4°F-8.7°C 38% 6.3 mph SW10.1 kmh SW 17.1 mph27.5 kmh 30.19 in1022.4 mb 0.00 in0.0 mm 0.00 in0.0 mm 0.22 in5.6 mm
01:40 PM 39.7°F4.3°C 15.0°F-9.4°C 36% 13.5 mph NNE21.7 kmh NNE 17.1 mph27.5 kmh 30.19 in1022.4 mb 0.00 in0.0 mm 0.00 in0.0 mm 0.22 in5.6 mm
01:41 PM 39.7°F4.3°C 15.0°F-9.4°C 36% 4.2 mph WSW6.8 kmh WSW 17.1 mph27.5 kmh 30.20 in1022.7 mb 0.00 in0.0 mm 0.00 in0.0 mm 0.22 in5.6 mm
01:42 PM 40.1°F4.5°C 15.3°F-9.3°C 36% 9.9 mph W15.9 kmh W 17.1 mph27.5 kmh 30.20 in1022.7 mb 0.00 in0.0 mm 0.00 in0.0 mm 0.22 in5.6 mm
01:43 PM 40.1°F4.5°C 15.3°F-9.3°C 36% 7.8 mph WNW12.6 kmh WNW 17.1 mph27.5 kmh 30.20 in1022.7 mb 0.00 in0.0 mm 0.00 in0.0 mm 0.22 in5.6 mm
01:44 PM 40.3°F4.6°C 15.5°F-9.2°C 36% 9.4 mph WNW15.1 kmh WNW 17.1 mph27.5 kmh 30.20 in1022.7 mb 0.00 in0.0 mm 0.00 in0.0 mm 0.22 in5.6 mm
01:45 PM 40.5°F4.7°C 15.7°F-9.1°C 36% 6.8 mph WNW10.9 kmh WNW 17.1 mph27.5 kmh 30.20 in1022.7 mb 0.00 in0.0 mm 0.00 in0.0 mm 0.22 in5.6 mm
01:46 PM 40.3°F4.6°C 14.9°F-9.5°C 35% 14.5 mph NNW23.3 kmh NNW 17.1 mph27.5 kmh 30.20 in1022.7 mb 0.00 in0.0 mm 0.00 in0.0 mm 0.22 in5.6 mm
01:47 PM 40.1°F4.5°C 14.7°F-9.6°C 35% 7.8 mph N12.6 kmh N 16.6 mph26.7 kmh 30.20 in1022.7 mb 0.00 in0.0 mm 0.00 in0.0 mm 0.22 in5.6 mm
01:48 PM 40.1°F4.5°C 14.0°F-10.0°C 34% 10.4 mph N16.7 kmh N 15.5 mph24.9 kmh 30.20 in1022.7 mb 0.00 in0.0 mm 0.00 in0.0 mm 0.22 in5.6 mm
01:49 PM 40.1°F4.5°C 14.0°F-10.0°C 34% 12.5 mph N20.1 kmh N 15.5 mph24.9 kmh 30.20 in1022.7 mb 0.00 in0.0 mm 0.00 in0.0 mm 0.22 in5.6 mm
01:50 PM 40.1°F4.5°C 14.0°F-10.0°C 34% 13.0 mph NNW20.9 kmh NNW 15.5 mph24.9 kmh 30.20 in1022.7 mb 0.00 in0.0 mm 0.00 in0.0 mm 0.22 in5.6 mm
01:51 PM 40.1°F4.5°C 14.7°F-9.6°C 35% 18.1 mph NNE29.1 kmh NNE 18.1 mph29.1 kmh 30.20 in1022.7 mb 0.00 in0.0 mm 0.00 in0.0 mm 0.22 in5.6 mm
01:52 PM 39.9°F4.4°C 14.5°F-9.7°C 35% 10.9 mph N17.5 kmh N 18.1 mph29.1 kmh 30.20 in1022.7 mb 0.00 in0.0 mm 0.00 in0.0 mm 0.22 in5.6 mm
01:53 PM 39.9°F4.4°C 14.5°F-9.7°C 35% 10.4 mph NNW16.7 kmh NNW 18.1 mph29.1 kmh 30.20 in1022.7 mb 0.00 in0.0 mm 0.00 in0.0 mm 0.22 in5.6 mm
01:54 PM 39.9°F4.4°C 14.5°F-9.7°C 35% 7.8 mph N12.6 kmh N 18.1 mph29.1 kmh 30.20 in1022.7 mb 0.00 in0.0 mm 0.00 in0.0 mm 0.22 in5.6 mm
01:55 PM 39.9°F4.4°C 14.5°F-9.7°C 35% 8.3 mph NNW13.4 kmh NNW 18.1 mph29.1 kmh 30.20 in1022.7 mb 0.00 in0.0 mm 0.00 in0.0 mm 0.22 in5.6 mm
01:56 PM 39.9°F4.4°C 14.5°F-9.7°C 35% 9.9 mph NNE15.9 kmh NNE 18.1 mph29.1 kmh 30.20 in1022.7 mb 0.00 in0.0 mm 0.00 in0.0 mm 0.22 in5.6 mm
01:57 PM 39.9°F4.4°C 14.5°F-9.7°C 35% 8.9 mph NNE14.3 kmh NNE 18.1 mph29.1 kmh 30.20 in1022.7 mb 0.00 in0.0 mm 0.00 in0.0 mm 0.22 in5.6 mm
01:58 PM 39.9°F4.4°C 13.8°F-10.1°C 34% 10.4 mph W16.7 kmh W 18.1 mph29.1 kmh 30.20 in1022.7 mb 0.00 in0.0 mm 0.00 in0.0 mm 0.22 in5.6 mm
01:59 PM 39.4°F4.1°C 13.4°F-10.3°C 34% 9.4 mph W15.1 kmh W 18.1 mph29.1 kmh 30.20 in1022.7 mb 0.00 in0.0 mm 0.00 in0.0 mm 0.22 in5.6 mm
02:00 PM 39.6°F4.2°C 13.6°F-10.2°C 34% 13.5 mph NW21.7 kmh NW 18.1 mph29.1 kmh 30.20 in1022.7 mb 0.00 in0.0 mm 0.00 in0.0 mm 0.22 in5.6 mm
02:01 PM 39.6°F4.2°C 13.6°F-10.2°C 34% 13.0 mph NW20.9 kmh NW 18.1 mph29.1 kmh 30.20 in1022.7 mb 0.00 in0.0 mm 0.00 in0.0 mm 0.22 in5.6 mm
02:02 PM 39.6°F4.2°C 13.6°F-10.2°C 34% 10.4 mph NW16.7 kmh NW 15.0 mph24.1 kmh 30.20 in1022.7 mb 0.00 in0.0 mm 0.00 in0.0 mm 0.22 in5.6 mm
02:03 PM 39.6°F4.2°C 12.9°F-10.6°C 33% 10.9 mph NE17.5 kmh NE 15.0 mph24.1 kmh 30.20 in1022.7 mb 0.00 in0.0 mm 0.00 in0.0 mm 0.22 in5.6 mm
02:04 PM 39.6°F4.2°C 12.9°F-10.6°C 33% 16.6 mph NNE26.7 kmh NNE 16.6 mph26.7 kmh 30.20 in1022.7 mb 0.00 in0.0 mm 0.00 in0.0 mm 0.22 in5.6 mm
02:05 PM 39.4°F4.1°C 12.7°F-10.7°C 33% 15.5 mph N24.9 kmh N 16.6 mph26.7 kmh 30.20 in1022.7 mb 0.00 in0.0 mm 0.00 in0.0 mm 0.22 in5.6 mm
02:06 PM 39.4°F4.1°C 12.7°F-10.7°C 33% 17.6 mph N28.3 kmh N 17.6 mph28.3 kmh 30.20 in1022.7 mb 0.00 in0.0 mm 0.00 in0.0 mm 0.22 in5.6 mm
02:07 PM 39.4°F4.1°C 12.7°F-10.7°C 33% 17.6 mph N28.3 kmh N 17.6 mph28.3 kmh 30.20 in1022.7 mb 0.00 in0.0 mm 0.00 in0.0 mm 0.22 in5.6 mm
02:08 PM 39.4°F4.1°C 13.4°F-10.3°C 34% 4.7 mph NNW7.6 kmh NNW 17.6 mph28.3 kmh 30.20 in1022.7 mb 0.00 in0.0 mm 0.00 in0.0 mm 0.22 in5.6 mm
02:09 PM 39.6°F4.2°C 13.6°F-10.2°C 34% 11.4 mph W18.3 kmh W 17.6 mph28.3 kmh 30.20 in1022.7 mb 0.00 in0.0 mm 0.00 in0.0 mm 0.22 in5.6 mm
02:10 PM 39.7°F4.3°C 12.3°F-10.9°C 32% 8.3 mph W13.4 kmh W 17.6 mph28.3 kmh 30.20 in1022.7 mb 0.00 in0.0 mm 0.00 in0.0 mm 0.22 in5.6 mm
02:11 PM 39.7°F4.3°C 12.3°F-10.9°C 32% 6.8 mph W10.9 kmh W 17.6 mph28.3 kmh 30.20 in1022.7 mb 0.00 in0.0 mm 0.00 in0.0 mm 0.22 in5.6 mm
02:12 PM 39.7°F4.3°C 13.0°F-10.6°C 33% 6.3 mph NNW10.1 kmh NNW 17.6 mph28.3 kmh 30.20 in1022.7 mb 0.00 in0.0 mm 0.00 in0.0 mm 0.22 in5.6 mm
02:13 PM 39.9°F4.4°C 13.2°F-10.4°C 33% 14.0 mph WNW22.5 kmh WNW 17.6 mph28.3 kmh 30.20 in1022.7 mb 0.00 in0.0 mm 0.00 in0.0 mm 0.22 in5.6 mm
02:14 PM 39.6°F4.2°C 11.5°F-11.4°C 31% 19.1 mph N30.7 kmh N 19.1 mph30.7 kmh 30.20 in1022.7 mb 0.00 in0.0 mm 0.00 in0.0 mm 0.22 in5.6 mm
02:15 PM 39.6°F4.2°C 11.5°F-11.4°C 31% 18.1 mph N29.1 kmh N 19.1 mph30.7 kmh 30.20 in1022.7 mb 0.00 in0.0 mm 0.00 in0.0 mm 0.22 in5.6 mm
02:16 PM 39.2°F4.0°C 11.1°F-11.6°C 31% 11.4 mph N18.3 kmh N 19.1 mph30.7 kmh 30.20 in1022.7 mb 0.00 in0.0 mm 0.00 in0.0 mm 0.22 in5.6 mm
02:17 PM 39.2°F4.0°C 11.8°F-11.2°C 32% 13.5 mph NNE21.7 kmh NNE 19.1 mph30.7 kmh 30.21 in1023.0 mb 0.00 in0.0 mm 0.00 in0.0 mm 0.22 in5.6 mm
02:18 PM 39.2°F4.0°C 11.8°F-11.2°C 32% 8.9 mph NW14.3 kmh NW 19.1 mph30.7 kmh 30.21 in1023.0 mb 0.00 in0.0 mm 0.00 in0.0 mm 0.22 in5.6 mm
02:19 PM 39.6°F4.2°C 12.9°F-10.6°C 33% 13.5 mph NNE21.7 kmh NNE 19.1 mph30.7 kmh 30.21 in1023.0 mb 0.00 in0.0 mm 0.00 in0.0 mm 0.22 in5.6 mm
02:20 PM 39.6°F4.2°C 12.9°F-10.6°C 33% 11.9 mph WSW19.2 kmh WSW 19.1 mph30.7 kmh 30.21 in1023.0 mb 0.00 in0.0 mm 0.00 in0.0 mm 0.22 in5.6 mm
02:21 PM 39.6°F4.2°C 12.9°F-10.6°C 33% 8.3 mph W13.4 kmh W 19.1 mph30.7 kmh 30.21 in1023.0 mb 0.00 in0.0 mm 0.00 in0.0 mm 0.22 in5.6 mm
02:22 PM 39.4°F4.1°C 12.7°F-10.7°C 33% 9.4 mph W15.1 kmh W 19.1 mph30.7 kmh 30.21 in1023.0 mb 0.00 in0.0 mm 0.00 in0.0 mm 0.22 in5.6 mm
02:28 PM 39.2°F4.0°C 11.1°F-11.6°C 31% 9.9 mph W15.9 kmh W 13.5 mph21.7 kmh 30.21 in1023.0 mb 0.00 in0.0 mm 0.00 in0.0 mm 0.22 in5.6 mm
02:29 PM 39.0°F3.9°C 11.7°F-11.3°C 32% 9.4 mph WSW15.1 kmh WSW 13.5 mph21.7 kmh 30.21 in1023.0 mb 0.00 in0.0 mm 0.00 in0.0 mm 0.22 in5.6 mm
02:30 PM 39.2°F4.0°C 11.8°F-11.2°C 32% 7.8 mph W12.6 kmh W 12.5 mph20.1 kmh 30.21 in1023.0 mb 0.00 in0.0 mm 0.00 in0.0 mm 0.22 in5.6 mm
02:31 PM 39.6°F4.2°C 12.2°F-11.0°C 32% 12.5 mph W20.1 kmh W 12.5 mph20.1 kmh 30.21 in1023.0 mb 0.00 in0.0 mm 0.00 in0.0 mm 0.22 in5.6 mm
02:32 PM 39.6°F4.2°C 11.5°F-11.4°C 31% 11.9 mph NNW19.2 kmh NNW 14.5 mph23.3 kmh 30.21 in1023.0 mb 0.00 in0.0 mm 0.00 in0.0 mm 0.22 in5.6 mm
02:33 PM 39.2°F4.0°C 11.1°F-11.6°C 31% 11.4 mph ENE18.3 kmh ENE 14.5 mph23.3 kmh 30.21 in1023.0 mb 0.00 in0.0 mm 0.00 in0.0 mm 0.22 in5.6 mm
02:34 PM 39.2°F4.0°C 11.1°F-11.6°C 31% 16.1 mph NNE25.9 kmh NNE 16.6 mph26.7 kmh 30.21 in1023.0 mb 0.00 in0.0 mm 0.00 in0.0 mm 0.22 in5.6 mm
02:35 PM 39.2°F4.0°C 11.1°F-11.6°C 31% 27.9 mph N44.9 kmh N 27.9 mph44.9 kmh 30.21 in1023.0 mb 0.01 in0.3 mm 0.60 in15.2 mm 0.23 in5.8 mm
02:36 PM 38.7°F3.7°C 10.0°F-12.2°C 30% 21.2 mph NNE34.1 kmh NNE 27.9 mph44.9 kmh 30.21 in1023.0 mb 0.01 in0.3 mm 0.00 in0.0 mm 0.23 in5.8 mm
02:37 PM 38.5°F3.6°C 9.8°F-12.3°C 30% 18.6 mph N29.9 kmh N 27.9 mph44.9 kmh 30.21 in1023.0 mb 0.01 in0.3 mm 0.00 in0.0 mm 0.23 in5.8 mm
02:38 PM 38.3°F3.5°C 8.9°F-12.8°C 29% 17.6 mph NNW28.3 kmh NNW 27.9 mph44.9 kmh 30.21 in1023.0 mb 0.01 in0.3 mm 0.00 in0.0 mm 0.23 in5.8 mm
02:39 PM 37.9°F3.3°C 8.5°F-13.1°C 29% 12.5 mph NNE20.1 kmh NNE 27.9 mph44.9 kmh 30.21 in1023.0 mb 0.01 in0.3 mm 0.00 in0.0 mm 0.23 in5.8 mm
02:40 PM 37.9°F3.3°C 8.5°F-13.1°C 29% 18.6 mph SSW29.9 kmh SSW 27.9 mph44.9 kmh 30.21 in1023.0 mb 0.01 in0.3 mm 0.00 in0.0 mm 0.23 in5.8 mm
02:41 PM 37.9°F3.3°C 8.5°F-13.1°C 29% 16.1 mph N25.9 kmh N 27.9 mph44.9 kmh 30.22 in1023.4 mb 0.01 in0.3 mm 0.00 in0.0 mm 0.23 in5.8 mm
02:42 PM 37.9°F3.3°C 8.5°F-13.1°C 29% 20.2 mph W32.5 kmh W 27.9 mph44.9 kmh 30.22 in1023.4 mb 0.01 in0.3 mm 0.00 in0.0 mm 0.23 in5.8 mm
02:43 PM 37.9°F3.3°C 8.5°F-13.1°C 29% 14.5 mph N23.3 kmh N 27.9 mph44.9 kmh 30.22 in1023.4 mb 0.01 in0.3 mm 0.00 in0.0 mm 0.23 in5.8 mm
02:44 PM 37.8°F3.2°C 8.4°F-13.1°C 29% 13.0 mph NNW20.9 kmh NNW 27.9 mph44.9 kmh 30.22 in1023.4 mb 0.01 in0.3 mm 0.00 in0.0 mm 0.23 in5.8 mm
02:45 PM 37.8°F3.2°C 7.7°F-13.5°C 28% 11.4 mph NNW18.3 kmh NNW 21.7 mph34.9 kmh 30.22 in1023.4 mb 0.01 in0.3 mm 0.00 in0.0 mm 0.23 in5.8 mm
02:46 PM 37.8°F3.2°C 8.4°F-13.1°C 29% 10.4 mph NW16.7 kmh NW 21.7 mph34.9 kmh 30.22 in1023.4 mb 0.01 in0.3 mm 0.00 in0.0 mm 0.23 in5.8 mm
02:47 PM 38.1°F3.4°C 10.2°F-12.1°C 31% 12.5 mph NNE20.1 kmh NNE 21.7 mph34.9 kmh 30.22 in1023.4 mb 0.01 in0.3 mm 0.00 in0.0 mm 0.23 in5.8 mm
02:48 PM 38.3°F3.5°C 9.6°F-12.4°C 30% 14.0 mph NW22.5 kmh NW 21.7 mph34.9 kmh 30.22 in1023.4 mb 0.01 in0.3 mm 0.00 in0.0 mm 0.23 in5.8 mm
02:49 PM 38.3°F3.5°C 9.6°F-12.4°C 30% 18.6 mph NE29.9 kmh NE 21.7 mph34.9 kmh 30.22 in1023.4 mb 0.01 in0.3 mm 0.00 in0.0 mm 0.23 in5.8 mm
02:50 PM 38.3°F3.5°C 9.6°F-12.4°C 30% 18.6 mph WSW29.9 kmh WSW 21.7 mph34.9 kmh 30.22 in1023.4 mb 0.01 in0.3 mm 0.00 in0.0 mm 0.23 in5.8 mm
02:51 PM 38.3°F3.5°C 9.6°F-12.4°C 30% 11.9 mph W19.2 kmh W 20.2 mph32.5 kmh 30.22 in1023.4 mb 0.01 in0.3 mm 0.00 in0.0 mm 0.23 in5.8 mm
02:52 PM 37.8°F3.2°C 7.7°F-13.5°C 28% 15.0 mph WNW24.1 kmh WNW 20.2 mph32.5 kmh 30.22 in1023.4 mb 0.01 in0.3 mm 0.00 in0.0 mm 0.23 in5.8 mm
02:53 PM 37.8°F3.2°C 7.7°F-13.5°C 28% 16.1 mph NE25.9 kmh NE 20.2 mph32.5 kmh 30.23 in1023.7 mb 0.01 in0.3 mm 0.00 in0.0 mm 0.23 in5.8 mm
02:54 PM 37.6°F3.1°C 6.7°F-14.1°C 27% 11.4 mph NNE18.3 kmh NNE 20.2 mph32.5 kmh 30.23 in1023.7 mb 0.01 in0.3 mm 0.00 in0.0 mm 0.23 in5.8 mm
02:55 PM 37.2°F2.9°C 6.3°F-14.3°C 27% 15.5 mph WSW24.9 kmh WSW 19.1 mph30.7 kmh 30.23 in1023.7 mb 0.01 in0.3 mm 0.00 in0.0 mm 0.23 in5.8 mm
02:56 PM 37.4°F3.0°C 6.5°F-14.2°C 27% 15.0 mph W24.1 kmh W 19.1 mph30.7 kmh 30.23 in1023.7 mb 0.01 in0.3 mm 0.00 in0.0 mm 0.23 in5.8 mm
02:57 PM 37.4°F3.0°C 6.5°F-14.2°C 27% 11.9 mph W19.2 kmh W 19.1 mph30.7 kmh 30.23 in1023.7 mb 0.01 in0.3 mm 0.00 in0.0 mm 0.23 in5.8 mm
02:58 PM 37.4°F3.0°C 7.3°F-13.7°C 28% 18.1 mph N29.1 kmh N 19.1 mph30.7 kmh 30.23 in1023.7 mb 0.01 in0.3 mm 0.00 in0.0 mm 0.23 in5.8 mm
02:59 PM 37.4°F3.0°C 7.3°F-13.7°C 28% 16.6 mph NW26.7 kmh NW 19.1 mph30.7 kmh 30.23 in1023.7 mb 0.01 in0.3 mm 0.00 in0.0 mm 0.23 in5.8 mm
03:00 PM 37.4°F3.0°C 7.3°F-13.7°C 28% 13.5 mph W21.7 kmh W 19.1 mph30.7 kmh 30.23 in1023.7 mb 0.01 in0.3 mm 0.00 in0.0 mm 0.23 in5.8 mm
03:01 PM 37.4°F3.0°C 7.3°F-13.7°C 28% 13.0 mph W20.9 kmh W 19.1 mph30.7 kmh 30.23 in1023.7 mb 0.01 in0.3 mm 0.00 in0.0 mm 0.23 in5.8 mm
03:02 PM 37.4°F3.0°C 7.3°F-13.7°C 28% 11.9 mph W19.2 kmh W 18.1 mph29.1 kmh 30.23 in1023.7 mb 0.01 in0.3 mm 0.00 in0.0 mm 0.23 in5.8 mm
03:03 PM 37.6°F3.1°C 8.3°F-13.2°C 29% 7.3 mph W11.7 kmh W 18.1 mph29.1 kmh 30.23 in1023.7 mb 0.01 in0.3 mm 0.00 in0.0 mm 0.23 in5.8 mm
03:04 PM 37.6°F3.1°C 8.3°F-13.2°C 29% 16.6 mph NNE26.7 kmh NNE 18.1 mph29.1 kmh 30.23 in1023.7 mb 0.01 in0.3 mm 0.00 in0.0 mm 0.23 in5.8 mm
03:05 PM 37.6°F3.1°C 8.3°F-13.2°C 29% 8.3 mph NNE13.4 kmh NNE 18.1 mph29.1 kmh 30.24 in1024.0 mb 0.01 in0.3 mm 0.00 in0.0 mm 0.23 in5.8 mm
03:06 PM 37.6°F3.1°C 9.0°F-12.8°C 30% 14.0 mph W22.5 kmh W 18.1 mph29.1 kmh 30.24 in1024.0 mb 0.01 in0.3 mm 0.00 in0.0 mm 0.23 in5.8 mm
03:07 PM 37.6°F3.1°C 8.3°F-13.2°C 29% 8.9 mph NNW14.3 kmh NNW 18.1 mph29.1 kmh 30.24 in1024.0 mb 0.01 in0.3 mm 0.00 in0.0 mm 0.23 in5.8 mm
03:08 PM 37.8°F3.2°C 8.4°F-13.1°C 29% 7.8 mph W12.6 kmh W 16.6 mph26.7 kmh 30.24 in1024.0 mb 0.01 in0.3 mm 0.00 in0.0 mm 0.23 in5.8 mm
03:09 PM 37.8°F3.2°C 8.4°F-13.1°C 29% 11.4 mph NNE18.3 kmh NNE 16.6 mph26.7 kmh 30.24 in1024.0 mb 0.01 in0.3 mm 0.00 in0.0 mm 0.23 in5.8 mm
03:10 PM 37.8°F3.2°C 8.4°F-13.1°C 29% 12.5 mph NNW20.1 kmh NNW 16.6 mph26.7 kmh 30.24 in1024.0 mb 0.01 in0.3 mm 0.00 in0.0 mm 0.23 in5.8 mm
03:11 PM 37.6°F3.1°C 9.0°F-12.8°C 30% 10.4 mph WNW16.7 kmh WNW 16.6 mph26.7 kmh 30.24 in1024.0 mb 0.01 in0.3 mm 0.00 in0.0 mm 0.23 in5.8 mm
03:12 PM 37.6°F3.1°C 9.0°F-12.8°C 30% 15.0 mph NNE24.1 kmh NNE 16.6 mph26.7 kmh 30.24 in1024.0 mb 0.01 in0.3 mm 0.00 in0.0 mm 0.23 in5.8 mm
03:13 PM 37.6°F3.1°C 9.0°F-12.8°C 30% 15.0 mph NNE24.1 kmh NNE 16.6 mph26.7 kmh 30.24 in1024.0 mb 0.01 in0.3 mm 0.00 in0.0 mm 0.23 in5.8 mm
03:18 PM 37.6°F3.1°C 9.0°F-12.8°C 30% 9.4 mph W15.1 kmh W 15.0 mph24.1 kmh 30.24 in1024.0 mb 0.01 in0.3 mm 0.00 in0.0 mm 0.23 in5.8 mm
03:19 PM 37.8°F3.2°C 9.9°F-12.3°C 31% 13.0 mph NNW20.9 kmh NNW 15.0 mph24.1 kmh 30.24 in1024.0 mb 0.01 in0.3 mm 0.00 in0.0 mm 0.23 in5.8 mm
03:20 PM 37.6°F3.1°C 9.7°F-12.4°C 31% 11.4 mph W18.3 kmh W 15.0 mph24.1 kmh 30.24 in1024.0 mb 0.01 in0.3 mm 0.00 in0.0 mm 0.23 in5.8 mm
03:21 PM 37.8°F3.2°C 10.6°F-11.9°C 32% 6.8 mph WNW10.9 kmh WNW 15.0 mph24.1 kmh 30.24 in1024.0 mb 0.01 in0.3 mm 0.00 in0.0 mm 0.23 in5.8 mm
03:22 PM 37.9°F3.3°C 10.7°F-11.8°C 32% 7.3 mph N11.7 kmh N 15.0 mph24.1 kmh 30.24 in1024.0 mb 0.01 in0.3 mm 0.00 in0.0 mm 0.23 in5.8 mm
03:23 PM 37.8°F3.2°C 10.6°F-11.9°C 32% 12.5 mph NNW20.1 kmh NNW 13.0 mph20.9 kmh 30.24 in1024.0 mb 0.01 in0.3 mm 0.00 in0.0 mm 0.23 in5.8 mm
03:24 PM 37.8°F3.2°C 10.6°F-11.9°C 32% 5.8 mph SW9.3 kmh SW 13.0 mph20.9 kmh 30.24 in1024.0 mb 0.01 in0.3 mm 0.00 in0.0 mm 0.23 in5.8 mm
03:25 PM 37.8°F3.2°C 10.6°F-11.9°C 32% 10.4 mph W16.7 kmh W 13.0 mph20.9 kmh 30.24 in1024.0 mb 0.01 in0.3 mm 0.00 in0.0 mm 0.23 in5.8 mm
03:26 PM 37.9°F3.3°C 10.0°F-12.2°C 31% 9.9 mph W15.9 kmh W 15.0 mph24.1 kmh 30.24 in1024.0 mb 0.01 in0.3 mm 0.00 in0.0 mm 0.23 in5.8 mm
03:27 PM 38.1°F3.4°C 10.2°F-12.1°C 31% 6.8 mph W10.9 kmh W 15.0 mph24.1 kmh 30.24 in1024.0 mb 0.01 in0.3 mm 0.00 in0.0 mm 0.23 in5.8 mm
03:28 PM 38.1°F3.4°C 10.2°F-12.1°C 31% 8.3 mph NNE13.4 kmh NNE 15.0 mph24.1 kmh 30.24 in1024.0 mb 0.01 in0.3 mm 0.00 in0.0 mm 0.23 in5.8 mm
03:29 PM 38.1°F3.4°C 10.2°F-12.1°C 31% 10.4 mph NNE16.7 kmh NNE 15.0 mph24.1 kmh 30.25 in1024.4 mb 0.01 in0.3 mm 0.00 in0.0 mm 0.23 in5.8 mm
03:30 PM 38.1°F3.4°C 10.2°F-12.1°C 31% 14.0 mph N22.5 kmh N 15.0 mph24.1 kmh 30.25 in1024.4 mb 0.01 in0.3 mm 0.00 in0.0 mm 0.23 in5.8 mm
03:31 PM 37.9°F3.3°C 10.0°F-12.2°C 31% 11.4 mph WNW18.3 kmh WNW 15.0 mph24.1 kmh 30.25 in1024.4 mb 0.01 in0.3 mm 0.00 in0.0 mm 0.23 in5.8 mm
03:32 PM 37.9°F3.3°C 10.0°F-12.2°C 31% 13.0 mph WNW20.9 kmh WNW 15.0 mph24.1 kmh 30.25 in1024.4 mb 0.01 in0.3 mm 0.00 in0.0 mm 0.23 in5.8 mm
03:33 PM 37.6°F3.1°C 9.7°F-12.4°C 31% 9.4 mph SW15.1 kmh SW 15.0 mph24.1 kmh 30.25 in1024.4 mb 0.01 in0.3 mm 0.00 in0.0 mm 0.23 in5.8 mm
03:34 PM 37.6°F3.1°C 10.4°F-12.0°C 32% 9.4 mph WNW15.1 kmh WNW 15.0 mph24.1 kmh 30.25 in1024.4 mb 0.01 in0.3 mm 0.00 in0.0 mm 0.23 in5.8 mm
03:35 PM 37.6°F3.1°C 10.4°F-12.0°C 32% 9.9 mph NNW15.9 kmh NNW 15.0 mph24.1 kmh 30.25 in1024.4 mb 0.00 in0.0 mm 0.00 in0.0 mm 0.23 in5.8 mm
03:36 PM 37.6°F3.1°C 10.4°F-12.0°C 32% 8.3 mph SW13.4 kmh SW 14.0 mph22.5 kmh 30.25 in1024.4 mb 0.00 in0.0 mm 0.00 in0.0 mm 0.23 in5.8 mm
03:37 PM 37.6°F3.1°C 10.4°F-12.0°C 32% 6.8 mph NNW10.9 kmh NNW 14.0 mph22.5 kmh 30.25 in1024.4 mb 0.00 in0.0 mm 0.00 in0.0 mm 0.23 in5.8 mm
03:38 PM 37.6°F3.1°C 11.1°F-11.6°C 33% 10.4 mph NW16.7 kmh NW 14.0 mph22.5 kmh 30.25 in1024.4 mb 0.00 in0.0 mm 0.00 in0.0 mm 0.23 in5.8 mm
03:39 PM 37.6°F3.1°C 10.4°F-12.0°C 32% 11.9 mph N19.2 kmh N 16.1 mph25.9 kmh 30.25 in1024.4 mb 0.00 in0.0 mm 0.00 in0.0 mm 0.23 in5.8 mm
03:40 PM 37.8°F3.2°C 11.3°F-11.5°C 33% 5.8 mph W9.3 kmh W 16.1 mph25.9 kmh 30.25 in1024.4 mb 0.00 in0.0 mm 0.00 in0.0 mm 0.23 in5.8 mm
03:41 PM 37.6°F3.1°C 11.1°F-11.6°C 33% 8.9 mph NW14.3 kmh NW 16.1 mph25.9 kmh 30.26 in1024.7 mb 0.00 in0.0 mm 0.00 in0.0 mm 0.23 in5.8 mm
03:42 PM 37.4°F3.0°C 10.3°F-12.1°C 32% 14.0 mph WNW22.5 kmh WNW 16.1 mph25.9 kmh 30.26 in1024.7 mb 0.00 in0.0 mm 0.00 in0.0 mm 0.23 in5.8 mm
03:43 PM 37.4°F3.0°C 9.6°F-12.4°C 31% 12.5 mph NNW20.1 kmh NNW 16.1 mph25.9 kmh 30.26 in1024.7 mb 0.00 in0.0 mm 0.00 in0.0 mm 0.23 in5.8 mm
03:44 PM 37.4°F3.0°C 9.6°F-12.4°C 31% 11.9 mph W19.2 kmh W 16.1 mph25.9 kmh 30.26 in1024.7 mb 0.00 in0.0 mm 0.00 in0.0 mm 0.23 in5.8 mm
03:45 PM 37.4°F3.0°C 9.6°F-12.4°C 31% 8.3 mph WNW13.4 kmh WNW 16.1 mph25.9 kmh 30.26 in1024.7 mb 0.00 in0.0 mm 0.00 in0.0 mm 0.23 in5.8 mm
03:46 PM 37.4°F3.0°C 10.3°F-12.1°C 32% 8.3 mph WNW13.4 kmh WNW 16.1 mph25.9 kmh 30.26 in1024.7 mb 0.00 in0.0 mm 0.00 in0.0 mm 0.23 in5.8 mm
03:47 PM 37.6°F3.1°C 10.4°F-12.0°C 32% 5.3 mph W8.5 kmh W 16.1 mph25.9 kmh 30.26 in1024.7 mb 0.00 in0.0 mm 0.00 in0.0 mm 0.23 in5.8 mm
03:48 PM 37.9°F3.3°C 10.7°F-11.8°C 32% 7.8 mph N12.6 kmh N 16.1 mph25.9 kmh 30.26 in1024.7 mb 0.00 in0.0 mm 0.00 in0.0 mm 0.23 in5.8 mm
03:49 PM 37.9°F3.3°C 11.4°F-11.4°C 33% 7.8 mph SW12.6 kmh SW 14.5 mph23.3 kmh 30.26 in1024.7 mb 0.00 in0.0 mm 0.00 in0.0 mm 0.23 in5.8 mm
03:50 PM 37.4°F3.0°C 9.6°F-12.4°C 31% 11.4 mph W18.3 kmh W 16.1 mph25.9 kmh 30.26 in1024.7 mb 0.00 in0.0 mm 0.00 in0.0 mm 0.23 in5.8 mm
03:51 PM 37.0°F2.8°C 9.2°F-12.7°C 31% 14.0 mph W22.5 kmh W 16.1 mph25.9 kmh 30.26 in1024.7 mb 0.00 in0.0 mm 0.00 in0.0 mm 0.23 in5.8 mm
03:52 PM 36.9°F2.7°C 9.1°F-12.7°C 31% 12.5 mph WNW20.1 kmh WNW 17.1 mph27.5 kmh 30.26 in1024.7 mb 0.00 in0.0 mm 0.00 in0.0 mm 0.23 in5.8 mm
03:53 PM 36.9°F2.7°C 9.1°F-12.7°C 31% 14.0 mph NNW22.5 kmh NNW 17.1 mph27.5 kmh 30.27 in1025.1 mb 0.00 in0.0 mm 0.00 in0.0 mm 0.23 in5.8 mm
03:54 PM 36.9°F2.7°C 9.1°F-12.7°C 31% 9.4 mph W15.1 kmh W 17.1 mph27.5 kmh 30.27 in1025.1 mb 0.00 in0.0 mm 0.00 in0.0 mm 0.23 in5.8 mm
03:55 PM 36.9°F2.7°C 9.1°F-12.7°C 31% 11.9 mph WSW19.2 kmh WSW 17.1 mph27.5 kmh 30.27 in1025.1 mb 0.00 in0.0 mm 0.00 in0.0 mm 0.23 in5.8 mm
03:56 PM 36.7°F2.6°C 9.7°F-12.4°C 32% 11.9 mph NW19.2 kmh NW 17.1 mph27.5 kmh 30.27 in1025.1 mb 0.00 in0.0 mm 0.00 in0.0 mm 0.23 in5.8 mm
03:57 PM 36.7°F2.6°C 9.7°F-12.4°C 32% 7.8 mph NNE12.6 kmh NNE 17.1 mph27.5 kmh 30.27 in1025.1 mb 0.00 in0.0 mm 0.00 in0.0 mm 0.23 in5.8 mm
03:58 PM 36.7°F2.6°C 9.7°F-12.4°C 32% 9.4 mph W15.1 kmh W 17.1 mph27.5 kmh 30.27 in1025.1 mb 0.00 in0.0 mm 0.00 in0.0 mm 0.23 in5.8 mm
03:59 PM 36.9°F2.7°C 9.8°F-12.3°C 32% 7.3 mph W11.7 kmh W 17.1 mph27.5 kmh 30.27 in1025.1 mb 0.00 in0.0 mm 0.00 in0.0 mm 0.23 in5.8 mm
04:00 PM 36.7°F2.6°C 9.7°F-12.4°C 32% 13.5 mph ENE21.7 kmh ENE 17.1 mph27.5 kmh 30.27 in1025.1 mb 0.00 in0.0 mm 0.00 in0.0 mm 0.23 in5.8 mm
04:01 PM 36.9°F2.7°C 9.1°F-12.7°C 31% 6.3 mph WNW10.1 kmh WNW 17.1 mph27.5 kmh 30.27 in1025.1 mb 0.00 in0.0 mm 0.00 in0.0 mm 0.23 in5.8 mm
04:02 PM 36.9°F2.7°C 9.1°F-12.7°C 31% 11.9 mph WSW19.2 kmh WSW 14.0 mph22.5 kmh 30.27 in1025.1 mb 0.00 in0.0 mm 0.00 in0.0 mm 0.23 in5.8 mm
04:03 PM 36.9°F2.7°C 9.8°F-12.3°C 32% 14.0 mph NNE22.5 kmh NNE 14.0 mph22.5 kmh 30.27 in1025.1 mb 0.00 in0.0 mm 0.00 in0.0 mm 0.23 in5.8 mm
04:04 PM 36.9°F2.7°C 9.8°F-12.3°C 32% 8.9 mph N14.3 kmh N 14.0 mph22.5 kmh 30.27 in1025.1 mb 0.00 in0.0 mm 0.00 in0.0 mm 0.23 in5.8 mm
04:05 PM 36.9°F2.7°C 9.8°F-12.3°C 32% 6.8 mph E10.9 kmh E 14.0 mph22.5 kmh 30.27 in1025.1 mb 0.00 in0.0 mm 0.00 in0.0 mm 0.23 in5.8 mm
04:06 PM 37.0°F2.8°C 9.9°F-12.3°C 32% 10.4 mph N16.7 kmh N 14.0 mph22.5 kmh 30.27 in1025.1 mb 0.00 in0.0 mm 0.00 in0.0 mm 0.23 in5.8 mm
04:07 PM 36.9°F2.7°C 9.1°F-12.7°C 31% 8.9 mph W14.3 kmh W 14.0 mph22.5 kmh 30.27 in1025.1 mb 0.00 in0.0 mm 0.00 in0.0 mm 0.23 in5.8 mm
04:08 PM 36.9°F2.7°C 9.1°F-12.7°C 31% 5.3 mph W8.5 kmh W 14.0 mph22.5 kmh 30.27 in1025.1 mb 0.00 in0.0 mm 0.00 in0.0 mm 0.23 in5.8 mm
04:09 PM 37.0°F2.8°C 9.9°F-12.3°C 32% 9.9 mph WSW15.9 kmh WSW 14.0 mph22.5 kmh 30.27 in1025.1 mb 0.00 in0.0 mm 0.00 in0.0 mm 0.23 in5.8 mm
04:10 PM 37.0°F2.8°C 9.9°F-12.3°C 32% 11.9 mph N19.2 kmh N 14.0 mph22.5 kmh 30.27 in1025.1 mb 0.00 in0.0 mm 0.00 in0.0 mm 0.23 in5.8 mm
04:11 PM 36.9°F2.7°C 9.1°F-12.7°C 31% 9.9 mph N15.9 kmh N 14.0 mph22.5 kmh 30.27 in1025.1 mb 0.00 in0.0 mm 0.00 in0.0 mm 0.23 in5.8 mm
04:12 PM 37.0°F2.8°C 9.2°F-12.7°C 31% 6.3 mph W10.1 kmh W 14.0 mph22.5 kmh 30.27 in1025.1 mb 0.00 in0.0 mm 0.00 in0.0 mm 0.23 in5.8 mm
04:13 PM 37.0°F2.8°C 9.2°F-12.7°C 31% 5.3 mph WSW8.5 kmh WSW 14.0 mph22.5 kmh 30.27 in1025.1 mb 0.00 in0.0 mm 0.00 in0.0 mm 0.23 in5.8 mm
04:14 PM 37.0°F2.8°C 9.2°F-12.7°C 31% 8.9 mph W14.3 kmh W 13.5 mph21.7 kmh 30.27 in1025.1 mb 0.00 in0.0 mm 0.00 in0.0 mm 0.23 in5.8 mm
04:15 PM 36.7°F2.6°C 8.2°F-13.2°C 30% 11.4 mph NNW18.3 kmh NNW 13.5 mph21.7 kmh 30.27 in1025.1 mb 0.00 in0.0 mm 0.00 in0.0 mm 0.23 in5.8 mm
04:16 PM 36.7°F2.6°C 8.2°F-13.2°C 30% 9.9 mph W15.9 kmh W 13.5 mph21.7 kmh 30.27 in1025.1 mb 0.00 in0.0 mm 0.00 in0.0 mm 0.23 in5.8 mm
04:17 PM 36.7°F2.6°C 8.2°F-13.2°C 30% 7.8 mph W12.6 kmh W 13.5 mph21.7 kmh 30.27 in1025.1 mb 0.00 in0.0 mm 0.00 in0.0 mm 0.23 in5.8 mm
04:18 PM 36.7°F2.6°C 8.2°F-13.2°C 30% 8.3 mph W13.4 kmh W 14.5 mph23.3 kmh 30.28 in1025.4 mb 0.00 in0.0 mm 0.00 in0.0 mm 0.23 in5.8 mm
04:19 PM 36.3°F2.4°C 7.9°F-13.4°C 30% 7.8 mph NW12.6 kmh NW 15.0 mph24.1 kmh 30.28 in1025.4 mb 0.00 in0.0 mm 0.00 in0.0 mm 0.23 in5.8 mm
04:20 PM 36.3°F2.4°C 7.9°F-13.4°C 30% 7.3 mph W11.7 kmh W 15.0 mph24.1 kmh 30.28 in1025.4 mb 0.00 in0.0 mm 0.00 in0.0 mm 0.23 in5.8 mm
04:21 PM 36.3°F2.4°C 7.9°F-13.4°C 30% 10.9 mph NW17.5 kmh NW 15.0 mph24.1 kmh 30.28 in1025.4 mb 0.00 in0.0 mm 0.00 in0.0 mm 0.23 in5.8 mm
04:23 PM 36.3°F2.4°C 7.9°F-13.4°C 30% 8.9 mph NW14.3 kmh NW 15.0 mph24.1 kmh 30.28 in1025.4 mb 0.00 in0.0 mm 0.00 in0.0 mm 0.23 in5.8 mm
05:24 PM 36.3°F2.4°C 7.9°F-13.4°C 30% 6.8 mph NNW10.9 kmh NNW -- 30.28 in1025.4 mb 0.00 in0.0 mm 0.00 in0.0 mm 0.23 in5.8 mm
05:25 PM 36.1°F2.3°C 9.8°F-12.3°C 33% 9.4 mph NE15.1 kmh NE -- 30.29 in1025.7 mb 0.00 in0.0 mm 0.00 in0.0 mm 0.23 in5.8 mm
05:26 PM 34.5°F1.4°C 9.7°F-12.4°C 35% 6.8 mph NNW10.9 kmh NNW -- 30.30 in1026.1 mb 0.00 in0.0 mm 0.00 in0.0 mm 0.23 in5.8 mm
05:27 PM 34.2°F1.2°C 9.4°F-12.6°C 35% 8.3 mph WNW13.4 kmh WNW -- 30.31 in1026.4 mb 0.00 in0.0 mm 0.00 in0.0 mm 0.23 in5.8 mm
05:28 PM 33.4°F0.8°C 8.7°F-12.9°C 35% 8.9 mph WNW14.3 kmh WNW -- 30.31 in1026.4 mb 0.00 in0.0 mm 0.00 in0.0 mm 0.23 in5.8 mm
05:29 PM 33.4°F0.8°C 8.7°F-12.9°C 35% 7.8 mph WNW12.6 kmh WNW -- 30.31 in1026.4 mb 0.00 in0.0 mm 0.00 in0.0 mm 0.23 in5.8 mm
05:40 PM 33.4°F0.8°C 8.7°F-12.9°C 35% 7.8 mph NNE12.6 kmh NNE -- 30.31 in1026.4 mb 0.00 in0.0 mm 0.00 in0.0 mm 0.23 in5.8 mm
06:03 PM 30.6°F-0.8°C 8.0°F-13.3°C 38% 4.2 mph NNE6.8 kmh NNE -- 30.34 in1027.4 mb 0.00 in0.0 mm 0.00 in0.0 mm 0.23 in5.8 mm
06:04 PM 30.4°F-0.9°C 7.9°F-13.4°C 38% 3.2 mph NNE5.1 kmh NNE -- 30.34 in1027.4 mb 0.00 in0.0 mm 0.00 in0.0 mm 0.23 in5.8 mm
06:06 PM 30.4°F-0.9°C 7.9°F-13.4°C 38% 4.2 mph NNE6.8 kmh NNE -- 30.34 in1027.4 mb 0.00 in0.0 mm 0.00 in0.0 mm 0.23 in5.8 mm
06:08 PM 30.2°F-1.0°C 7.1°F-13.8°C 37% 8.9 mph NE14.3 kmh NE -- 30.35 in1027.8 mb 0.00 in0.0 mm 0.00 in0.0 mm 0.23 in5.8 mm
06:09 PM 30.2°F-1.0°C 7.1°F-13.8°C 37% 5.3 mph NE8.5 kmh NE 5.3 mph8.5 kmh 30.35 in1027.8 mb 0.00 in0.0 mm 0.00 in0.0 mm 0.23 in5.8 mm
06:11 PM 30.2°F-1.0°C 7.7°F-13.5°C 38% 3.7 mph NE6.0 kmh NE 5.3 mph8.5 kmh 30.35 in1027.8 mb 0.00 in0.0 mm 0.00 in0.0 mm 0.23 in5.8 mm
06:12 PM 30.0°F-1.1°C 7.5°F-13.6°C 38% 7.8 mph NE12.6 kmh NE 7.8 mph12.6 kmh 30.35 in1027.8 mb 0.00 in0.0 mm 0.00 in0.0 mm 0.23 in5.8 mm
06:14 PM 30.0°F-1.1°C 7.5°F-13.6°C 38% 6.8 mph N10.9 kmh N 7.8 mph12.6 kmh 30.35 in1027.8 mb 0.00 in0.0 mm 0.00 in0.0 mm 0.23 in5.8 mm
06:15 PM 30.0°F-1.1°C 7.5°F-13.6°C 38% 4.7 mph NNW7.6 kmh NNW 7.8 mph12.6 kmh 30.35 in1027.8 mb 0.00 in0.0 mm 0.00 in0.0 mm 0.23 in5.8 mm
06:16 PM 30.0°F-1.1°C 6.9°F-13.9°C 37% 6.3 mph N10.1 kmh N 7.8 mph12.6 kmh 30.35 in1027.8 mb 0.00 in0.0 mm 0.00 in0.0 mm 0.23 in5.8 mm
06:17 PM 30.0°F-1.1°C 6.9°F-13.9°C 37% 2.7 mph NNE4.3 kmh NNE 7.8 mph12.6 kmh 30.35 in1027.8 mb 0.00 in0.0 mm 0.00 in0.0 mm 0.23 in5.8 mm
06:18 PM 30.6°F-0.8°C 7.5°F-13.6°C 37% 4.2 mph NNW6.8 kmh NNW -- 30.34 in1027.4 mb 0.00 in0.0 mm 0.00 in0.0 mm 0.23 in5.8 mm
06:19 PM 29.8°F-1.2°C 7.3°F-13.7°C 38% 4.7 mph NNE7.6 kmh NNE 8.9 mph14.3 kmh 30.36 in1028.1 mb 0.00 in0.0 mm 0.00 in0.0 mm 0.23 in5.8 mm
06:20 PM 29.8°F-1.2°C 6.7°F-14.1°C 37% 12.5 mph NNE20.1 kmh NNE 12.5 mph20.1 kmh 30.36 in1028.1 mb 0.00 in0.0 mm 0.00 in0.0 mm 0.23 in5.8 mm
06:21 PM 29.8°F-1.2°C 6.1°F-14.4°C 36% 6.3 mph NE10.1 kmh NE 12.5 mph20.1 kmh 30.36 in1028.1 mb 0.00 in0.0 mm 0.00 in0.0 mm 0.23 in5.8 mm
06:22 PM 29.8°F-1.2°C 6.7°F-14.1°C 37% 5.8 mph NNW9.3 kmh NNW 12.5 mph20.1 kmh 30.36 in1028.1 mb 0.00 in0.0 mm 0.00 in0.0 mm 0.23 in5.8 mm
06:23 PM 29.8°F-1.2°C 7.3°F-13.7°C 38% 7.8 mph NW12.6 kmh NW 12.5 mph20.1 kmh 30.36 in1028.1 mb 0.00 in0.0 mm 0.00 in0.0 mm 0.23 in5.8 mm
06:24 PM 29.8°F-1.2°C 7.3°F-13.7°C 38% 6.8 mph NNE10.9 kmh NNE 12.5 mph20.1 kmh 30.36 in1028.1 mb 0.00 in0.0 mm 0.00 in0.0 mm 0.23 in5.8 mm
06:25 PM 29.8°F-1.2°C 7.3°F-13.7°C 38% 5.3 mph NNE8.5 kmh NNE 12.5 mph20.1 kmh 30.36 in1028.1 mb 0.00 in0.0 mm 0.00 in0.0 mm 0.23 in5.8 mm
06:26 PM 29.8°F-1.2°C 7.3°F-13.7°C 38% 8.9 mph N14.3 kmh N 12.5 mph20.1 kmh 30.36 in1028.1 mb 0.00 in0.0 mm 0.00 in0.0 mm 0.23 in5.8 mm
06:27 PM 29.8°F-1.2°C 6.7°F-14.1°C 37% 7.8 mph NNE12.6 kmh NNE 12.5 mph20.1 kmh 30.36 in1028.1 mb 0.00 in0.0 mm 0.00 in0.0 mm 0.23 in5.8 mm
06:28 PM 29.8°F-1.2°C 6.7°F-14.1°C 37% 5.3 mph NNW8.5 kmh NNW 12.5 mph20.1 kmh 30.36 in1028.1 mb 0.00 in0.0 mm 0.00 in0.0 mm 0.23 in5.8 mm
06:29 PM 29.8°F-1.2°C 7.3°F-13.7°C 38% 4.7 mph N7.6 kmh N 12.5 mph20.1 kmh 30.36 in1028.1 mb 0.00 in0.0 mm 0.00 in0.0 mm 0.23 in5.8 mm
06:30 PM 29.8°F-1.2°C 7.3°F-13.7°C 38% 9.4 mph NW15.1 kmh NW 12.5 mph20.1 kmh 30.36 in1028.1 mb 0.00 in0.0 mm 0.00 in0.0 mm 0.23 in5.8 mm
06:31 PM 29.7°F-1.3°C 6.7°F-14.1°C 37% 3.7 mph NNE6.0 kmh NNE 9.4 mph15.1 kmh 30.36 in1028.1 mb 0.00 in0.0 mm 0.00 in0.0 mm 0.23 in5.8 mm
06:32 PM 29.7°F-1.3°C 6.7°F-14.1°C 37% 4.7 mph WNW7.6 kmh WNW 9.4 mph15.1 kmh 30.36 in1028.1 mb 0.00 in0.0 mm 0.00 in0.0 mm 0.23 in5.8 mm
06:33 PM 29.7°F-1.3°C 6.7°F-14.1°C 37% 6.3 mph NNW10.1 kmh NNW 9.4 mph15.1 kmh 30.36 in1028.1 mb 0.00 in0.0 mm 0.00 in0.0 mm 0.23 in5.8 mm
06:34 PM 29.7°F-1.3°C 6.7°F-14.1°C 37% 4.7 mph NNE7.6 kmh NNE 9.4 mph15.1 kmh 30.36 in1028.1 mb 0.00 in0.0 mm 0.00 in0.0 mm 0.23 in5.8 mm
06:35 PM 29.7°F-1.3°C 6.7°F-14.1°C 37% 5.3 mph NW8.5 kmh NW 9.4 mph15.1 kmh 30.36 in1028.1 mb 0.00 in0.0 mm 0.00 in0.0 mm 0.23 in5.8 mm
06:36 PM 29.5°F-1.4°C 7.6°F-13.6°C 39% 3.2 mph NE5.1 kmh NE 9.4 mph15.1 kmh 30.36 in1028.1 mb 0.00 in0.0 mm 0.00 in0.0 mm 0.23 in5.8 mm
06:37 PM 29.5°F-1.4°C 7.6°F-13.6°C 39% 3.7 mph NNE6.0 kmh NNE 9.4 mph15.1 kmh 30.36 in1028.1 mb 0.00 in0.0 mm 0.00 in0.0 mm 0.23 in5.8 mm
06:38 PM 29.5°F-1.4°C 7.6°F-13.6°C 39% 4.7 mph N7.6 kmh N 9.4 mph15.1 kmh 30.36 in1028.1 mb 0.00 in0.0 mm 0.00 in0.0 mm 0.23 in5.8 mm
06:39 PM 29.3°F-1.5°C 7.5°F-13.6°C 39% 4.7 mph N7.6 kmh N 9.4 mph15.1 kmh 30.36 in1028.1 mb 0.00 in0.0 mm 0.00 in0.0 mm 0.23 in5.8 mm
06:40 PM 29.3°F-1.5°C 7.5°F-13.6°C 39% 4.2 mph NNW6.8 kmh NNW 7.8 mph12.6 kmh 30.36 in1028.1 mb 0.00 in0.0 mm 0.00 in0.0 mm 0.23 in5.8 mm
06:41 PM 29.3°F-1.5°C 7.5°F-13.6°C 39% 5.8 mph NNE9.3 kmh NNE 7.8 mph12.6 kmh 30.37 in1028.4 mb 0.00 in0.0 mm 0.00 in0.0 mm 0.23 in5.8 mm
06:42 PM 29.3°F-1.5°C 7.5°F-13.6°C 39% 3.7 mph N6.0 kmh N 7.8 mph12.6 kmh 30.37 in1028.4 mb 0.00 in0.0 mm 0.00 in0.0 mm 0.23 in5.8 mm
06:43 PM 29.1°F-1.6°C 7.8°F-13.4°C 40% 6.8 mph NNE10.9 kmh NNE 7.8 mph12.6 kmh 30.37 in1028.4 mb 0.00 in0.0 mm 0.00 in0.0 mm 0.23 in5.8 mm
06:44 PM 29.1°F-1.6°C 7.3°F-13.7°C 39% 9.4 mph NE15.1 kmh NE 9.4 mph15.1 kmh 30.37 in1028.4 mb 0.00 in0.0 mm 0.00 in0.0 mm 0.23 in5.8 mm
06:45 PM 29.1°F-1.6°C 7.3°F-13.7°C 39% 5.8 mph NNE9.3 kmh NNE 9.4 mph15.1 kmh 30.37 in1028.4 mb 0.00 in0.0 mm 0.00 in0.0 mm 0.23 in5.8 mm
06:46 PM 29.1°F-1.6°C 7.8°F-13.4°C 40% 6.8 mph NW10.9 kmh NW 9.4 mph15.1 kmh 30.37 in1028.4 mb 0.00 in0.0 mm 0.00 in0.0 mm 0.23 in5.8 mm
06:47 PM 29.1°F-1.6°C 7.8°F-13.4°C 40% 6.3 mph NE10.1 kmh NE 9.4 mph15.1 kmh 30.37 in1028.4 mb 0.00 in0.0 mm 0.00 in0.0 mm 0.23 in5.8 mm
06:48 PM 29.1°F-1.6°C 7.8°F-13.4°C 40% 5.8 mph W9.3 kmh W 9.4 mph15.1 kmh 30.37 in1028.4 mb 0.00 in0.0 mm 0.00 in0.0 mm 0.23 in5.8 mm
06:49 PM 29.1°F-1.6°C 8.9°F-12.8°C 42% 4.7 mph NE7.6 kmh NE 9.4 mph15.1 kmh 30.37 in1028.4 mb 0.00 in0.0 mm 0.00 in0.0 mm 0.23 in5.8 mm
06:50 PM 29.1°F-1.6°C 8.9°F-12.8°C 42% 6.3 mph NNE10.1 kmh NNE 9.4 mph15.1 kmh 30.37 in1028.4 mb 0.00 in0.0 mm 0.00 in0.0 mm 0.23 in5.8 mm
06:51 PM 29.1°F-1.6°C 8.9°F-12.8°C 42% 6.8 mph NNE10.9 kmh NNE 9.4 mph15.1 kmh 30.37 in1028.4 mb 0.00 in0.0 mm 0.00 in0.0 mm 0.23 in5.8 mm
06:52 PM 29.1°F-1.6°C 8.9°F-12.8°C 42% 6.8 mph NNE10.9 kmh NNE 9.4 mph15.1 kmh 30.37 in1028.4 mb 0.00 in0.0 mm 0.00 in0.0 mm 0.23 in5.8 mm
06:53 PM 28.9°F-1.7°C 8.7°F-12.9°C 42% 7.8 mph W12.6 kmh W 9.4 mph15.1 kmh 30.38 in1028.8 mb 0.00 in0.0 mm 0.00 in0.0 mm 0.23 in5.8 mm
06:54 PM 28.9°F-1.7°C 8.7°F-12.9°C 42% 5.3 mph N8.5 kmh N 8.3 mph13.4 kmh 30.38 in1028.8 mb 0.00 in0.0 mm 0.00 in0.0 mm 0.23 in5.8 mm
06:55 PM 28.8°F-1.8°C 8.6°F-13.0°C 42% 10.4 mph NNE16.7 kmh NNE 11.4 mph18.3 kmh 30.38 in1028.8 mb 0.00 in0.0 mm 0.00 in0.0 mm 0.23 in5.8 mm
06:56 PM 28.8°F-1.8°C 8.6°F-13.0°C 42% 8.3 mph NNW13.4 kmh NNW 11.4 mph18.3 kmh 30.38 in1028.8 mb 0.00 in0.0 mm 0.00 in0.0 mm 0.23 in5.8 mm
06:57 PM 28.8°F-1.8°C 8.6°F-13.0°C 42% 8.3 mph NNW13.4 kmh NNW 11.4 mph18.3 kmh 30.38 in1028.8 mb 0.00 in0.0 mm 0.00 in0.0 mm 0.23 in5.8 mm
06:58 PM 28.6°F-1.9°C 9.5°F-12.5°C 44% 7.8 mph NNE12.6 kmh NNE 11.4 mph18.3 kmh 30.38 in1028.8 mb 0.00 in0.0 mm 0.00 in0.0 mm 0.23 in5.8 mm
06:59 PM 28.6°F-1.9°C 9.5°F-12.5°C 44% 5.3 mph NNE8.5 kmh NNE 11.4 mph18.3 kmh 30.38 in1028.8 mb 0.00 in0.0 mm 0.00 in0.0 mm 0.23 in5.8 mm
07:00 PM 28.6°F-1.9°C 9.5°F-12.5°C 44% 4.7 mph NE7.6 kmh NE 11.4 mph18.3 kmh 30.38 in1028.8 mb 0.00 in0.0 mm 0.00 in0.0 mm 0.23 in5.8 mm
07:01 PM 28.6°F-1.9°C 9.5°F-12.5°C 44% 4.7 mph NE7.6 kmh NE 11.4 mph18.3 kmh 30.38 in1028.8 mb 0.00 in0.0 mm 0.00 in0.0 mm 0.23 in5.8 mm
07:02 PM 28.4°F-2.0°C 9.3°F-12.6°C 44% 4.7 mph NNE7.6 kmh NNE 11.4 mph18.3 kmh 30.38 in1028.8 mb 0.00 in0.0 mm 0.00 in0.0 mm 0.23 in5.8 mm
07:03 PM 28.2°F-2.1°C 9.1°F-12.7°C 44% 9.4 mph NE15.1 kmh NE 11.4 mph18.3 kmh 30.38 in1028.8 mb 0.00 in0.0 mm 0.00 in0.0 mm 0.23 in5.8 mm
07:04 PM 28.2°F-2.1°C 9.1°F-12.7°C 44% 6.8 mph NNE10.9 kmh NNE 11.4 mph18.3 kmh 30.38 in1028.8 mb 0.00 in0.0 mm 0.00 in0.0 mm 0.23 in5.8 mm
07:05 PM 28.2°F-2.1°C 9.1°F-12.7°C 44% 6.8 mph NNE10.9 kmh NNE 10.4 mph16.7 kmh 30.39 in1029.1 mb 0.00 in0.0 mm 0.00 in0.0 mm 0.23 in5.8 mm
07:06 PM 28.2°F-2.1°C 9.6°F-12.4°C 45% 5.8 mph E9.3 kmh E 10.4 mph16.7 kmh 30.39 in1029.1 mb 0.00 in0.0 mm 0.00 in0.0 mm 0.23 in5.8 mm
07:07 PM 28.2°F-2.1°C 9.6°F-12.4°C 45% 6.8 mph N10.9 kmh N 10.4 mph16.7 kmh 30.39 in1029.1 mb 0.00 in0.0 mm 0.00 in0.0 mm 0.23 in5.8 mm
07:08 PM 28.0°F-2.2°C 9.4°F-12.6°C 45% 7.8 mph NE12.6 kmh NE 10.4 mph16.7 kmh 30.39 in1029.1 mb 0.00 in0.0 mm 0.00 in0.0 mm 0.23 in5.8 mm
07:09 PM 28.0°F-2.2°C 9.4°F-12.6°C 45% 5.8 mph NE9.3 kmh NE 10.4 mph16.7 kmh 30.39 in1029.1 mb 0.00 in0.0 mm 0.00 in0.0 mm 0.23 in5.8 mm
07:10 PM 28.0°F-2.2°C 9.4°F-12.6°C 45% 4.7 mph NNE7.6 kmh NNE 10.4 mph16.7 kmh 30.39 in1029.1 mb 0.00 in0.0 mm 0.00 in0.0 mm 0.23 in5.8 mm
07:11 PM 28.0°F-2.2°C 9.4°F-12.6°C 45% 5.8 mph NNE9.3 kmh NNE 10.4 mph16.7 kmh 30.39 in1029.1 mb 0.00 in0.0 mm 0.00 in0.0 mm 0.23 in5.8 mm
07:12 PM 27.9°F-2.3°C 8.8°F-12.9°C 44% 6.8 mph NNE10.9 kmh NNE 10.4 mph16.7 kmh 30.39 in1029.1 mb 0.00 in0.0 mm 0.00 in0.0 mm 0.23 in5.8 mm
07:13 PM 27.9°F-2.3°C 8.8°F-12.9°C 44% 6.3 mph NNE10.1 kmh NNE 10.4 mph16.7 kmh 30.39 in1029.1 mb 0.00 in0.0 mm 0.00 in0.0 mm 0.23 in5.8 mm
07:14 PM 27.9°F-2.3°C 8.8°F-12.9°C 44% 8.9 mph NNE14.3 kmh NNE 8.9 mph14.3 kmh 30.39 in1029.1 mb 0.00 in0.0 mm 0.00 in0.0 mm 0.23 in5.8 mm
07:15 PM 27.9°F-2.3°C 8.8°F-12.9°C 44% 7.8 mph NNE12.6 kmh NNE 8.9 mph14.3 kmh 30.39 in1029.1 mb 0.00 in0.0 mm 0.00 in0.0 mm 0.23 in5.8 mm
07:16 PM 27.9°F-2.3°C 9.3°F-12.6°C 45% 6.3 mph NNE10.1 kmh NNE 8.9 mph14.3 kmh 30.39 in1029.1 mb 0.00 in0.0 mm 0.00 in0.0 mm 0.23 in5.8 mm
07:17 PM 27.7°F-2.4°C 8.7°F-12.9°C 44% 9.4 mph NNE15.1 kmh NNE 9.4 mph15.1 kmh 30.39 in1029.1 mb 0.00 in0.0 mm 0.00 in0.0 mm 0.23 in5.8 mm
07:18 PM 27.7°F-2.4°C 8.7°F-12.9°C 44% 4.7 mph ENE7.6 kmh ENE 9.4 mph15.1 kmh 30.39 in1029.1 mb 0.00 in0.0 mm 0.00 in0.0 mm 0.23 in5.8 mm
07:19 PM 27.7°F-2.4°C 8.7°F-12.9°C 44% 8.9 mph NNE14.3 kmh NNE 9.4 mph15.1 kmh 30.39 in1029.1 mb 0.00 in0.0 mm 0.00 in0.0 mm 0.23 in5.8 mm
07:20 PM 27.7°F-2.4°C 8.2°F-13.2°C 43% 6.3 mph NE10.1 kmh NE 9.4 mph15.1 kmh 30.39 in1029.1 mb 0.00 in0.0 mm 0.00 in0.0 mm 0.23 in5.8 mm
07:21 PM 27.7°F-2.4°C 8.7°F-12.9°C 44% 4.7 mph NE7.6 kmh NE 9.4 mph15.1 kmh 30.39 in1029.1 mb 0.00 in0.0 mm 0.00 in0.0 mm 0.23 in5.8 mm
07:22 PM 27.7°F-2.4°C 8.7°F-12.9°C 44% 6.8 mph NNW10.9 kmh NNW 9.4 mph15.1 kmh 30.39 in1029.1 mb 0.00 in0.0 mm 0.00 in0.0 mm 0.23 in5.8 mm
07:23 PM 27.7°F-2.4°C 8.7°F-12.9°C 44% 6.3 mph N10.1 kmh N 9.4 mph15.1 kmh 30.39 in1029.1 mb 0.00 in0.0 mm 0.00 in0.0 mm 0.23 in5.8 mm
07:24 PM 27.5°F-2.5°C 8.5°F-13.1°C 44% 4.2 mph N6.8 kmh N 9.4 mph15.1 kmh 30.39 in1029.1 mb 0.00 in0.0 mm 0.00 in0.0 mm 0.23 in5.8 mm
07:25 PM 27.5°F-2.5°C 8.5°F-13.1°C 44% 4.2 mph N6.8 kmh N 9.4 mph15.1 kmh 30.39 in1029.1 mb 0.00 in0.0 mm 0.00 in0.0 mm 0.23 in5.8 mm
07:30 PM 27.1°F-2.7°C 8.6°F-13.0°C 45% 11.9 mph N19.2 kmh N 11.9 mph19.2 kmh 30.40 in1029.5 mb 0.00 in0.0 mm 0.00 in0.0 mm 0.23 in5.8 mm
07:31 PM 27.1°F-2.7°C 8.6°F-13.0°C 45% 4.7 mph NE7.6 kmh NE 11.9 mph19.2 kmh 30.40 in1029.5 mb 0.00 in0.0 mm 0.00 in0.0 mm 0.23 in5.8 mm
07:32 PM 27.1°F-2.7°C 8.1°F-13.3°C 44% 6.8 mph NE10.9 kmh NE 11.9 mph19.2 kmh 30.40 in1029.5 mb 0.00 in0.0 mm 0.00 in0.0 mm 0.23 in5.8 mm
07:33 PM 27.1°F-2.7°C 8.1°F-13.3°C 44% 3.7 mph NW6.0 kmh NW 11.9 mph19.2 kmh 30.40 in1029.5 mb 0.00 in0.0 mm 0.00 in0.0 mm 0.23 in5.8 mm
07:34 PM 27.1°F-2.7°C 8.1°F-13.3°C 44% 6.3 mph NE10.1 kmh NE 11.9 mph19.2 kmh 30.40 in1029.5 mb 0.00 in0.0 mm 0.00 in0.0 mm 0.23 in5.8 mm
07:35 PM 27.0°F-2.8°C 8.5°F-13.1°C 45% 6.8 mph NNW10.9 kmh NNW 11.9 mph19.2 kmh 30.40 in1029.5 mb 0.00 in0.0 mm 0.00 in0.0 mm 0.23 in5.8 mm
07:36 PM 27.0°F-2.8°C 8.5°F-13.1°C 45% 5.3 mph NNE8.5 kmh NNE 11.9 mph19.2 kmh 30.40 in1029.5 mb 0.00 in0.0 mm 0.00 in0.0 mm 0.23 in5.8 mm
07:37 PM 27.0°F-2.8°C 8.5°F-13.1°C 45% 4.7 mph NNE7.6 kmh NNE 11.9 mph19.2 kmh 30.40 in1029.5 mb 0.00 in0.0 mm 0.00 in0.0 mm 0.23 in5.8 mm
07:38 PM 27.0°F-2.8°C 8.5°F-13.1°C 45% 7.8 mph NNE12.6 kmh NNE 11.9 mph19.2 kmh 30.40 in1029.5 mb 0.00 in0.0 mm 0.00 in0.0 mm 0.23 in5.8 mm
07:39 PM 27.0°F-2.8°C 8.5°F-13.1°C 45% 6.3 mph NNE10.1 kmh NNE 11.9 mph19.2 kmh 30.40 in1029.5 mb 0.00 in0.0 mm 0.00 in0.0 mm 0.23 in5.8 mm
07:40 PM 27.0°F-2.8°C 8.5°F-13.1°C 45% 5.3 mph NNE8.5 kmh NNE 11.9 mph19.2 kmh 30.40 in1029.5 mb 0.00 in0.0 mm 0.00 in0.0 mm 0.23 in5.8 mm
07:41 PM 27.0°F-2.8°C 8.5°F-13.1°C 45% 5.3 mph NNW8.5 kmh NNW 10.4 mph16.7 kmh 30.40 in1029.5 mb 0.00 in0.0 mm 0.00 in0.0 mm 0.23 in5.8 mm
08:06 PM 27.0°F-2.8°C 8.5°F-13.1°C 45% 7.3 mph NNE11.7 kmh NNE 7.3 mph11.7 kmh 30.41 in1029.8 mb 0.00 in0.0 mm 0.00 in0.0 mm 0.23 in5.8 mm
08:07 PM 27.0°F-2.8°C 8.5°F-13.1°C 45% 7.3 mph NNE11.7 kmh NNE 7.3 mph11.7 kmh 30.41 in1029.8 mb 0.00 in0.0 mm 0.00 in0.0 mm 0.23 in5.8 mm
08:12 PM 25.9°F-3.4°C 8.5°F-13.1°C 47% 4.2 mph NNE6.8 kmh NNE 7.3 mph11.7 kmh 30.41 in1029.8 mb 0.00 in0.0 mm 0.00 in0.0 mm 0.23 in5.8 mm
08:44 PM 25.9°F-3.4°C 8.5°F-13.1°C 47% 10.4 mph NNW16.7 kmh NNW 10.4 mph16.7 kmh 30.42 in1030.1 mb 0.00 in0.0 mm 0.00 in0.0 mm 0.23 in5.8 mm
08:45 PM 25.0°F-3.9°C 8.1°F-13.3°C 48% 8.3 mph NNW13.4 kmh NNW 10.4 mph16.7 kmh 30.42 in1030.1 mb 0.00 in0.0 mm 0.00 in0.0 mm 0.23 in5.8 mm
08:46 PM 25.0°F-3.9°C 8.1°F-13.3°C 48% 6.3 mph NNE10.1 kmh NNE 10.4 mph16.7 kmh 30.42 in1030.1 mb 0.00 in0.0 mm 0.00 in0.0 mm 0.23 in5.8 mm
08:47 PM 25.0°F-3.9°C 8.1°F-13.3°C 48% 6.8 mph NNE10.9 kmh NNE 10.4 mph16.7 kmh 30.42 in1030.1 mb 0.00 in0.0 mm 0.00 in0.0 mm 0.23 in5.8 mm
08:48 PM 25.0°F-3.9°C 8.1°F-13.3°C 48% 4.2 mph N6.8 kmh N 10.4 mph16.7 kmh 30.42 in1030.1 mb 0.00 in0.0 mm 0.00 in0.0 mm 0.23 in5.8 mm
08:49 PM 25.0°F-3.9°C 8.1°F-13.3°C 48% 7.3 mph NNE11.7 kmh NNE 10.4 mph16.7 kmh 30.42 in1030.1 mb 0.00 in0.0 mm 0.00 in0.0 mm 0.23 in5.8 mm
08:50 PM 25.0°F-3.9°C 8.1°F-13.3°C 48% 2.7 mph NE4.3 kmh NE 10.4 mph16.7 kmh 30.42 in1030.1 mb 0.00 in0.0 mm 0.00 in0.0 mm 0.23 in5.8 mm
08:51 PM 24.8°F-4.0°C 7.9°F-13.4°C 48% 4.7 mph ENE7.6 kmh ENE 10.4 mph16.7 kmh 30.42 in1030.1 mb 0.00 in0.0 mm 0.00 in0.0 mm 0.23 in5.8 mm
08:52 PM 24.8°F-4.0°C 8.4°F-13.1°C 49% 6.8 mph ENE10.9 kmh ENE 10.4 mph16.7 kmh 30.42 in1030.1 mb 0.00 in0.0 mm 0.00 in0.0 mm 0.23 in5.8 mm
08:53 PM 24.6°F-4.1°C 7.7°F-13.5°C 48% 2.2 mph NNE3.5 kmh NNE 10.4 mph16.7 kmh 30.42 in1030.1 mb 0.00 in0.0 mm 0.00 in0.0 mm 0.23 in5.8 mm
08:54 PM 24.6°F-4.1°C 8.2°F-13.2°C 49% 2.7 mph NNE4.3 kmh NNE 10.4 mph16.7 kmh 30.43 in1030.5 mb 0.00 in0.0 mm 0.00 in0.0 mm 0.23 in5.8 mm
08:55 PM 24.4°F-4.2°C 8.0°F-13.3°C 49% 2.7 mph NNE4.3 kmh NNE 10.4 mph16.7 kmh 30.43 in1030.5 mb 0.00 in0.0 mm 0.00 in0.0 mm 0.23 in5.8 mm
08:56 PM 24.4°F-4.2°C 8.0°F-13.3°C 49% 3.7 mph ESE6.0 kmh ESE 10.4 mph16.7 kmh 30.43 in1030.5 mb 0.00 in0.0 mm 0.00 in0.0 mm 0.23 in5.8 mm
08:57 PM 24.3°F-4.3°C 7.9°F-13.4°C 49% 2.7 mph NE4.3 kmh NE 10.4 mph16.7 kmh 30.43 in1030.5 mb 0.00 in0.0 mm 0.00 in0.0 mm 0.23 in5.8 mm
08:58 PM 24.3°F-4.3°C 7.9°F-13.4°C 49% 4.2 mph NNE6.8 kmh NNE 7.3 mph11.7 kmh 30.43 in1030.5 mb 0.00 in0.0 mm 0.00 in0.0 mm 0.23 in5.8 mm
08:59 PM 24.3°F-4.3°C 7.9°F-13.4°C 49% 5.8 mph NNE9.3 kmh NNE 7.3 mph11.7 kmh 30.43 in1030.5 mb 0.00 in0.0 mm 0.00 in0.0 mm 0.23 in5.8 mm
09:00 PM 24.3°F-4.3°C 7.9°F-13.4°C 49% 3.7 mph ENE6.0 kmh ENE 7.3 mph11.7 kmh 30.43 in1030.5 mb 0.00 in0.0 mm 0.00 in0.0 mm 0.23 in5.8 mm
09:01 PM 24.3°F-4.3°C 8.4°F-13.1°C 50% 2.2 mph ENE3.5 kmh ENE 7.3 mph11.7 kmh 30.43 in1030.5 mb 0.00 in0.0 mm 0.00 in0.0 mm 0.23 in5.8 mm
09:02 PM 24.3°F-4.3°C 8.4°F-13.1°C 50% 4.2 mph ENE6.8 kmh ENE 7.3 mph11.7 kmh 30.43 in1030.5 mb 0.00 in0.0 mm 0.00 in0.0 mm 0.23 in5.8 mm
09:03 PM 24.1°F-4.4°C 8.2°F-13.2°C 50% 4.7 mph S7.6 kmh S 7.3 mph11.7 kmh 30.43 in1030.5 mb 0.00 in0.0 mm 0.00 in0.0 mm 0.23 in5.8 mm
09:08 PM 24.1°F-4.4°C 8.2°F-13.2°C 50% 10.9 mph S17.5 kmh S 10.9 mph17.5 kmh 30.43 in1030.5 mb 0.00 in0.0 mm 0.00 in0.0 mm 0.23 in5.8 mm
09:09 PM 24.1°F-4.4°C 8.2°F-13.2°C 50% 8.9 mph N14.3 kmh N 10.9 mph17.5 kmh 30.43 in1030.5 mb 0.00 in0.0 mm 0.00 in0.0 mm 0.23 in5.8 mm
09:10 PM 24.1°F-4.4°C 7.7°F-13.5°C 49% 6.8 mph NE10.9 kmh NE 10.9 mph17.5 kmh 30.43 in1030.5 mb 0.00 in0.0 mm 0.00 in0.0 mm 0.23 in5.8 mm
09:11 PM 24.1°F-4.4°C 7.7°F-13.5°C 49% 7.8 mph NNE12.6 kmh NNE 10.9 mph17.5 kmh 30.43 in1030.5 mb 0.00 in0.0 mm 0.00 in0.0 mm 0.23 in5.8 mm
09:12 PM 24.1°F-4.4°C 7.7°F-13.5°C 49% 7.3 mph NNE11.7 kmh NNE 10.9 mph17.5 kmh 30.43 in1030.5 mb 0.00 in0.0 mm 0.00 in0.0 mm 0.23 in5.8 mm
09:13 PM 24.1°F-4.4°C 7.7°F-13.5°C 49% 7.3 mph NNE11.7 kmh NNE 10.9 mph17.5 kmh 30.43 in1030.5 mb 0.00 in0.0 mm 0.00 in0.0 mm 0.23 in5.8 mm
09:14 PM 24.1°F-4.4°C 7.7°F-13.5°C 49% 6.8 mph NNW10.9 kmh NNW 10.9 mph17.5 kmh 30.43 in1030.5 mb 0.00 in0.0 mm 0.00 in0.0 mm 0.23 in5.8 mm
09:15 PM 24.1°F-4.4°C 7.7°F-13.5°C 49% 6.3 mph NNE10.1 kmh NNE 10.9 mph17.5 kmh 30.43 in1030.5 mb 0.00 in0.0 mm 0.00 in0.0 mm 0.23 in5.8 mm
09:16 PM 24.1°F-4.4°C 7.7°F-13.5°C 49% 7.8 mph NE12.6 kmh NE 10.9 mph17.5 kmh 30.43 in1030.5 mb 0.00 in0.0 mm 0.00 in0.0 mm 0.23 in5.8 mm
09:17 PM 23.9°F-4.5°C 7.1°F-13.8°C 48% 6.8 mph NNE10.9 kmh NNE 10.9 mph17.5 kmh 30.43 in1030.5 mb 0.00 in0.0 mm 0.00 in0.0 mm 0.23 in5.8 mm
09:18 PM 23.9°F-4.5°C 7.6°F-13.6°C 49% 2.7 mph ESE4.3 kmh ESE 10.9 mph17.5 kmh 30.43 in1030.5 mb 0.00 in0.0 mm 0.00 in0.0 mm 0.23 in5.8 mm
09:19 PM 23.9°F-4.5°C 7.6°F-13.6°C 49% 4.7 mph N7.6 kmh N 9.4 mph15.1 kmh 30.43 in1030.5 mb 0.00 in0.0 mm 0.00 in0.0 mm 0.23 in5.8 mm
09:20 PM 23.9°F-4.5°C 7.6°F-13.6°C 49% 6.3 mph NNE10.1 kmh NNE 9.4 mph15.1 kmh 30.43 in1030.5 mb 0.00 in0.0 mm 0.00 in0.0 mm 0.23 in5.8 mm
09:21 PM 23.9°F-4.5°C 7.1°F-13.8°C 48% 2.7 mph NNE4.3 kmh NNE 9.4 mph15.1 kmh 30.43 in1030.5 mb 0.00 in0.0 mm 0.00 in0.0 mm 0.23 in5.8 mm
09:22 PM 23.9°F-4.5°C 7.1°F-13.8°C 48% 5.3 mph NNE8.5 kmh NNE 8.3 mph13.4 kmh 30.43 in1030.5 mb 0.00 in0.0 mm 0.00 in0.0 mm 0.23 in5.8 mm
09:23 PM 23.7°F-4.6°C 6.9°F-13.9°C 48% 7.8 mph NNE12.6 kmh NNE 7.8 mph12.6 kmh 30.43 in1030.5 mb 0.00 in0.0 mm 0.00 in0.0 mm 0.23 in5.8 mm
09:24 PM 23.7°F-4.6°C 6.9°F-13.9°C 48% 6.3 mph NNE10.1 kmh NNE 7.8 mph12.6 kmh 30.43 in1030.5 mb 0.00 in0.0 mm 0.00 in0.0 mm 0.23 in5.8 mm
09:25 PM 23.7°F-4.6°C 6.9°F-13.9°C 48% 8.9 mph NNE14.3 kmh NNE 9.4 mph15.1 kmh 30.43 in1030.5 mb 0.00 in0.0 mm 0.00 in0.0 mm 0.23 in5.8 mm
09:26 PM 23.7°F-4.6°C 6.9°F-13.9°C 48% 5.8 mph NNE9.3 kmh NNE 9.4 mph15.1 kmh 30.43 in1030.5 mb 0.00 in0.0 mm 0.00 in0.0 mm 0.23 in5.8 mm
09:27 PM 23.7°F-4.6°C 6.9°F-13.9°C 48% 4.2 mph NNE6.8 kmh NNE 9.4 mph15.1 kmh 30.43 in1030.5 mb 0.00 in0.0 mm 0.00 in0.0 mm 0.23 in5.8 mm
09:28 PM 23.7°F-4.6°C 7.4°F-13.7°C 49% 3.7 mph NNE6.0 kmh NNE 9.4 mph15.1 kmh 30.43 in1030.5 mb 0.00 in0.0 mm 0.00 in0.0 mm 0.23 in5.8 mm
09:29 PM 23.7°F-4.6°C 7.4°F-13.7°C 49% 3.7 mph NNE6.0 kmh NNE 9.4 mph15.1 kmh 30.44 in1030.8 mb 0.00 in0.0 mm 0.00 in0.0 mm 0.23 in5.8 mm
09:30 PM 23.7°F-4.6°C 7.4°F-13.7°C 49% 5.8 mph ESE9.3 kmh ESE 9.4 mph15.1 kmh 30.44 in1030.8 mb 0.00 in0.0 mm 0.00 in0.0 mm 0.23 in5.8 mm
09:31 PM 23.5°F-4.7°C 7.2°F-13.8°C 49% 6.8 mph NE10.9 kmh NE 9.4 mph15.1 kmh 30.44 in1030.8 mb 0.00 in0.0 mm 0.00 in0.0 mm 0.23 in5.8 mm
09:32 PM 23.4°F-4.8°C 7.1°F-13.8°C 49% 4.2 mph NE6.8 kmh NE 9.4 mph15.1 kmh 30.44 in1030.8 mb 0.00 in0.0 mm 0.00 in0.0 mm 0.23 in5.8 mm
09:33 PM 23.4°F-4.8°C 7.1°F-13.8°C 49% 9.4 mph NNE15.1 kmh NNE 9.4 mph15.1 kmh 30.44 in1030.8 mb 0.00 in0.0 mm 0.00 in0.0 mm 0.23 in5.8 mm
09:34 PM 23.4°F-4.8°C 7.1°F-13.8°C 49% 8.9 mph NNE14.3 kmh NNE 9.9 mph15.9 kmh 30.44 in1030.8 mb 0.00 in0.0 mm 0.00 in0.0 mm 0.23 in5.8 mm
09:35 PM 23.4°F-4.8°C 7.1°F-13.8°C 49% 6.3 mph NNE10.1 kmh NNE 9.9 mph15.9 kmh 30.44 in1030.8 mb 0.00 in0.0 mm 0.00 in0.0 mm 0.23 in5.8 mm
09:36 PM 23.4°F-4.8°C 7.1°F-13.8°C 49% 2.7 mph NE4.3 kmh NE 9.9 mph15.9 kmh 30.44 in1030.8 mb 0.00 in0.0 mm 0.00 in0.0 mm 0.23 in5.8 mm
09:37 PM 23.4°F-4.8°C 7.1°F-13.8°C 49% 3.7 mph NNE6.0 kmh NNE 9.9 mph15.9 kmh 30.44 in1030.8 mb 0.00 in0.0 mm 0.00 in0.0 mm 0.23 in5.8 mm
09:38 PM 23.4°F-4.8°C 6.6°F-14.1°C 48% 5.8 mph ENE9.3 kmh ENE 9.9 mph15.9 kmh 30.44 in1030.8 mb 0.00 in0.0 mm 0.00 in0.0 mm 0.23 in5.8 mm
09:39 PM 23.4°F-4.8°C 7.1°F-13.8°C 49% 4.7 mph NNE7.6 kmh NNE 9.9 mph15.9 kmh 30.44 in1030.8 mb 0.00 in0.0 mm 0.00 in0.0 mm 0.23 in5.8 mm
09:40 PM 23.4°F-4.8°C 7.1°F-13.8°C 49% 5.8 mph NNE9.3 kmh NNE 9.9 mph15.9 kmh 30.44 in1030.8 mb 0.00 in0.0 mm 0.00 in0.0 mm 0.23 in5.8 mm
09:41 PM 23.4°F-4.8°C 7.5°F-13.6°C 50% 3.7 mph NNE6.0 kmh NNE 9.9 mph15.9 kmh 30.44 in1030.8 mb 0.00 in0.0 mm 0.00 in0.0 mm 0.23 in5.8 mm
09:42 PM 23.2°F-4.9°C 7.8°F-13.4°C 51% 4.7 mph NNW7.6 kmh NNW 9.9 mph15.9 kmh 30.44 in1030.8 mb 0.00 in0.0 mm 0.00 in0.0 mm 0.23 in5.8 mm
09:43 PM 23.2°F-4.9°C 7.8°F-13.4°C 51% 3.7 mph NE6.0 kmh NE 9.9 mph15.9 kmh 30.44 in1030.8 mb 0.00 in0.0 mm 0.00 in0.0 mm 0.23 in5.8 mm
09:44 PM 23.2°F-4.9°C 7.8°F-13.4°C 51% 6.3 mph NE10.1 kmh NE 6.8 mph10.9 kmh 30.44 in1030.8 mb 0.00 in0.0 mm 0.00 in0.0 mm 0.23 in5.8 mm
09:45 PM 23.2°F-4.9°C 7.4°F-13.7°C 50% 7.3 mph NNE11.7 kmh NNE 7.3 mph11.7 kmh 30.44 in1030.8 mb 0.00 in0.0 mm 0.00 in0.0 mm 0.23 in5.8 mm
09:46 PM 23.2°F-4.9°C 7.4°F-13.7°C 50% 6.8 mph NNE10.9 kmh NNE 7.3 mph11.7 kmh 30.44 in1030.8 mb 0.00 in0.0 mm 0.00 in0.0 mm 0.23 in5.8 mm
09:47 PM 23.0°F-5.0°C 6.7°F-14.1°C 49% 3.2 mph NE5.1 kmh NE 7.3 mph11.7 kmh 30.44 in1030.8 mb 0.00 in0.0 mm 0.00 in0.0 mm 0.23 in5.8 mm
09:48 PM 23.0°F-5.0°C 6.7°F-14.1°C 49% 7.3 mph ENE11.7 kmh ENE 7.3 mph11.7 kmh 30.44 in1030.8 mb 0.00 in0.0 mm 0.00 in0.0 mm 0.23 in5.8 mm
09:49 PM 23.0°F-5.0°C 6.7°F-14.1°C 49% 7.8 mph NNE12.6 kmh NNE 7.8 mph12.6 kmh 30.44 in1030.8 mb 0.00 in0.0 mm 0.00 in0.0 mm 0.23 in5.8 mm
09:50 PM 23.0°F-5.0°C 6.3°F-14.3°C 48% 8.3 mph NW13.4 kmh NW 8.3 mph13.4 kmh 30.44 in1030.8 mb 0.00 in0.0 mm 0.00 in0.0 mm 0.23 in5.8 mm
09:51 PM 23.0°F-5.0°C 6.7°F-14.1°C 49% 5.3 mph N8.5 kmh N 8.3 mph13.4 kmh 30.44 in1030.8 mb 0.00 in0.0 mm 0.00 in0.0 mm 0.23 in5.8 mm
09:52 PM 23.0°F-5.0°C 6.7°F-14.1°C 49% 8.3 mph N13.4 kmh N 8.3 mph13.4 kmh 30.44 in1030.8 mb 0.00 in0.0 mm 0.00 in0.0 mm 0.23 in5.8 mm
09:53 PM 23.0°F-5.0°C 6.7°F-14.1°C 49% 5.3 mph NNE8.5 kmh NNE 8.3 mph13.4 kmh 30.45 in1031.2 mb 0.00 in0.0 mm 0.00 in0.0 mm 0.23 in5.8 mm
09:54 PM 23.0°F-5.0°C 6.7°F-14.1°C 49% 4.7 mph NE7.6 kmh NE 8.3 mph13.4 kmh 30.45 in1031.2 mb 0.00 in0.0 mm 0.00 in0.0 mm 0.23 in5.8 mm
09:55 PM 23.0°F-5.0°C 6.7°F-14.1°C 49% 3.2 mph NE5.1 kmh NE 8.3 mph13.4 kmh 30.45 in1031.2 mb 0.00 in0.0 mm 0.00 in0.0 mm 0.23 in5.8 mm
09:56 PM 23.0°F-5.0°C 6.7°F-14.1°C 49% 7.3 mph NE11.7 kmh NE 8.3 mph13.4 kmh 30.45 in1031.2 mb 0.00 in0.0 mm 0.00 in0.0 mm 0.23 in5.8 mm
09:57 PM 23.0°F-5.0°C 6.7°F-14.1°C 49% 5.8 mph NE9.3 kmh NE 8.3 mph13.4 kmh 30.45 in1031.2 mb 0.00 in0.0 mm 0.00 in0.0 mm 0.23 in5.8 mm
09:58 PM 23.0°F-5.0°C 6.3°F-14.3°C 48% 5.8 mph NW9.3 kmh NW 8.3 mph13.4 kmh 30.45 in1031.2 mb 0.00 in0.0 mm 0.00 in0.0 mm 0.23 in5.8 mm
09:59 PM 23.0°F-5.0°C 6.3°F-14.3°C 48% 5.8 mph NW9.3 kmh NW 8.3 mph13.4 kmh 30.45 in1031.2 mb 0.00 in0.0 mm 0.00 in0.0 mm 0.23 in5.8 mm
10:01 PM 23.0°F-5.0°C 6.3°F-14.3°C 48% 7.3 mph ENE11.7 kmh ENE 8.3 mph13.4 kmh 30.45 in1031.2 mb 0.00 in0.0 mm 0.00 in0.0 mm 0.23 in5.8 mm
10:04 PM 23.0°F-5.0°C 6.7°F-14.1°C 49% 5.3 mph ENE8.5 kmh ENE 7.3 mph11.7 kmh 30.45 in1031.2 mb 0.00 in0.0 mm 0.00 in0.0 mm 0.23 in5.8 mm
10:05 PM 23.0°F-5.0°C 6.7°F-14.1°C 49% 7.3 mph NE11.7 kmh NE 7.3 mph11.7 kmh 30.45 in1031.2 mb 0.00 in0.0 mm 0.00 in0.0 mm 0.23 in5.8 mm
10:06 PM 23.0°F-5.0°C 6.7°F-14.1°C 49% 8.3 mph N13.4 kmh N 8.3 mph13.4 kmh 30.46 in1031.5 mb 0.00 in0.0 mm 0.00 in0.0 mm 0.23 in5.8 mm
10:07 PM 23.0°F-5.0°C 6.7°F-14.1°C 49% 5.8 mph N9.3 kmh N 8.3 mph13.4 kmh 30.46 in1031.5 mb 0.00 in0.0 mm 0.00 in0.0 mm 0.23 in5.8 mm
10:08 PM 23.0°F-5.0°C 6.7°F-14.1°C 49% 5.3 mph N8.5 kmh N 8.3 mph13.4 kmh 30.46 in1031.5 mb 0.00 in0.0 mm 0.00 in0.0 mm 0.23 in5.8 mm
10:09 PM 23.0°F-5.0°C 6.7°F-14.1°C 49% 5.8 mph N9.3 kmh N 8.3 mph13.4 kmh 30.46 in1031.5 mb 0.00 in0.0 mm 0.00 in0.0 mm 0.23 in5.8 mm
10:10 PM 23.0°F-5.0°C 7.2°F-13.8°C 50% 5.3 mph ENE8.5 kmh ENE 8.3 mph13.4 kmh 30.46 in1031.5 mb 0.00 in0.0 mm 0.00 in0.0 mm 0.23 in5.8 mm
10:11 PM 22.8°F-5.1°C 7.0°F-13.9°C 50% 5.8 mph ENE9.3 kmh ENE 8.3 mph13.4 kmh 30.46 in1031.5 mb 0.00 in0.0 mm 0.00 in0.0 mm 0.23 in5.8 mm
10:12 PM 22.8°F-5.1°C 7.0°F-13.9°C 50% 4.7 mph ENE7.6 kmh ENE 8.3 mph13.4 kmh 30.46 in1031.5 mb 0.00 in0.0 mm 0.00 in0.0 mm 0.23 in5.8 mm
10:13 PM 22.8°F-5.1°C 7.4°F-13.7°C 51% 3.7 mph ENE6.0 kmh ENE 8.3 mph13.4 kmh 30.46 in1031.5 mb 0.00 in0.0 mm 0.00 in0.0 mm 0.23 in5.8 mm
10:14 PM 22.6°F-5.2°C 7.2°F-13.8°C 51% 2.2 mph ENE3.5 kmh ENE 8.3 mph13.4 kmh 30.46 in1031.5 mb 0.00 in0.0 mm 0.00 in0.0 mm 0.23 in5.8 mm
10:15 PM 22.6°F-5.2°C 7.2°F-13.8°C 51% 2.2 mph NE3.5 kmh NE 8.3 mph13.4 kmh 30.46 in1031.5 mb 0.00 in0.0 mm 0.00 in0.0 mm 0.23 in5.8 mm
10:16 PM 22.6°F-5.2°C 7.2°F-13.8°C 51% 4.2 mph NE6.8 kmh NE 8.3 mph13.4 kmh 30.46 in1031.5 mb 0.00 in0.0 mm 0.00 in0.0 mm 0.23 in5.8 mm
10:18 PM 22.5°F-5.3°C 6.7°F-14.1°C 50% 1.7 mph NE2.7 kmh NE 5.8 mph9.3 kmh 30.46 in1031.5 mb 0.00 in0.0 mm 0.00 in0.0 mm 0.23 in5.8 mm
10:19 PM 22.5°F-5.3°C 6.7°F-14.1°C 50% 1.7 mph E2.7 kmh E 5.8 mph9.3 kmh 30.46 in1031.5 mb 0.00 in0.0 mm 0.00 in0.0 mm 0.23 in5.8 mm
10:20 PM 22.5°F-5.3°C 6.7°F-14.1°C 50% 2.2 mph NNE3.5 kmh NNE 5.8 mph9.3 kmh 30.46 in1031.5 mb 0.00 in0.0 mm 0.00 in0.0 mm 0.23 in5.8 mm
10:21 PM 22.5°F-5.3°C 6.7°F-14.1°C 50% 1.1 mph NE1.8 kmh NE 5.8 mph9.3 kmh 30.46 in1031.5 mb 0.00 in0.0 mm 0.00 in0.0 mm 0.23 in5.8 mm
10:22 PM 22.3°F-5.4°C 6.5°F-14.2°C 50% 4.7 mph NE7.6 kmh NE 4.7 mph7.6 kmh 30.46 in1031.5 mb 0.00 in0.0 mm 0.00 in0.0 mm 0.23 in5.8 mm
10:23 PM 22.3°F-5.4°C 6.5°F-14.2°C 50% 4.2 mph ENE6.8 kmh ENE 4.7 mph7.6 kmh 30.46 in1031.5 mb 0.00 in0.0 mm 0.00 in0.0 mm 0.23 in5.8 mm
10:24 PM 22.3°F-5.4°C 6.5°F-14.2°C 50% 5.3 mph NNE8.5 kmh NNE 5.3 mph8.5 kmh 30.46 in1031.5 mb 0.00 in0.0 mm 0.00 in0.0 mm 0.23 in5.8 mm
10:28 PM 22.1°F-5.5°C 7.2°F-13.8°C 52% 3.7 mph NNE6.0 kmh NNE 5.3 mph8.5 kmh 30.46 in1031.5 mb 0.00 in0.0 mm 0.00 in0.0 mm 0.23 in5.8 mm
10:29 PM 22.1°F-5.5°C 7.2°F-13.8°C 52% 3.2 mph NE5.1 kmh NE 5.3 mph8.5 kmh 30.47 in1031.8 mb 0.00 in0.0 mm 0.00 in0.0 mm 0.23 in5.8 mm
10:31 PM 22.1°F-5.5°C 7.2°F-13.8°C 52% 3.7 mph NE6.0 kmh NE 5.3 mph8.5 kmh 30.47 in1031.8 mb 0.00 in0.0 mm 0.00 in0.0 mm 0.23 in5.8 mm
10:32 PM 22.1°F-5.5°C 7.2°F-13.8°C 52% 5.3 mph N8.5 kmh N 5.3 mph8.5 kmh 30.47 in1031.8 mb 0.00 in0.0 mm 0.00 in0.0 mm 0.23 in5.8 mm
10:33 PM 22.1°F-5.5°C 7.2°F-13.8°C 52% 3.7 mph N6.0 kmh N 5.3 mph8.5 kmh 30.47 in1031.8 mb 0.00 in0.0 mm 0.00 in0.0 mm 0.23 in5.8 mm
10:44 PM 22.1°F-5.5°C 7.2°F-13.8°C 52% 2.7 mph NNE4.3 kmh NNE 2.7 mph4.3 kmh 30.47 in1031.8 mb 0.00 in0.0 mm 0.00 in0.0 mm 0.23 in5.8 mm
10:45 PM 22.1°F-5.5°C 7.2°F-13.8°C 52% 2.7 mph NNE4.3 kmh NNE 2.7 mph4.3 kmh 30.48 in1032.2 mb 0.00 in0.0 mm 0.00 in0.0 mm 0.23 in5.8 mm